<?xml version='1.0' encoding='UTF-8'?><gpx version="1.1" creator="JPX - https://github.com/jenetics/jpx" xmlns="http://www.topografix.com/GPX/1/1"><trk><trkseg><trkpt lat="45.60596703948612" lon="8.928795947916047"><ele>208.0</ele><time>2026-04-24T03:29:15Z</time></trkpt><trkpt lat="45.60587186762596" lon="8.928799961602058"><ele>208.0</ele><time>2026-04-24T03:29:17Z</time></trkpt><trkpt lat="45.605802432258585" lon="8.928849237814168"><ele>208.0</ele><time>2026-04-24T03:29:18Z</time></trkpt><trkpt lat="45.605725465973784" lon="8.92893268088043"><ele>208.0</ele><time>2026-04-24T03:29:19Z</time></trkpt><trkpt lat="45.60566031321993" lon="8.929016638327225"><ele>208.0</ele><time>2026-04-24T03:29:19.999Z</time></trkpt><trkpt lat="45.60555084446575" lon="8.929099671994528"><ele>208.0</ele><time>2026-04-24T03:29:21.999Z</time></trkpt><trkpt lat="45.605491625373745" lon="8.9291463693814"><ele>208.0</ele><time>2026-04-24T03:29:22.999Z</time></trkpt><trkpt lat="45.60542895424066" lon="8.92919756362304"><ele>208.0</ele><time>2026-04-24T03:29:23.999Z</time></trkpt><trkpt lat="45.60533177929074" lon="8.929279492508762"><ele>208.0</ele><time>2026-04-24T03:29:25.999Z</time></trkpt><trkpt lat="45.60522937724989" lon="8.929363475468547"><ele>208.0</ele><time>2026-04-24T03:29:27.999Z</time></trkpt><trkpt lat="45.60515876222336" lon="8.929419524524828"><ele>208.0</ele><time>2026-04-24T03:29:28.999Z</time></trkpt><trkpt lat="45.605073203828574" lon="8.92949200801142"><ele>208.0</ele><time>2026-04-24T03:29:29.999Z</time></trkpt><trkpt lat="45.604976500519086" lon="8.929594323987095"><ele>208.0</ele><time>2026-04-24T03:29:30.999Z</time></trkpt><trkpt lat="45.60486986082901" lon="8.929686342747356"><ele>208.0</ele><time>2026-04-24T03:29:31.999Z</time></trkpt><trkpt lat="45.60476795728316" lon="8.929766528365722"><ele>208.0</ele><time>2026-04-24T03:29:32.999Z</time></trkpt><trkpt lat="45.60466301863905" lon="8.929855325486264"><ele>208.0</ele><time>2026-04-24T03:29:33.999Z</time></trkpt><trkpt lat="45.60455233790649" lon="8.929947908220191"><ele>208.0</ele><time>2026-04-24T03:29:34.999Z</time></trkpt><trkpt lat="45.60444714083139" lon="8.930029365685398"><ele>208.0</ele><time>2026-04-24T03:29:35.999Z</time></trkpt><trkpt lat="45.60435800756576" lon="8.930110207884143"><ele>208.0</ele><time>2026-04-24T03:29:36.999Z</time></trkpt><trkpt lat="45.6042647336227" lon="8.930192125982115"><ele>208.0</ele><time>2026-04-24T03:29:37.999Z</time></trkpt><trkpt lat="45.60417188681256" lon="8.930271486399382"><ele>208.0</ele><time>2026-04-24T03:29:38.999Z</time></trkpt><trkpt lat="45.60407219315547" lon="8.930352175991926"><ele>208.0</ele><time>2026-04-24T03:29:39.999Z</time></trkpt><trkpt lat="45.60398172883659" lon="8.930419452766886"><ele>208.0</ele><time>2026-04-24T03:29:40.999Z</time></trkpt><trkpt lat="45.603903148288246" lon="8.930472286992654"><ele>208.0</ele><time>2026-04-24T03:29:41.999Z</time></trkpt><trkpt lat="45.603834241630025" lon="8.930505222976084"><ele>208.0</ele><time>2026-04-24T03:29:42.999Z</time></trkpt><trkpt lat="45.603769697644125" lon="8.930510028974371"><ele>208.0</ele><time>2026-04-24T03:29:43.999Z</time></trkpt><trkpt lat="45.603678530114635" lon="8.930560287870929"><ele>208.0</ele><time>2026-04-24T03:29:45.999Z</time></trkpt><trkpt lat="45.60360868835707" lon="8.930699459007332"><ele>208.0</ele><time>2026-04-24T03:29:47.999Z</time></trkpt><trkpt lat="45.60371179458971" lon="8.930852374921608"><ele>208.0</ele><time>2026-04-24T03:29:49.999Z</time></trkpt><trkpt lat="45.60381012804252" lon="8.930944914087243"><ele>208.0</ele><time>2026-04-24T03:29:50.999Z</time></trkpt><trkpt lat="45.603908110391714" lon="8.931067485275227"><ele>208.0</ele><time>2026-04-24T03:29:51.999Z</time></trkpt><trkpt lat="45.60401677079832" lon="8.931194898525167"><ele>208.0</ele><time>2026-04-24T03:29:52.999Z</time></trkpt><trkpt lat="45.60413286108889" lon="8.931332668414406"><ele>208.0</ele><time>2026-04-24T03:29:53.999Z</time></trkpt><trkpt lat="45.60424998693232" lon="8.931469592348224"><ele>208.0</ele><time>2026-04-24T03:29:54.999Z</time></trkpt><trkpt lat="45.604360506942875" lon="8.931626508787563"><ele>208.0</ele><time>2026-04-24T03:29:55.999Z</time></trkpt><trkpt lat="45.60447636722906" lon="8.931757884429553"><ele>208.75</ele><time>2026-04-24T03:29:56.999Z</time></trkpt><trkpt lat="45.604590228237434" lon="8.93190155539514"><ele>209.5</ele><time>2026-04-24T03:29:57.999Z</time></trkpt><trkpt lat="45.60470088505127" lon="8.932048543618988"><ele>210.25</ele><time>2026-04-24T03:29:58.999Z</time></trkpt><trkpt lat="45.60479921251765" lon="8.932193942971262"><ele>211.0</ele><time>2026-04-24T03:29:59.999Z</time></trkpt><trkpt lat="45.60490712136768" lon="8.932332055949647"><ele>211.0</ele><time>2026-04-24T03:30:00.999Z</time></trkpt><trkpt lat="45.60503231882467" lon="8.932491483017435"><ele>211.0</ele><time>2026-04-24T03:30:01.999Z</time></trkpt><trkpt lat="45.60516282333743" lon="8.932662047086996"><ele>211.0</ele><time>2026-04-24T03:30:02.999Z</time></trkpt><trkpt lat="45.60529876746849" lon="8.932828387690165"><ele>214.0</ele><time>2026-04-24T03:30:03.999Z</time></trkpt><trkpt lat="45.60541515737067" lon="8.93303656442758"><ele>217.0</ele><time>2026-04-24T03:30:04.999Z</time></trkpt><trkpt lat="45.60554316849341" lon="8.933235141879756"><ele>220.0</ele><time>2026-04-24T03:30:05.999Z</time></trkpt><trkpt lat="45.60567105661365" lon="8.933436951212476"><ele>220.0</ele><time>2026-04-24T03:30:06.999Z</time></trkpt><trkpt lat="45.60580443989449" lon="8.933651351069118"><ele>220.0</ele><time>2026-04-24T03:30:07.999Z</time></trkpt><trkpt lat="45.605932165394734" lon="8.93388061412095"><ele>220.0</ele><time>2026-04-24T03:30:08.999Z</time></trkpt><trkpt lat="45.606043293914" lon="8.934124241142573"><ele>219.66666666666666</ele><time>2026-04-24T03:30:09.999Z</time></trkpt><trkpt lat="45.606129975041334" lon="8.934389083452299"><ele>219.33333333333331</ele><time>2026-04-24T03:30:10.999Z</time></trkpt><trkpt lat="45.60620806013431" lon="8.934656030985211"><ele>219.0</ele><time>2026-04-24T03:30:11.999Z</time></trkpt><trkpt lat="45.606295369197056" lon="8.934919773570995"><ele>219.0</ele><time>2026-04-24T03:30:12.999Z</time></trkpt><trkpt lat="45.60640848242376" lon="8.935159116565956"><ele>219.0</ele><time>2026-04-24T03:30:13.999Z</time></trkpt><trkpt lat="45.606520818228525" lon="8.935413141828082"><ele>219.0</ele><time>2026-04-24T03:30:14.999Z</time></trkpt><trkpt lat="45.60662072449646" lon="8.935677617778463"><ele>219.66666666666669</ele><time>2026-04-24T03:30:15.999Z</time></trkpt><trkpt lat="45.60674046915244" lon="8.935927998018489"><ele>220.33333333333334</ele><time>2026-04-24T03:30:16.999Z</time></trkpt><trkpt lat="45.606849767000575" lon="8.936189362743738"><ele>221.0</ele><time>2026-04-24T03:30:17.999Z</time></trkpt><trkpt lat="45.60694826446436" lon="8.936476108151577"><ele>220.66666666666669</ele><time>2026-04-24T03:30:18.999Z</time></trkpt><trkpt lat="45.60706998858952" lon="8.936723913271026"><ele>220.33333333333331</ele><time>2026-04-24T03:30:19.999Z</time></trkpt><trkpt lat="45.60719320018654" lon="8.936984729556013"><ele>220.0</ele><time>2026-04-24T03:30:21Z</time></trkpt><trkpt lat="45.60730624368324" lon="8.937253252698904"><ele>220.0</ele><time>2026-04-24T03:30:22Z</time></trkpt><trkpt lat="45.60741403329628" lon="8.93752601757445"><ele>220.0</ele><time>2026-04-24T03:30:23Z</time></trkpt><trkpt lat="45.607518438045105" lon="8.93778516300398"><ele>220.0</ele><time>2026-04-24T03:30:24Z</time></trkpt><trkpt lat="45.607630429660226" lon="8.938049284466874"><ele>219.66666666666666</ele><time>2026-04-24T03:30:25Z</time></trkpt><trkpt lat="45.607740997803695" lon="8.938310330896012"><ele>219.33333333333331</ele><time>2026-04-24T03:30:26Z</time></trkpt><trkpt lat="45.607846388023866" lon="8.938547995430786"><ele>219.0</ele><time>2026-04-24T03:30:27Z</time></trkpt><trkpt lat="45.6079478006935" lon="8.938761681408131"><ele>218.66666666666669</ele><time>2026-04-24T03:30:28Z</time></trkpt><trkpt lat="45.608061881578166" lon="8.938975711514363"><ele>218.33333333333334</ele><time>2026-04-24T03:30:29Z</time></trkpt><trkpt lat="45.60818518714805" lon="8.939207993917403"><ele>218.0</ele><time>2026-04-24T03:30:30Z</time></trkpt><trkpt lat="45.60830969682826" lon="8.939437509150771"><ele>218.0</ele><time>2026-04-24T03:30:31Z</time></trkpt><trkpt lat="45.60843869902858" lon="8.939650572272122"><ele>218.0</ele><time>2026-04-24T03:30:32Z</time></trkpt><trkpt lat="45.60857083188444" lon="8.939817898916"><ele>218.0</ele><time>2026-04-24T03:30:33Z</time></trkpt><trkpt lat="45.608713303199885" lon="8.939954202603737"><ele>218.66666666666669</ele><time>2026-04-24T03:30:34Z</time></trkpt><trkpt lat="45.60888392900746" lon="8.940104180490422"><ele>219.33333333333331</ele><time>2026-04-24T03:30:35Z</time></trkpt><trkpt lat="45.60906676859158" lon="8.940241535207903"><ele>220.0</ele><time>2026-04-24T03:30:36Z</time></trkpt><trkpt lat="45.60924748952703" lon="8.940395529602542"><ele>220.0</ele><time>2026-04-24T03:30:37Z</time></trkpt><trkpt lat="45.60940153776056" lon="8.940557789590835"><ele>220.0</ele><time>2026-04-24T03:30:38Z</time></trkpt><trkpt lat="45.60951621254069" lon="8.940755101485914"><ele>220.0</ele><time>2026-04-24T03:30:39Z</time></trkpt><trkpt lat="45.60964022094942" lon="8.940930330956293"><ele>219.33333333333331</ele><time>2026-04-24T03:30:40Z</time></trkpt><trkpt lat="45.6097538346806" lon="8.94115208830363"><ele>218.66666666666669</ele><time>2026-04-24T03:30:41Z</time></trkpt><trkpt lat="45.60987554313139" lon="8.941403505031596"><ele>218.0</ele><time>2026-04-24T03:30:42Z</time></trkpt><trkpt lat="45.6099956355652" lon="8.941668556135111"><ele>218.0</ele><time>2026-04-24T03:30:43Z</time></trkpt><trkpt lat="45.610112591240714" lon="8.941945386612122"><ele>218.0</ele><time>2026-04-24T03:30:44Z</time></trkpt><trkpt lat="45.61022359443846" lon="8.942230532360483"><ele>218.0</ele><time>2026-04-24T03:30:45Z</time></trkpt><trkpt lat="45.61033839543434" lon="8.94251740530267"><ele>218.0</ele><time>2026-04-24T03:30:46Z</time></trkpt><trkpt lat="45.61045684309474" lon="8.942812622356882"><ele>218.5</ele><time>2026-04-24T03:30:47Z</time></trkpt><trkpt lat="45.610583215496234" lon="8.94310226008711"><ele>219.0</ele><time>2026-04-24T03:30:48Z</time></trkpt><trkpt lat="45.61071359011665" lon="8.943386445698373"><ele>219.5</ele><time>2026-04-24T03:30:49Z</time></trkpt><trkpt lat="45.610853577258716" lon="8.943680610058795"><ele>220.0</ele><time>2026-04-24T03:30:50Z</time></trkpt><trkpt lat="45.61099149308125" lon="8.943947042686332"><ele>220.0</ele><time>2026-04-24T03:30:51Z</time></trkpt><trkpt lat="45.61113001054205" lon="8.944200069185575"><ele>220.0</ele><time>2026-04-24T03:30:52Z</time></trkpt><trkpt lat="45.611252563619345" lon="8.944428201085017"><ele>220.0</ele><time>2026-04-24T03:30:53Z</time></trkpt><trkpt lat="45.61136533042217" lon="8.944645298029991"><ele>219.8</ele><time>2026-04-24T03:30:54Z</time></trkpt><trkpt lat="45.611458385549874" lon="8.944829612695344"><ele>219.6</ele><time>2026-04-24T03:30:55Z</time></trkpt><trkpt lat="45.611526125290304" lon="8.944962618964977"><ele>219.39999999999998</ele><time>2026-04-24T03:30:56Z</time></trkpt><trkpt lat="45.6115679519896" lon="8.945044236043602"><ele>219.2</ele><time>2026-04-24T03:30:57Z</time></trkpt><trkpt lat="45.61160758427731" lon="8.945121202796805"><ele>219.0</ele><time>2026-04-24T03:30:58Z</time></trkpt><trkpt lat="45.61166886282284" lon="8.94523600487648"><ele>219.0</ele><time>2026-04-24T03:30:59Z</time></trkpt><trkpt lat="45.611714698477726" lon="8.945400958721256"><ele>219.0</ele><time>2026-04-24T03:31:00Z</time></trkpt><trkpt lat="45.61173134932616" lon="8.945619946285232"><ele>219.0</ele><time>2026-04-24T03:31:01Z</time></trkpt><trkpt lat="45.61173808246374" lon="8.945887054868175"><ele>219.0</ele><time>2026-04-24T03:31:02Z</time></trkpt><trkpt lat="45.61174831958938" lon="8.946197662015875"><ele>219.0</ele><time>2026-04-24T03:31:03Z</time></trkpt><trkpt lat="45.61176223102965" lon="8.946489102252357"><ele>219.0</ele><time>2026-04-24T03:31:04Z</time></trkpt><trkpt lat="45.61177253525275" lon="8.946797682496738"><ele>218.5</ele><time>2026-04-24T03:31:05Z</time></trkpt><trkpt lat="45.61178288962924" lon="8.947120969845377"><ele>218.0</ele><time>2026-04-24T03:31:06Z</time></trkpt><trkpt lat="45.6117902624185" lon="8.947456015678148"><ele>218.0</ele><time>2026-04-24T03:31:07Z</time></trkpt><trkpt lat="45.6117986399653" lon="8.947763946784251"><ele>218.0</ele><time>2026-04-24T03:31:08Z</time></trkpt><trkpt lat="45.61181086382482" lon="8.948041684992273"><ele>218.0</ele><time>2026-04-24T03:31:09Z</time></trkpt><trkpt lat="45.611817894094294" lon="8.948298518295449"><ele>218.0</ele><time>2026-04-24T03:31:10Z</time></trkpt><trkpt lat="45.61182143759959" lon="8.948533219175461"><ele>218.0</ele><time>2026-04-24T03:31:11Z</time></trkpt><trkpt lat="45.61182175186487" lon="8.948753413780903"><ele>218.0</ele><time>2026-04-24T03:31:12Z</time></trkpt><trkpt lat="45.61182290449472" lon="8.948949660321988"><ele>218.0</ele><time>2026-04-24T03:31:13Z</time></trkpt><trkpt lat="45.61182303266165" lon="8.949107152065096"><ele>218.0</ele><time>2026-04-24T03:31:14Z</time></trkpt><trkpt lat="45.61181628343729" lon="8.949241018114678"><ele>218.0</ele><time>2026-04-24T03:31:15Z</time></trkpt><trkpt lat="45.61179644933134" lon="8.949368894492634"><ele>218.0</ele><time>2026-04-24T03:31:16Z</time></trkpt><trkpt lat="45.611803125870644" lon="8.949490259333524"><ele>218.0</ele><time>2026-04-24T03:31:17Z</time></trkpt><trkpt lat="45.611842515438944" lon="8.949645621200984"><ele>218.33333333333334</ele><time>2026-04-24T03:31:18Z</time></trkpt><trkpt lat="45.61187569901936" lon="8.949856394167734"><ele>218.66666666666669</ele><time>2026-04-24T03:31:19Z</time></trkpt><trkpt lat="45.611886904809296" lon="8.9501241960213"><ele>219.0</ele><time>2026-04-24T03:31:20Z</time></trkpt><trkpt lat="45.61189647439884" lon="8.95042469602894"><ele>219.0</ele><time>2026-04-24T03:31:21Z</time></trkpt><trkpt lat="45.61190758611419" lon="8.95075641954089"><ele>219.0</ele><time>2026-04-24T03:31:22Z</time></trkpt><trkpt lat="45.61192317199452" lon="8.95109764034192"><ele>218.5</ele><time>2026-04-24T03:31:23Z</time></trkpt><trkpt lat="45.61194163332221" lon="8.951455299869815"><ele>218.0</ele><time>2026-04-24T03:31:24Z</time></trkpt><trkpt lat="45.611955603054014" lon="8.951824022143379"><ele>217.5</ele><time>2026-04-24T03:31:25Z</time></trkpt><trkpt lat="45.61196814127695" lon="8.952179879555453"><ele>217.0</ele><time>2026-04-24T03:31:26Z</time></trkpt><trkpt lat="45.61198411583619" lon="8.952541985188063"><ele>217.5</ele><time>2026-04-24T03:31:27Z</time></trkpt><trkpt lat="45.61199915098183" lon="8.95291039728679"><ele>218.0</ele><time>2026-04-24T03:31:28Z</time></trkpt><trkpt lat="45.61201251679701" lon="8.953261524018613"><ele>218.0</ele><time>2026-04-24T03:31:29Z</time></trkpt><trkpt lat="45.61202062128305" lon="8.953580989701713"><ele>218.0</ele><time>2026-04-24T03:31:30Z</time></trkpt><trkpt lat="45.61202709896886" lon="8.95388167622956"><ele>218.0</ele><time>2026-04-24T03:31:30.999Z</time></trkpt><trkpt lat="45.61203593430586" lon="8.954158615789924"><ele>217.66666666666669</ele><time>2026-04-24T03:31:31.999Z</time></trkpt><trkpt lat="45.612048296115844" lon="8.95442303400534"><ele>217.33333333333331</ele><time>2026-04-24T03:31:32.999Z</time></trkpt><trkpt lat="45.61205893173648" lon="8.95467169689185"><ele>217.0</ele><time>2026-04-24T03:31:33.999Z</time></trkpt><trkpt lat="45.6120689551529" lon="8.954930098576046"><ele>217.0</ele><time>2026-04-24T03:31:34.999Z</time></trkpt><trkpt lat="45.6120723053722" lon="8.955210518495141"><ele>217.0</ele><time>2026-04-24T03:31:35.999Z</time></trkpt><trkpt lat="45.61207975991744" lon="8.955485371194518"><ele>217.0</ele><time>2026-04-24T03:31:36.999Z</time></trkpt><trkpt lat="45.61208929742688" lon="8.955728048802632"><ele>217.0</ele><time>2026-04-24T03:31:37.999Z</time></trkpt><trkpt lat="45.61209943849756" lon="8.95592424780782"><ele>217.0</ele><time>2026-04-24T03:31:38.999Z</time></trkpt><trkpt lat="45.6121028360472" lon="8.956069952695703"><ele>217.0</ele><time>2026-04-24T03:31:39.999Z</time></trkpt><trkpt lat="45.61210486105428" lon="8.95616002361196"><ele>217.0</ele><time>2026-04-24T03:31:40.999Z</time></trkpt><trkpt lat="45.612080461358" lon="8.956274954535608"><ele>217.0</ele><time>2026-04-24T03:31:49.999Z</time></trkpt><trkpt lat="45.6120477427793" lon="8.956357061258291"><ele>217.0</ele><time>2026-04-24T03:31:50.999Z</time></trkpt><trkpt lat="45.61202911795211" lon="8.956529152914355"><ele>217.0</ele><time>2026-04-24T03:31:52.999Z</time></trkpt><trkpt lat="45.61207569305209" lon="8.956598009601624"><ele>217.0</ele><time>2026-04-24T03:31:53.999Z</time></trkpt><trkpt lat="45.612151911062035" lon="8.956621258079855"><ele>217.0</ele><time>2026-04-24T03:31:54.999Z</time></trkpt><trkpt lat="45.612246096504684" lon="8.956615656974556"><ele>217.0</ele><time>2026-04-24T03:31:55.999Z</time></trkpt><trkpt lat="45.612335627845525" lon="8.956640987751632"><ele>217.0</ele><time>2026-04-24T03:31:56.999Z</time></trkpt><trkpt lat="45.612409708607444" lon="8.956766740615215"><ele>217.0</ele><time>2026-04-24T03:31:57.999Z</time></trkpt><trkpt lat="45.61252886935517" lon="8.956918244673975"><ele>217.0</ele><time>2026-04-24T03:31:58.999Z</time></trkpt><trkpt lat="45.61264294670113" lon="8.957116984304426"><ele>217.0</ele><time>2026-04-24T03:31:59.999Z</time></trkpt><trkpt lat="45.612756703631646" lon="8.957301621839516"><ele>217.0</ele><time>2026-04-24T03:32:00.999Z</time></trkpt><trkpt lat="45.612871755600295" lon="8.957473893135008"><ele>217.0</ele><time>2026-04-24T03:32:01.999Z</time></trkpt><trkpt lat="45.612986726906406" lon="8.957649714878578"><ele>216.0</ele><time>2026-04-24T03:32:02.999Z</time></trkpt><trkpt lat="45.61310014618735" lon="8.957831875934342"><ele>215.0</ele><time>2026-04-24T03:32:03.999Z</time></trkpt><trkpt lat="45.613215122621725" lon="8.958010340828036"><ele>214.0</ele><time>2026-04-24T03:32:04.999Z</time></trkpt><trkpt lat="45.6133423046588" lon="8.958207151246242"><ele>214.0</ele><time>2026-04-24T03:32:05.999Z</time></trkpt><trkpt lat="45.613478467331376" lon="8.958420071609456"><ele>214.0</ele><time>2026-04-24T03:32:06.999Z</time></trkpt><trkpt lat="45.613602403980096" lon="8.95861759875343"><ele>214.0</ele><time>2026-04-24T03:32:07.999Z</time></trkpt><trkpt lat="45.61371729746106" lon="8.958808204007848"><ele>214.0</ele><time>2026-04-24T03:32:08.999Z</time></trkpt><trkpt lat="45.61382385737132" lon="8.959015432212016"><ele>214.0</ele><time>2026-04-24T03:32:09.999Z</time></trkpt><trkpt lat="45.61389308641214" lon="8.959277170566493"><ele>214.0</ele><time>2026-04-24T03:32:10.999Z</time></trkpt><trkpt lat="45.61400065524713" lon="8.959532025849937"><ele>214.66666666666666</ele><time>2026-04-24T03:32:11.999Z</time></trkpt><trkpt lat="45.61408544702761" lon="8.959784525333422"><ele>215.33333333333331</ele><time>2026-04-24T03:32:12.999Z</time></trkpt><trkpt lat="45.61415898371722" lon="8.959989486487572"><ele>216.0</ele><time>2026-04-24T03:32:13.999Z</time></trkpt><trkpt lat="45.61422467659119" lon="8.96014317887957"><ele>216.20000000000002</ele><time>2026-04-24T03:32:14.999Z</time></trkpt><trkpt lat="45.614289414880254" lon="8.96025963737301"><ele>216.40000000000003</ele><time>2026-04-24T03:32:15.999Z</time></trkpt><trkpt lat="45.61433897659965" lon="8.960397005979562"><ele>216.6</ele><time>2026-04-24T03:32:16.999Z</time></trkpt><trkpt lat="45.61436749685162" lon="8.960531079658779"><ele>216.8</ele><time>2026-04-24T03:32:17.999Z</time></trkpt><trkpt lat="45.61440917719919" lon="8.960679257609712"><ele>217.0</ele><time>2026-04-24T03:32:18.999Z</time></trkpt><trkpt lat="45.614490482613725" lon="8.960841896673898"><ele>216.66666666666666</ele><time>2026-04-24T03:32:19.999Z</time></trkpt><trkpt lat="45.61459220131438" lon="8.96102730726158"><ele>216.33333333333331</ele><time>2026-04-24T03:32:20.999Z</time></trkpt><trkpt lat="45.61470332309096" lon="8.96124280114492"><ele>216.0</ele><time>2026-04-24T03:32:21.999Z</time></trkpt><trkpt lat="45.614821726764404" lon="8.96147842343635"><ele>216.0</ele><time>2026-04-24T03:32:22.999Z</time></trkpt><trkpt lat="45.61495130362956" lon="8.961696982410226"><ele>216.0</ele><time>2026-04-24T03:32:23.999Z</time></trkpt><trkpt lat="45.615089395469106" lon="8.961906317759802"><ele>216.0</ele><time>2026-04-24T03:32:24.999Z</time></trkpt><trkpt lat="45.61523196238754" lon="8.962113242449426"><ele>216.66666666666669</ele><time>2026-04-24T03:32:25.999Z</time></trkpt><trkpt lat="45.61537177824775" lon="8.962337113687937"><ele>217.33333333333334</ele><time>2026-04-24T03:32:27Z</time></trkpt><trkpt lat="45.61551078624521" lon="8.962499230651412"><ele>218.0</ele><time>2026-04-24T03:32:28Z</time></trkpt><trkpt lat="45.615629603723264" lon="8.962663842638284"><ele>218.0</ele><time>2026-04-24T03:32:29Z</time></trkpt><trkpt lat="45.61574262010241" lon="8.96281100544099"><ele>218.0</ele><time>2026-04-24T03:32:30Z</time></trkpt><trkpt lat="45.615851376806255" lon="8.962956482267929"><ele>218.0</ele><time>2026-04-24T03:32:31Z</time></trkpt><trkpt lat="45.615962614543655" lon="8.96310190390373"><ele>218.0</ele><time>2026-04-24T03:32:32Z</time></trkpt><trkpt lat="45.61607314827296" lon="8.963252870515428"><ele>218.0</ele><time>2026-04-24T03:32:33Z</time></trkpt><trkpt lat="45.61618547209397" lon="8.963403415155364"><ele>218.0</ele><time>2026-04-24T03:32:34Z</time></trkpt><trkpt lat="45.61629548396777" lon="8.963553068971931"><ele>218.25</ele><time>2026-04-24T03:32:35Z</time></trkpt><trkpt lat="45.616406753304084" lon="8.963697208944584"><ele>218.5</ele><time>2026-04-24T03:32:36Z</time></trkpt><trkpt lat="45.61650440209363" lon="8.963826520962428"><ele>218.75</ele><time>2026-04-24T03:32:37Z</time></trkpt><trkpt lat="45.61660034722404" lon="8.963948191420148"><ele>219.0</ele><time>2026-04-24T03:32:38Z</time></trkpt><trkpt lat="45.616680434007314" lon="8.964053352835082"><ele>219.0</ele><time>2026-04-24T03:32:39Z</time></trkpt><trkpt lat="45.61677443261653" lon="8.964166234431366"><ele>219.0</ele><time>2026-04-24T03:32:40Z</time></trkpt><trkpt lat="45.6168654589181" lon="8.964293410571921"><ele>219.0</ele><time>2026-04-24T03:32:41Z</time></trkpt><trkpt lat="45.61696365539768" lon="8.96441443885841"><ele>219.0</ele><time>2026-04-24T03:32:42Z</time></trkpt><trkpt lat="45.61705260047321" lon="8.964578450750484"><ele>218.66666666666669</ele><time>2026-04-24T03:32:43Z</time></trkpt><trkpt lat="45.617181592551646" lon="8.964750417551768"><ele>218.33333333333334</ele><time>2026-04-24T03:32:44Z</time></trkpt><trkpt lat="45.61732503884423" lon="8.964941692967361"><ele>218.0</ele><time>2026-04-24T03:32:45Z</time></trkpt><trkpt lat="45.617477662057155" lon="8.965125078153896"><ele>219.0</ele><time>2026-04-24T03:32:46Z</time></trkpt><trkpt lat="45.61760690796246" lon="8.965311648386313"><ele>220.0</ele><time>2026-04-24T03:32:47Z</time></trkpt><trkpt lat="45.617719215040836" lon="8.965462986392343"><ele>221.0</ele><time>2026-04-24T03:32:48Z</time></trkpt><trkpt lat="45.61781364791943" lon="8.96559423127583"><ele>220.60000000000002</ele><time>2026-04-24T03:32:49Z</time></trkpt><trkpt lat="45.617888688805785" lon="8.965698434268695"><ele>220.20000000000002</ele><time>2026-04-24T03:32:50Z</time></trkpt><trkpt lat="45.61796116240184" lon="8.965763628443524"><ele>219.79999999999998</ele><time>2026-04-24T03:32:51Z</time></trkpt><trkpt lat="45.61804575298186" lon="8.965785697696663"><ele>219.39999999999998</ele><time>2026-04-24T03:32:52Z</time></trkpt><trkpt lat="45.61814617909724" lon="8.965748504562495"><ele>219.0</ele><time>2026-04-24T03:32:53Z</time></trkpt><trkpt lat="45.618224132105645" lon="8.965612957344659"><ele>219.0</ele><time>2026-04-24T03:32:54Z</time></trkpt><trkpt lat="45.61831775121956" lon="8.965461189281783"><ele>219.0</ele><time>2026-04-24T03:32:55Z</time></trkpt><trkpt lat="45.61844586793434" lon="8.965288314032007"><ele>219.0</ele><time>2026-04-24T03:32:56Z</time></trkpt><trkpt lat="45.61858770536458" lon="8.965094463492608"><ele>219.33333333333331</ele><time>2026-04-24T03:32:57Z</time></trkpt><trkpt lat="45.61872460717796" lon="8.96490237161169"><ele>219.66666666666666</ele><time>2026-04-24T03:32:58Z</time></trkpt><trkpt lat="45.6188608010675" lon="8.964711062855326"><ele>220.0</ele><time>2026-04-24T03:32:59Z</time></trkpt><trkpt lat="45.61900586736854" lon="8.964509358141626"><ele>220.0</ele><time>2026-04-24T03:33:00Z</time></trkpt><trkpt lat="45.61915477675609" lon="8.964306658024334"><ele>220.0</ele><time>2026-04-24T03:33:01Z</time></trkpt><trkpt lat="45.61930625524145" lon="8.964093857821124"><ele>220.0</ele><time>2026-04-24T03:33:02Z</time></trkpt><trkpt lat="45.61946105669431" lon="8.963874149976466"><ele>221.0</ele><time>2026-04-24T03:33:03Z</time></trkpt><trkpt lat="45.619614506969164" lon="8.963661596690528"><ele>222.0</ele><time>2026-04-24T03:33:04Z</time></trkpt><trkpt lat="45.61977368866115" lon="8.963436513600938"><ele>223.0</ele><time>2026-04-24T03:33:05Z</time></trkpt><trkpt lat="45.619929376108104" lon="8.963223218813363"><ele>222.33333333333331</ele><time>2026-04-24T03:33:06Z</time></trkpt><trkpt lat="45.620082187991116" lon="8.963023636603713"><ele>221.66666666666669</ele><time>2026-04-24T03:33:07Z</time></trkpt><trkpt lat="45.620217329044664" lon="8.962847795612243"><ele>221.0</ele><time>2026-04-24T03:33:08Z</time></trkpt><trkpt lat="45.62034408761996" lon="8.962670972288935"><ele>220.0</ele><time>2026-04-24T03:33:09Z</time></trkpt><trkpt lat="45.62046513130389" lon="8.962473799730596"><ele>219.0</ele><time>2026-04-24T03:33:10Z</time></trkpt><trkpt lat="45.620598790220214" lon="8.962284139826952"><ele>218.0</ele><time>2026-04-24T03:33:11Z</time></trkpt><trkpt lat="45.620734077757305" lon="8.962101474610341"><ele>218.0</ele><time>2026-04-24T03:33:12Z</time></trkpt><trkpt lat="45.62087221564609" lon="8.961908883412761"><ele>218.0</ele><time>2026-04-24T03:33:13Z</time></trkpt><trkpt lat="45.62101639798671" lon="8.961705148716138"><ele>218.0</ele><time>2026-04-24T03:33:14Z</time></trkpt><trkpt lat="45.62115409053442" lon="8.96149808328909"><ele>218.66666666666669</ele><time>2026-04-24T03:33:15Z</time></trkpt><trkpt lat="45.62127419813677" lon="8.961277110966103"><ele>219.33333333333331</ele><time>2026-04-24T03:33:16Z</time></trkpt><trkpt lat="45.62138464934017" lon="8.961074787701552"><ele>220.0</ele><time>2026-04-24T03:33:17Z</time></trkpt><trkpt lat="45.62148506420095" lon="8.960914443599842"><ele>220.4</ele><time>2026-04-24T03:33:18Z</time></trkpt><trkpt lat="45.62155591187196" lon="8.960799011282683"><ele>220.8</ele><time>2026-04-24T03:33:19Z</time></trkpt><trkpt lat="45.62161358220002" lon="8.960711576977207"><ele>221.2</ele><time>2026-04-24T03:33:20Z</time></trkpt><trkpt lat="45.621671555604124" lon="8.960641104858603"><ele>221.6</ele><time>2026-04-24T03:33:21Z</time></trkpt><trkpt lat="45.62174950214831" lon="8.960593918976926"><ele>222.0</ele><time>2026-04-24T03:33:22Z</time></trkpt><trkpt lat="45.62186659945425" lon="8.960560736214417"><ele>222.0</ele><time>2026-04-24T03:33:23Z</time></trkpt><trkpt lat="45.6219780349328" lon="8.960479581494882"><ele>222.0</ele><time>2026-04-24T03:33:24Z</time></trkpt><trkpt lat="45.622071728472626" lon="8.960368825338316"><ele>222.0</ele><time>2026-04-24T03:33:25Z</time></trkpt><trkpt lat="45.622164567459606" lon="8.960368820082273"><ele>222.0</ele><time>2026-04-24T03:33:26Z</time></trkpt><trkpt lat="45.62224978106899" lon="8.960418211923258"><ele>222.0</ele><time>2026-04-24T03:33:27Z</time></trkpt><trkpt lat="45.6223653159586" lon="8.960490046310571"><ele>222.0</ele><time>2026-04-24T03:33:28Z</time></trkpt><trkpt lat="45.62251093321062" lon="8.960557635699823"><ele>222.0</ele><time>2026-04-24T03:33:29Z</time></trkpt><trkpt lat="45.6226733361494" lon="8.960657255718182"><ele>222.0</ele><time>2026-04-24T03:33:30Z</time></trkpt><trkpt lat="45.622848267085104" lon="8.960706220045143"><ele>222.33333333333331</ele><time>2026-04-24T03:33:31Z</time></trkpt><trkpt lat="45.62301770678269" lon="8.960700290320954"><ele>222.66666666666666</ele><time>2026-04-24T03:33:32Z</time></trkpt><trkpt lat="45.62321737791934" lon="8.960656757449073"><ele>223.0</ele><time>2026-04-24T03:33:33Z</time></trkpt><trkpt lat="45.6234438970909" lon="8.96060555452421"><ele>222.66666666666666</ele><time>2026-04-24T03:33:34Z</time></trkpt><trkpt lat="45.62368040376432" lon="8.960550550131861"><ele>222.33333333333331</ele><time>2026-04-24T03:33:34.999Z</time></trkpt><trkpt lat="45.62388631340821" lon="8.960522986136116"><ele>222.0</ele><time>2026-04-24T03:33:35.999Z</time></trkpt><trkpt lat="45.624078882802685" lon="8.960494762713626"><ele>222.0</ele><time>2026-04-24T03:33:36.999Z</time></trkpt><trkpt lat="45.62427455797229" lon="8.960503514892011"><ele>222.0</ele><time>2026-04-24T03:33:37.999Z</time></trkpt><trkpt lat="45.62443271684659" lon="8.960542840581335"><ele>222.0</ele><time>2026-04-24T03:33:38.999Z</time></trkpt><trkpt lat="45.62458124791881" lon="8.960624994448043"><ele>222.33333333333331</ele><time>2026-04-24T03:33:39.999Z</time></trkpt><trkpt lat="45.62473317859895" lon="8.960766988093125"><ele>222.66666666666666</ele><time>2026-04-24T03:33:40.999Z</time></trkpt><trkpt lat="45.6248749502621" lon="8.960953827525286"><ele>223.0</ele><time>2026-04-24T03:33:41.999Z</time></trkpt><trkpt lat="45.62501659990193" lon="8.961152887526415"><ele>223.0</ele><time>2026-04-24T03:33:42.999Z</time></trkpt><trkpt lat="45.62518453305991" lon="8.96136830474565"><ele>223.0</ele><time>2026-04-24T03:33:43.999Z</time></trkpt><trkpt lat="45.625349312738145" lon="8.96161608430614"><ele>223.0</ele><time>2026-04-24T03:33:44.999Z</time></trkpt><trkpt lat="45.62553089316085" lon="8.961875060807074"><ele>223.0</ele><time>2026-04-24T03:33:45.999Z</time></trkpt><trkpt lat="45.6257344918871" lon="8.96215025035287"><ele>223.0</ele><time>2026-04-24T03:33:46.999Z</time></trkpt><trkpt lat="45.62592920192819" lon="8.962413798448505"><ele>223.0</ele><time>2026-04-24T03:33:47.999Z</time></trkpt><trkpt lat="45.62610753310246" lon="8.962650003606964"><ele>223.66666666666666</ele><time>2026-04-24T03:33:48.999Z</time></trkpt><trkpt lat="45.626268744607586" lon="8.96286618773819"><ele>224.33333333333331</ele><time>2026-04-24T03:33:49.999Z</time></trkpt><trkpt lat="45.62641607973761" lon="8.96307787050901"><ele>225.0</ele><time>2026-04-24T03:33:50.999Z</time></trkpt><trkpt lat="45.62656823795678" lon="8.963298431053069"><ele>227.0</ele><time>2026-04-24T03:33:51.999Z</time></trkpt><trkpt lat="45.62671008184766" lon="8.963549451282141"><ele>229.0</ele><time>2026-04-24T03:33:52.999Z</time></trkpt><trkpt lat="45.62686736080995" lon="8.963783608580316"><ele>228.5</ele><time>2026-04-24T03:33:53.999Z</time></trkpt><trkpt lat="45.627030161677986" lon="8.964016740622224"><ele>228.0</ele><time>2026-04-24T03:33:54.999Z</time></trkpt><trkpt lat="45.62720623974337" lon="8.964229113321649"><ele>229.0</ele><time>2026-04-24T03:33:55.999Z</time></trkpt><trkpt lat="45.62737451841102" lon="8.96446447336113"><ele>230.0</ele><time>2026-04-24T03:33:56.999Z</time></trkpt><trkpt lat="45.627535285085145" lon="8.964696588633"><ele>230.0</ele><time>2026-04-24T03:33:57.999Z</time></trkpt><trkpt lat="45.627692782218126" lon="8.964933239438645"><ele>230.0</ele><time>2026-04-24T03:33:58.999Z</time></trkpt><trkpt lat="45.62785350957981" lon="8.965173525938619"><ele>228.5</ele><time>2026-04-24T03:33:59.999Z</time></trkpt><trkpt lat="45.62801227837669" lon="8.965410233404105"><ele>227.0</ele><time>2026-04-24T03:34:00.999Z</time></trkpt><trkpt lat="45.6281706774022" lon="8.965643011436184"><ele>228.5</ele><time>2026-04-24T03:34:01.999Z</time></trkpt><trkpt lat="45.628330854984185" lon="8.965876435321178"><ele>230.0</ele><time>2026-04-24T03:34:02.999Z</time></trkpt><trkpt lat="45.62848817289871" lon="8.966106268580232"><ele>229.33333333333334</ele><time>2026-04-24T03:34:03.999Z</time></trkpt><trkpt lat="45.62864515719209" lon="8.9663309815053"><ele>228.66666666666669</ele><time>2026-04-24T03:34:04.999Z</time></trkpt><trkpt lat="45.628789870061794" lon="8.966536693120533"><ele>228.0</ele><time>2026-04-24T03:34:05.999Z</time></trkpt><trkpt lat="45.62892012130755" lon="8.966728223151325"><ele>227.66666666666669</ele><time>2026-04-24T03:34:06.999Z</time></trkpt><trkpt lat="45.6290444525275" lon="8.966903509947874"><ele>227.33333333333334</ele><time>2026-04-24T03:34:07.999Z</time></trkpt><trkpt lat="45.62916580748862" lon="8.967068433203906"><ele>227.0</ele><time>2026-04-24T03:34:08.999Z</time></trkpt><trkpt lat="45.62927997313138" lon="8.967214114931025"><ele>227.0</ele><time>2026-04-24T03:34:09.999Z</time></trkpt><trkpt lat="45.62939496680525" lon="8.967364380581342"><ele>227.0</ele><time>2026-04-24T03:34:10.999Z</time></trkpt><trkpt lat="45.62951598752874" lon="8.967525504660786"><ele>227.0</ele><time>2026-04-24T03:34:11.999Z</time></trkpt><trkpt lat="45.62963607488473" lon="8.967684172378265"><ele>226.25</ele><time>2026-04-24T03:34:12.999Z</time></trkpt><trkpt lat="45.62974405384098" lon="8.967820735463944"><ele>225.5</ele><time>2026-04-24T03:34:13.999Z</time></trkpt><trkpt lat="45.62984572192662" lon="8.967954202598417"><ele>224.75</ele><time>2026-04-24T03:34:14.999Z</time></trkpt><trkpt lat="45.62996301125154" lon="8.968102857381805"><ele>224.0</ele><time>2026-04-24T03:34:15.999Z</time></trkpt><trkpt lat="45.63009686724863" lon="8.968272701949635"><ele>224.66666666666669</ele><time>2026-04-24T03:34:16.999Z</time></trkpt><trkpt lat="45.63024440255256" lon="8.968471154616681"><ele>225.33333333333331</ele><time>2026-04-24T03:34:17.999Z</time></trkpt><trkpt lat="45.63040401455215" lon="8.96867959195814"><ele>226.0</ele><time>2026-04-24T03:34:18.999Z</time></trkpt><trkpt lat="45.630569823739094" lon="8.968881577530281"><ele>226.0</ele><time>2026-04-24T03:34:19.999Z</time></trkpt><trkpt lat="45.63070604096473" lon="8.969053911395111"><ele>226.0</ele><time>2026-04-24T03:34:20.999Z</time></trkpt><trkpt lat="45.63081845073829" lon="8.969192768679346"><ele>226.0</ele><time>2026-04-24T03:34:21.999Z</time></trkpt><trkpt lat="45.63092315155111" lon="8.96932132274985"><ele>226.25</ele><time>2026-04-24T03:34:22.999Z</time></trkpt><trkpt lat="45.63102796258404" lon="8.969453328333174"><ele>226.5</ele><time>2026-04-24T03:34:23.999Z</time></trkpt><trkpt lat="45.631134759062896" lon="8.969596017312128"><ele>226.75</ele><time>2026-04-24T03:34:24.999Z</time></trkpt><trkpt lat="45.631237495563575" lon="8.969728251374327"><ele>227.0</ele><time>2026-04-24T03:34:25.999Z</time></trkpt><trkpt lat="45.63133027739725" lon="8.969848254512266"><ele>225.75</ele><time>2026-04-24T03:34:26.999Z</time></trkpt><trkpt lat="45.63140802297305" lon="8.969932126809017"><ele>224.5</ele><time>2026-04-24T03:34:27.999Z</time></trkpt><trkpt lat="45.63149633496412" lon="8.969989108844382"><ele>223.25</ele><time>2026-04-24T03:34:28.999Z</time></trkpt><trkpt lat="45.63161500656546" lon="8.97000215404353"><ele>222.0</ele><time>2026-04-24T03:34:29.999Z</time></trkpt><trkpt lat="45.63175127115418" lon="8.96995367131035"><ele>222.0</ele><time>2026-04-24T03:34:30.999Z</time></trkpt><trkpt lat="45.63190217137176" lon="8.969900284685021"><ele>222.0</ele><time>2026-04-24T03:34:31.999Z</time></trkpt><trkpt lat="45.632089977664094" lon="8.969823634948016"><ele>222.0</ele><time>2026-04-24T03:34:33Z</time></trkpt><trkpt lat="45.63226482676409" lon="8.969763545132952"><ele>222.0</ele><time>2026-04-24T03:34:34Z</time></trkpt><trkpt lat="45.63241367465378" lon="8.969727449131152"><ele>222.0</ele><time>2026-04-24T03:34:35Z</time></trkpt><trkpt lat="45.63255078386267" lon="8.969731964585202"><ele>222.0</ele><time>2026-04-24T03:34:36Z</time></trkpt><trkpt lat="45.632692652141785" lon="8.969787163163906"><ele>222.0</ele><time>2026-04-24T03:34:37Z</time></trkpt><trkpt lat="45.63282529881135" lon="8.969874588094413"><ele>223.33333333333331</ele><time>2026-04-24T03:34:38Z</time></trkpt><trkpt lat="45.63294376280816" lon="8.970006932189293"><ele>224.66666666666666</ele><time>2026-04-24T03:34:39Z</time></trkpt><trkpt lat="45.63305438341452" lon="8.970199984081475"><ele>226.0</ele><time>2026-04-24T03:34:40Z</time></trkpt><trkpt lat="45.633175656282546" lon="8.97043533790682"><ele>226.0</ele><time>2026-04-24T03:34:41Z</time></trkpt><trkpt lat="45.63331881913086" lon="8.970704366438937"><ele>226.0</ele><time>2026-04-24T03:34:42Z</time></trkpt><trkpt lat="45.63344637323407" lon="8.970986844970458"><ele>223.0</ele><time>2026-04-24T03:34:43Z</time></trkpt><trkpt lat="45.63359430718851" lon="8.971258853453353"><ele>220.0</ele><time>2026-04-24T03:34:44Z</time></trkpt><trkpt lat="45.63370547371189" lon="8.971527352455361"><ele>222.0</ele><time>2026-04-24T03:34:45Z</time></trkpt><trkpt lat="45.6338350757241" lon="8.971760199786154"><ele>224.0</ele><time>2026-04-24T03:34:46Z</time></trkpt><trkpt lat="45.633937603922654" lon="8.971976607344537"><ele>226.0</ele><time>2026-04-24T03:34:47Z</time></trkpt><trkpt lat="45.63402471006404" lon="8.972152780897765"><ele>226.0</ele><time>2026-04-24T03:34:48Z</time></trkpt><trkpt lat="45.63409230722067" lon="8.97226741039248"><ele>226.0</ele><time>2026-04-24T03:34:49Z</time></trkpt><trkpt lat="45.634172322161476" lon="8.972391357959316"><ele>226.0</ele><time>2026-04-24T03:34:50Z</time></trkpt><trkpt lat="45.6342142399646" lon="8.97255417034533"><ele>226.0</ele><time>2026-04-24T03:34:51Z</time></trkpt><trkpt lat="45.63424685721766" lon="8.972732801334361"><ele>225.66666666666666</ele><time>2026-04-24T03:34:52Z</time></trkpt><trkpt lat="45.63428085117752" lon="8.97296601425512"><ele>225.33333333333331</ele><time>2026-04-24T03:34:53Z</time></trkpt><trkpt lat="45.634246763712405" lon="8.97323449420628"><ele>225.0</ele><time>2026-04-24T03:34:54Z</time></trkpt><trkpt lat="45.63424117310223" lon="8.973556632416527"><ele>225.0</ele><time>2026-04-24T03:34:55Z</time></trkpt><trkpt lat="45.63423043253194" lon="8.973819916251745"><ele>225.0</ele><time>2026-04-24T03:34:56Z</time></trkpt><trkpt lat="45.634256208461736" lon="8.974087171183607"><ele>225.0</ele><time>2026-04-24T03:34:57Z</time></trkpt><trkpt lat="45.634308127809895" lon="8.974355188950664"><ele>224.66666666666669</ele><time>2026-04-24T03:34:58Z</time></trkpt><trkpt lat="45.634394498951096" lon="8.974631194454046"><ele>224.33333333333334</ele><time>2026-04-24T03:34:59Z</time></trkpt><trkpt lat="45.63449629162855" lon="8.974933962683739"><ele>224.0</ele><time>2026-04-24T03:35:00Z</time></trkpt><trkpt lat="45.63459944098975" lon="8.975268942433347"><ele>224.0</ele><time>2026-04-24T03:35:01Z</time></trkpt><trkpt lat="45.63470214259063" lon="8.975623359568164"><ele>224.0</ele><time>2026-04-24T03:35:02Z</time></trkpt><trkpt lat="45.63479910260551" lon="8.97595726671482"><ele>223.5</ele><time>2026-04-24T03:35:03Z</time></trkpt><trkpt lat="45.63489761799639" lon="8.976295687586058"><ele>223.0</ele><time>2026-04-24T03:35:04Z</time></trkpt><trkpt lat="45.63499887411743" lon="8.97663740328312"><ele>223.0</ele><time>2026-04-24T03:35:05Z</time></trkpt><trkpt lat="45.63510153973177" lon="8.976989636674784"><ele>223.0</ele><time>2026-04-24T03:35:06Z</time></trkpt><trkpt lat="45.63520126552145" lon="8.977341014570992"><ele>223.0</ele><time>2026-04-24T03:35:07Z</time></trkpt><trkpt lat="45.635295974428665" lon="8.97767460385157"><ele>223.0</ele><time>2026-04-24T03:35:08Z</time></trkpt><trkpt lat="45.63538913645963" lon="8.97798621236745"><ele>222.66666666666666</ele><time>2026-04-24T03:35:09Z</time></trkpt><trkpt lat="45.63547569613667" lon="8.978279921988186"><ele>222.33333333333331</ele><time>2026-04-24T03:35:10Z</time></trkpt><trkpt lat="45.635570612936405" lon="8.978549614502676"><ele>222.0</ele><time>2026-04-24T03:35:11Z</time></trkpt><trkpt lat="45.63568933532922" lon="8.978815205737888"><ele>222.0</ele><time>2026-04-24T03:35:12Z</time></trkpt><trkpt lat="45.63583677531109" lon="8.979074905210528"><ele>222.0</ele><time>2026-04-24T03:35:13Z</time></trkpt><trkpt lat="45.63599572074152" lon="8.979327535231352"><ele>222.0</ele><time>2026-04-24T03:35:14Z</time></trkpt><trkpt lat="45.63614604933151" lon="8.97959729648883"><ele>222.0</ele><time>2026-04-24T03:35:15Z</time></trkpt><trkpt lat="45.6362766771924" lon="8.979891185754374"><ele>222.0</ele><time>2026-04-24T03:35:16Z</time></trkpt><trkpt lat="45.63639565655701" lon="8.980204330881998"><ele>222.0</ele><time>2026-04-24T03:35:17Z</time></trkpt><trkpt lat="45.63651551615125" lon="8.980550550362072"><ele>221.5</ele><time>2026-04-24T03:35:18Z</time></trkpt><trkpt lat="45.63663328407064" lon="8.980891934181455"><ele>221.0</ele><time>2026-04-24T03:35:19Z</time></trkpt><trkpt lat="45.63675725378291" lon="8.981245282353521"><ele>221.0</ele><time>2026-04-24T03:35:20Z</time></trkpt><trkpt lat="45.636881916802345" lon="8.98159892921743"><ele>221.0</ele><time>2026-04-24T03:35:21Z</time></trkpt><trkpt lat="45.63700440797273" lon="8.981940285051627"><ele>221.5</ele><time>2026-04-24T03:35:22Z</time></trkpt><trkpt lat="45.63712944158671" lon="8.982286266592045"><ele>222.0</ele><time>2026-04-24T03:35:23Z</time></trkpt><trkpt lat="45.637250538565844" lon="8.982598871013078"><ele>221.0</ele><time>2026-04-24T03:35:24Z</time></trkpt><trkpt lat="45.63736969784709" lon="8.98288163495773"><ele>220.0</ele><time>2026-04-24T03:35:25Z</time></trkpt><trkpt lat="45.63748695394201" lon="8.98316021762127"><ele>221.0</ele><time>2026-04-24T03:35:26Z</time></trkpt><trkpt lat="45.63759851493689" lon="8.983457402649123"><ele>222.0</ele><time>2026-04-24T03:35:27Z</time></trkpt><trkpt lat="45.63769981827523" lon="8.983761846942368"><ele>222.0</ele><time>2026-04-24T03:35:28Z</time></trkpt><trkpt lat="45.63779561439158" lon="8.98407446917882"><ele>222.0</ele><time>2026-04-24T03:35:29Z</time></trkpt><trkpt lat="45.637887046745305" lon="8.984383081203175"><ele>222.5</ele><time>2026-04-24T03:35:30Z</time></trkpt><trkpt lat="45.63798201033997" lon="8.984685357147114"><ele>223.0</ele><time>2026-04-24T03:35:31Z</time></trkpt><trkpt lat="45.638090090521196" lon="8.984962709833413"><ele>222.0</ele><time>2026-04-24T03:35:32Z</time></trkpt><trkpt lat="45.63821585517452" lon="8.985236007221873"><ele>221.0</ele><time>2026-04-24T03:35:33Z</time></trkpt><trkpt lat="45.6383567163508" lon="8.985514412919681"><ele>221.0</ele><time>2026-04-24T03:35:34Z</time></trkpt><trkpt lat="45.63848846224434" lon="8.985808554513772"><ele>221.0</ele><time>2026-04-24T03:35:35Z</time></trkpt><trkpt lat="45.638607102071965" lon="8.986109165341777"><ele>221.5</ele><time>2026-04-24T03:35:36Z</time></trkpt><trkpt lat="45.63872058032981" lon="8.986401662384047"><ele>222.0</ele><time>2026-04-24T03:35:37Z</time></trkpt><trkpt lat="45.638826669838444" lon="8.98667231774999"><ele>221.33333333333331</ele><time>2026-04-24T03:35:38Z</time></trkpt><trkpt lat="45.63892890820991" lon="8.986941140083498"><ele>220.66666666666666</ele><time>2026-04-24T03:35:39Z</time></trkpt><trkpt lat="45.639027586392324" lon="8.987208953688544"><ele>220.0</ele><time>2026-04-24T03:35:40Z</time></trkpt><trkpt lat="45.639119762274504" lon="8.987448970621735"><ele>220.33333333333331</ele><time>2026-04-24T03:35:41Z</time></trkpt><trkpt lat="45.63920572596488" lon="8.987666135731654"><ele>220.66666666666669</ele><time>2026-04-24T03:35:42Z</time></trkpt><trkpt lat="45.63928606314802" lon="8.987866443341515"><ele>221.0</ele><time>2026-04-24T03:35:43Z</time></trkpt><trkpt lat="45.63934700160924" lon="8.988058073178074"><ele>221.0</ele><time>2026-04-24T03:35:43.999Z</time></trkpt><trkpt lat="45.63937418475734" lon="8.9882584001612"><ele>221.0</ele><time>2026-04-24T03:35:44.999Z</time></trkpt><trkpt lat="45.63936778285334" lon="8.988484810622827"><ele>221.0</ele><time>2026-04-24T03:35:45.999Z</time></trkpt><trkpt lat="45.63932151111462" lon="8.988714202417974"><ele>221.25</ele><time>2026-04-24T03:35:46.999Z</time></trkpt><trkpt lat="45.63926393924783" lon="8.988917974257122"><ele>221.5</ele><time>2026-04-24T03:35:47.999Z</time></trkpt><trkpt lat="45.63924467373487" lon="8.989106976024917"><ele>221.75</ele><time>2026-04-24T03:35:48.999Z</time></trkpt><trkpt lat="45.639279809295836" lon="8.989320355592614"><ele>222.0</ele><time>2026-04-24T03:35:49.999Z</time></trkpt><trkpt lat="45.63934537919721" lon="8.989569045972884"><ele>222.0</ele><time>2026-04-24T03:35:50.999Z</time></trkpt><trkpt lat="45.639419911531554" lon="8.989846473243274"><ele>222.0</ele><time>2026-04-24T03:35:51.999Z</time></trkpt><trkpt lat="45.63949863919126" lon="8.990129622926444"><ele>222.0</ele><time>2026-04-24T03:35:52.999Z</time></trkpt><trkpt lat="45.63957274988281" lon="8.990384049125996"><ele>222.0</ele><time>2026-04-24T03:35:53.999Z</time></trkpt><trkpt lat="45.63963591537223" lon="8.990612693015233"><ele>222.0</ele><time>2026-04-24T03:35:54.999Z</time></trkpt><trkpt lat="45.639705983939315" lon="8.99082745412725"><ele>222.0</ele><time>2026-04-24T03:35:55.999Z</time></trkpt><trkpt lat="45.63979960894631" lon="8.991035002707573"><ele>222.0</ele><time>2026-04-24T03:35:56.999Z</time></trkpt><trkpt lat="45.639907199575106" lon="8.991250008271061"><ele>222.0</ele><time>2026-04-24T03:35:57.999Z</time></trkpt><trkpt lat="45.64002630817885" lon="8.991472690052031"><ele>222.0</ele><time>2026-04-24T03:35:58.999Z</time></trkpt><trkpt lat="45.64014224845423" lon="8.9917104959794"><ele>221.66666666666669</ele><time>2026-04-24T03:35:59.999Z</time></trkpt><trkpt lat="45.64025781359785" lon="8.991942637871983"><ele>221.33333333333334</ele><time>2026-04-24T03:36:00.999Z</time></trkpt><trkpt lat="45.64036296379526" lon="8.99215547872673"><ele>221.0</ele><time>2026-04-24T03:36:01.999Z</time></trkpt><trkpt lat="45.640451542625435" lon="8.99233897539438"><ele>222.0</ele><time>2026-04-24T03:36:02.999Z</time></trkpt><trkpt lat="45.640530891988796" lon="8.992495386205565"><ele>223.0</ele><time>2026-04-24T03:36:03.999Z</time></trkpt><trkpt lat="45.64061033989717" lon="8.9926458620686"><ele>224.0</ele><time>2026-04-24T03:36:04.999Z</time></trkpt><trkpt lat="45.640686815222956" lon="8.992766556464122"><ele>225.0</ele><time>2026-04-24T03:36:05.999Z</time></trkpt><trkpt lat="45.64076463760214" lon="8.992864138713658"><ele>225.0</ele><time>2026-04-24T03:36:06.999Z</time></trkpt><trkpt lat="45.64083876149526" lon="8.992952234741095"><ele>225.0</ele><time>2026-04-24T03:36:07.999Z</time></trkpt><trkpt lat="45.64090186196044" lon="8.993044964885085"><ele>225.0</ele><time>2026-04-24T03:36:08.999Z</time></trkpt><trkpt lat="45.64095254341958" lon="8.993137129418411"><ele>225.0</ele><time>2026-04-24T03:36:09.999Z</time></trkpt><trkpt lat="45.64099740354172" lon="8.99323903255004"><ele>225.0</ele><time>2026-04-24T03:36:10.999Z</time></trkpt><trkpt lat="45.641067119934846" lon="8.993308828534843"><ele>225.0</ele><time>2026-04-24T03:36:11.999Z</time></trkpt><trkpt lat="45.64115390635248" lon="8.993364128622382"><ele>225.0</ele><time>2026-04-24T03:36:12.999Z</time></trkpt><trkpt lat="45.64124947035288" lon="8.993418937841351"><ele>225.0</ele><time>2026-04-24T03:36:13.999Z</time></trkpt><trkpt lat="45.641325673117585" lon="8.993488986048066"><ele>225.0</ele><time>2026-04-24T03:36:14.999Z</time></trkpt><trkpt lat="45.64140793862031" lon="8.993586415507197"><ele>225.0</ele><time>2026-04-24T03:36:15.999Z</time></trkpt><trkpt lat="45.641487782329285" lon="8.993693107483454"><ele>225.0</ele><time>2026-04-24T03:36:16.999Z</time></trkpt><trkpt lat="45.641575634101244" lon="8.993811078309546"><ele>225.0</ele><time>2026-04-24T03:36:17.999Z</time></trkpt><trkpt lat="45.64166850462313" lon="8.993929531879408"><ele>225.0</ele><time>2026-04-24T03:36:18.999Z</time></trkpt><trkpt lat="45.64175486813438" lon="8.994043894994997"><ele>225.0</ele><time>2026-04-24T03:36:19.999Z</time></trkpt><trkpt lat="45.64183896491429" lon="8.994160530164859"><ele>225.0</ele><time>2026-04-24T03:36:20.999Z</time></trkpt><trkpt lat="45.64192635820431" lon="8.994278744255864"><ele>225.2</ele><time>2026-04-24T03:36:21.999Z</time></trkpt><trkpt lat="45.64201078068853" lon="8.994394932243273"><ele>225.4</ele><time>2026-04-24T03:36:22.999Z</time></trkpt><trkpt lat="45.642093317645994" lon="8.994506175274573"><ele>225.60000000000002</ele><time>2026-04-24T03:36:23.999Z</time></trkpt><trkpt lat="45.64217038290347" lon="8.994605208588876"><ele>225.8</ele><time>2026-04-24T03:36:24.999Z</time></trkpt><trkpt lat="45.64224070095519" lon="8.994704541338615"><ele>226.0</ele><time>2026-04-24T03:36:25.999Z</time></trkpt><trkpt lat="45.642313050336824" lon="8.994803924806344"><ele>225.99999999999997</ele><time>2026-04-24T03:36:26.999Z</time></trkpt><trkpt lat="45.64239057502945" lon="8.99490035126392"><ele>226.0</ele><time>2026-04-24T03:36:27.999Z</time></trkpt><trkpt lat="45.642461846288604" lon="8.994987873109743"><ele>226.0</ele><time>2026-04-24T03:36:28.999Z</time></trkpt><trkpt lat="45.64252671342365" lon="8.995065179411656"><ele>226.0</ele><time>2026-04-24T03:36:29.999Z</time></trkpt><trkpt lat="45.64258505513164" lon="8.995132330721644"><ele>225.99999999999997</ele><time>2026-04-24T03:36:30.999Z</time></trkpt><trkpt lat="45.642645676569856" lon="8.995200078994053"><ele>226.0</ele><time>2026-04-24T03:36:31.999Z</time></trkpt><trkpt lat="45.64271621538575" lon="8.995273913731364"><ele>226.0</ele><time>2026-04-24T03:36:32.999Z</time></trkpt><trkpt lat="45.64278347018118" lon="8.995335905955974"><ele>226.0</ele><time>2026-04-24T03:36:33.999Z</time></trkpt><trkpt lat="45.6428786834495" lon="8.995440881068813"><ele>226.0</ele><time>2026-04-24T03:36:34.999Z</time></trkpt><trkpt lat="45.642994498792376" lon="8.99557284290429"><ele>226.0</ele><time>2026-04-24T03:36:35.999Z</time></trkpt><trkpt lat="45.643124466992994" lon="8.995720315148414"><ele>226.33333333333331</ele><time>2026-04-24T03:36:36.999Z</time></trkpt><trkpt lat="45.6432525156909" lon="8.99585228790714"><ele>226.66666666666669</ele><time>2026-04-24T03:36:37.999Z</time></trkpt><trkpt lat="45.643384590815266" lon="8.995982959232055"><ele>227.0</ele><time>2026-04-24T03:36:39Z</time></trkpt><trkpt lat="45.64351614631829" lon="8.99611490504552"><ele>227.33333333333334</ele><time>2026-04-24T03:36:40Z</time></trkpt><trkpt lat="45.64366184073173" lon="8.99627614878823"><ele>227.66666666666669</ele><time>2026-04-24T03:36:41Z</time></trkpt><trkpt lat="45.64382058976086" lon="8.996445407970855"><ele>228.0</ele><time>2026-04-24T03:36:42Z</time></trkpt><trkpt lat="45.64396762572394" lon="8.996624459681671"><ele>227.66666666666669</ele><time>2026-04-24T03:36:43Z</time></trkpt><trkpt lat="45.64411525359154" lon="8.996795860904957"><ele>227.33333333333334</ele><time>2026-04-24T03:36:44Z</time></trkpt><trkpt lat="45.64426362861877" lon="8.99695085021114"><ele>227.0</ele><time>2026-04-24T03:36:45Z</time></trkpt><trkpt lat="45.64439061754794" lon="8.997086386664192"><ele>227.25</ele><time>2026-04-24T03:36:46Z</time></trkpt><trkpt lat="45.64450216087121" lon="8.997209081652613"><ele>227.5</ele><time>2026-04-24T03:36:47Z</time></trkpt><trkpt lat="45.64460333497881" lon="8.997316263554778"><ele>227.75</ele><time>2026-04-24T03:36:48Z</time></trkpt><trkpt lat="45.64470523872944" lon="8.997415762497361"><ele>228.0</ele><time>2026-04-24T03:36:49Z</time></trkpt><trkpt lat="45.64478735722819" lon="8.997506375881638"><ele>228.0</ele><time>2026-04-24T03:36:50Z</time></trkpt><trkpt lat="45.644842742205824" lon="8.997574641437849"><ele>228.0</ele><time>2026-04-24T03:36:51Z</time></trkpt><trkpt lat="45.644898973643905" lon="8.99766340393362"><ele>228.0</ele><time>2026-04-24T03:36:53Z</time></trkpt><trkpt lat="45.64498190339664" lon="8.997721786967853"><ele>228.0</ele><time>2026-04-24T03:37:04Z</time></trkpt><trkpt lat="45.64510056096666" lon="8.997556426622786"><ele>228.0</ele><time>2026-04-24T03:37:05Z</time></trkpt><trkpt lat="45.645208085870074" lon="8.997410882401075"><ele>229.33333333333331</ele><time>2026-04-24T03:37:06Z</time></trkpt><trkpt lat="45.64531240898605" lon="8.997249220153337"><ele>230.66666666666666</ele><time>2026-04-24T03:37:07Z</time></trkpt><trkpt lat="45.64541680689123" lon="8.99709115819393"><ele>232.0</ele><time>2026-04-24T03:37:08Z</time></trkpt><trkpt lat="45.6455269194398" lon="8.996921792459148"><ele>232.0</ele><time>2026-04-24T03:37:09Z</time></trkpt><trkpt lat="45.64563658340855" lon="8.9967574939147"><ele>232.0</ele><time>2026-04-24T03:37:10Z</time></trkpt><trkpt lat="45.645744143644166" lon="8.996606077143689"><ele>232.0</ele><time>2026-04-24T03:37:11Z</time></trkpt><trkpt lat="45.64586743501044" lon="8.996422830742052"><ele>231.33333333333331</ele><time>2026-04-24T03:37:12Z</time></trkpt><trkpt lat="45.646012281766644" lon="8.996207112438729"><ele>230.66666666666669</ele><time>2026-04-24T03:37:13Z</time></trkpt><trkpt lat="45.646164618062016" lon="8.995983099872394"><ele>230.0</ele><time>2026-04-24T03:37:14Z</time></trkpt><trkpt lat="45.64630975371509" lon="8.995769675313062"><ele>229.66666666666669</ele><time>2026-04-24T03:37:15Z</time></trkpt><trkpt lat="45.64645642161952" lon="8.995547544620948"><ele>229.33333333333331</ele><time>2026-04-24T03:37:16Z</time></trkpt><trkpt lat="45.646609953307255" lon="8.995322021674594"><ele>229.0</ele><time>2026-04-24T03:37:17Z</time></trkpt><trkpt lat="45.64676541613386" lon="8.995091509790166"><ele>230.0</ele><time>2026-04-24T03:37:18Z</time></trkpt><trkpt lat="45.646913252985755" lon="8.994871949662713"><ele>231.0</ele><time>2026-04-24T03:37:19Z</time></trkpt><trkpt lat="45.647045544086325" lon="8.994676991179453"><ele>232.0</ele><time>2026-04-24T03:37:20Z</time></trkpt><trkpt lat="45.647166509669304" lon="8.994494024000767"><ele>232.33333333333331</ele><time>2026-04-24T03:37:21Z</time></trkpt><trkpt lat="45.64727562302688" lon="8.994326164364997"><ele>232.66666666666669</ele><time>2026-04-24T03:37:22Z</time></trkpt><trkpt lat="45.64737896547972" lon="8.994171870549922"><ele>233.0</ele><time>2026-04-24T03:37:23Z</time></trkpt><trkpt lat="45.6474839803053" lon="8.994023626864454"><ele>232.66666666666669</ele><time>2026-04-24T03:37:24Z</time></trkpt><trkpt lat="45.647594599271294" lon="8.993860124609503"><ele>232.33333333333331</ele><time>2026-04-24T03:37:25Z</time></trkpt><trkpt lat="45.64770603250373" lon="8.993689413474678"><ele>232.0</ele><time>2026-04-24T03:37:26Z</time></trkpt><trkpt lat="45.64782017118559" lon="8.993517568179993"><ele>232.0</ele><time>2026-04-24T03:37:27Z</time></trkpt><trkpt lat="45.64793628104462" lon="8.993346249187471"><ele>232.0</ele><time>2026-04-24T03:37:28Z</time></trkpt><trkpt lat="45.6480607672391" lon="8.99316647105778"><ele>232.0</ele><time>2026-04-24T03:37:29Z</time></trkpt><trkpt lat="45.648172474404504" lon="8.993006386249599"><ele>231.39999999999998</ele><time>2026-04-24T03:37:30Z</time></trkpt><trkpt lat="45.648272632781016" lon="8.992869519232247"><ele>230.79999999999998</ele><time>2026-04-24T03:37:31Z</time></trkpt><trkpt lat="45.64835794443647" lon="8.992765514613188"><ele>230.2</ele><time>2026-04-24T03:37:32Z</time></trkpt><trkpt lat="45.64843193551425" lon="8.992687702201104"><ele>229.6</ele><time>2026-04-24T03:37:33Z</time></trkpt><trkpt lat="45.648491693873055" lon="8.992628994694813"><ele>229.0</ele><time>2026-04-24T03:37:34Z</time></trkpt><trkpt lat="45.64858917349618" lon="8.992541316891254"><ele>228.5</ele><time>2026-04-24T03:37:36Z</time></trkpt><trkpt lat="45.648722475192265" lon="8.992577896133387"><ele>228.0</ele><time>2026-04-24T03:37:38Z</time></trkpt><trkpt lat="45.648781109078016" lon="8.992674713988244"><ele>227.5</ele><time>2026-04-24T03:37:39Z</time></trkpt><trkpt lat="45.64880199864711" lon="8.992821254801106"><ele>227.0</ele><time>2026-04-24T03:37:40Z</time></trkpt><trkpt lat="45.648770120646105" lon="8.99299063925812"><ele>227.0</ele><time>2026-04-24T03:37:41Z</time></trkpt><trkpt lat="45.64871744651077" lon="8.993178918459101"><ele>227.0</ele><time>2026-04-24T03:37:41.999Z</time></trkpt><trkpt lat="45.64869628359592" lon="8.99337359258038"><ele>227.0</ele><time>2026-04-24T03:37:42.999Z</time></trkpt><trkpt lat="45.6487235495258" lon="8.99356552795992"><ele>227.0</ele><time>2026-04-24T03:37:43.999Z</time></trkpt><trkpt lat="45.64879259529846" lon="8.993732984121825"><ele>227.0</ele><time>2026-04-24T03:37:44.999Z</time></trkpt><trkpt lat="45.6489008058483" lon="8.99388490505373"><ele>227.0</ele><time>2026-04-24T03:37:45.999Z</time></trkpt><trkpt lat="45.64904268403125" lon="8.994062425769343"><ele>227.0</ele><time>2026-04-24T03:37:46.999Z</time></trkpt><trkpt lat="45.649204617410014" lon="8.99426589604671"><ele>228.66666666666669</ele><time>2026-04-24T03:37:47.999Z</time></trkpt><trkpt lat="45.649359364593224" lon="8.994468188720662"><ele>230.33333333333331</ele><time>2026-04-24T03:37:48.999Z</time></trkpt><trkpt lat="45.64951505529746" lon="8.994672215615822"><ele>232.0</ele><time>2026-04-24T03:37:49.999Z</time></trkpt><trkpt lat="45.64967824406888" lon="8.99488173125063"><ele>232.66666666666666</ele><time>2026-04-24T03:37:50.999Z</time></trkpt><trkpt lat="45.64984422567515" lon="8.995092808631568"><ele>233.33333333333331</ele><time>2026-04-24T03:37:51.999Z</time></trkpt><trkpt lat="45.65000490953925" lon="8.995300718860829"><ele>234.0</ele><time>2026-04-24T03:37:52.999Z</time></trkpt><trkpt lat="45.65015801589366" lon="8.995501118625594"><ele>234.66666666666669</ele><time>2026-04-24T03:37:53.999Z</time></trkpt><trkpt lat="45.650292577379275" lon="8.995683836321618"><ele>235.33333333333334</ele><time>2026-04-24T03:37:54.999Z</time></trkpt><trkpt lat="45.650420085693796" lon="8.9958577388212"><ele>236.0</ele><time>2026-04-24T03:37:55.999Z</time></trkpt><trkpt lat="45.650552396448404" lon="8.996036985058874"><ele>236.33333333333334</ele><time>2026-04-24T03:37:56.999Z</time></trkpt><trkpt lat="45.65069264065835" lon="8.9962159646583"><ele>236.66666666666669</ele><time>2026-04-24T03:37:57.999Z</time></trkpt><trkpt lat="45.65083852668769" lon="8.996406572014426"><ele>237.0</ele><time>2026-04-24T03:37:58.999Z</time></trkpt><trkpt lat="45.65097631437222" lon="8.996577292201717"><ele>237.0</ele><time>2026-04-24T03:37:59.999Z</time></trkpt><trkpt lat="45.65111283363644" lon="8.996718313334688"><ele>237.0</ele><time>2026-04-24T03:38:00.999Z</time></trkpt><trkpt lat="45.65125866102562" lon="8.996830738123776"><ele>237.0</ele><time>2026-04-24T03:38:01.999Z</time></trkpt><trkpt lat="45.65143396288507" lon="8.996939212064845"><ele>237.0</ele><time>2026-04-24T03:38:02.999Z</time></trkpt><trkpt lat="45.65162855968569" lon="8.997030268497385"><ele>237.0</ele><time>2026-04-24T03:38:03.999Z</time></trkpt><trkpt lat="45.65182565648583" lon="8.997101994848103"><ele>237.0</ele><time>2026-04-24T03:38:04.999Z</time></trkpt><trkpt lat="45.65199959312227" lon="8.997155998749346"><ele>237.0</ele><time>2026-04-24T03:38:05.999Z</time></trkpt><trkpt lat="45.65215713729677" lon="8.997206408244514"><ele>237.0</ele><time>2026-04-24T03:38:06.999Z</time></trkpt><trkpt lat="45.65229788427169" lon="8.997261565063257"><ele>237.0</ele><time>2026-04-24T03:38:07.999Z</time></trkpt><trkpt lat="45.65242695921243" lon="8.997316166520239"><ele>237.0</ele><time>2026-04-24T03:38:08.999Z</time></trkpt><trkpt lat="45.65253660408446" lon="8.99735926578693"><ele>237.0</ele><time>2026-04-24T03:38:09.999Z</time></trkpt><trkpt lat="45.65263166895513" lon="8.997401098246415"><ele>237.0</ele><time>2026-04-24T03:38:10.999Z</time></trkpt><trkpt lat="45.6527234785106" lon="8.997488300691046"><ele>237.0</ele><time>2026-04-24T03:38:11.999Z</time></trkpt><trkpt lat="45.65285717079456" lon="8.997505983853681"><ele>237.0</ele><time>2026-04-24T03:38:12.999Z</time></trkpt><trkpt lat="45.653010417542326" lon="8.997530318960184"><ele>237.0</ele><time>2026-04-24T03:38:13.999Z</time></trkpt><trkpt lat="45.65319899993697" lon="8.997573077058256"><ele>237.0</ele><time>2026-04-24T03:38:14.999Z</time></trkpt><trkpt lat="45.65340675984352" lon="8.997645390461368"><ele>237.0</ele><time>2026-04-24T03:38:15.999Z</time></trkpt><trkpt lat="45.653617225634335" lon="8.997722571373554"><ele>238.0</ele><time>2026-04-24T03:38:16.999Z</time></trkpt><trkpt lat="45.65382440411471" lon="8.997799527545618"><ele>239.0</ele><time>2026-04-24T03:38:17.999Z</time></trkpt><trkpt lat="45.65402446440377" lon="8.997868192927971"><ele>240.0</ele><time>2026-04-24T03:38:18.999Z</time></trkpt><trkpt lat="45.65420756927801" lon="8.997933571897049"><ele>240.0</ele><time>2026-04-24T03:38:19.999Z</time></trkpt><trkpt lat="45.654375832975504" lon="8.997992396917908"><ele>240.0</ele><time>2026-04-24T03:38:20.999Z</time></trkpt><trkpt lat="45.65452591396544" lon="8.998053133735967"><ele>240.0</ele><time>2026-04-24T03:38:21.999Z</time></trkpt><trkpt lat="45.65466234237573" lon="8.99810913896962"><ele>240.25</ele><time>2026-04-24T03:38:22.999Z</time></trkpt><trkpt lat="45.654797891293676" lon="8.998157190095354"><ele>240.5</ele><time>2026-04-24T03:38:23.999Z</time></trkpt><trkpt lat="45.65492994590408" lon="8.998199593530925"><ele>240.75</ele><time>2026-04-24T03:38:24.999Z</time></trkpt><trkpt lat="45.65507117117792" lon="8.998252339288486"><ele>241.0</ele><time>2026-04-24T03:38:25.999Z</time></trkpt><trkpt lat="45.65522433189971" lon="8.998307654138664"><ele>241.0</ele><time>2026-04-24T03:38:26.999Z</time></trkpt><trkpt lat="45.65538531369997" lon="8.998367669532831"><ele>241.0</ele><time>2026-04-24T03:38:27.999Z</time></trkpt><trkpt lat="45.6555509406" lon="8.998427828959809"><ele>241.0</ele><time>2026-04-24T03:38:28.999Z</time></trkpt><trkpt lat="45.655717326188594" lon="8.998475790734918"><ele>241.0</ele><time>2026-04-24T03:38:29.999Z</time></trkpt><trkpt lat="45.6558827057945" lon="8.998519789204538"><ele>241.0</ele><time>2026-04-24T03:38:30.999Z</time></trkpt><trkpt lat="45.6560404210243" lon="8.99855136736431"><ele>241.0</ele><time>2026-04-24T03:38:31.999Z</time></trkpt><trkpt lat="45.65618910007526" lon="8.9985735473894"><ele>241.25</ele><time>2026-04-24T03:38:32.999Z</time></trkpt><trkpt lat="45.656335373192235" lon="8.9985869247178"><ele>241.5</ele><time>2026-04-24T03:38:33.999Z</time></trkpt><trkpt lat="45.656464649185885" lon="8.998620748202397"><ele>241.75</ele><time>2026-04-24T03:38:34.999Z</time></trkpt><trkpt lat="45.65658114570613" lon="8.998628406354577"><ele>242.0</ele><time>2026-04-24T03:38:35.999Z</time></trkpt><trkpt lat="45.65668503197672" lon="8.998643238081744"><ele>242.00000000000003</ele><time>2026-04-24T03:38:36.999Z</time></trkpt><trkpt lat="45.656789968266295" lon="8.998660296407799"><ele>242.0</ele><time>2026-04-24T03:38:37.999Z</time></trkpt><trkpt lat="45.65688146726365" lon="8.998680722811153"><ele>242.0</ele><time>2026-04-24T03:38:38.999Z</time></trkpt><trkpt lat="45.656964073192974" lon="8.998728931319864"><ele>242.0</ele><time>2026-04-24T03:38:39.999Z</time></trkpt><trkpt lat="45.65704284553541" lon="8.998744542421013"><ele>242.00000000000003</ele><time>2026-04-24T03:38:40.999Z</time></trkpt><trkpt lat="45.65711292299549" lon="8.998783871369133"><ele>242.0</ele><time>2026-04-24T03:38:41.999Z</time></trkpt><trkpt lat="45.657183708244894" lon="8.998803606884302"><ele>242.0</ele><time>2026-04-24T03:38:43.999Z</time></trkpt><trkpt lat="45.657269944026716" lon="8.998835680696011"><ele>242.0</ele><time>2026-04-24T03:39:02Z</time></trkpt><trkpt lat="45.657370692333366" lon="8.998865574934754"><ele>242.0</ele><time>2026-04-24T03:39:03Z</time></trkpt><trkpt lat="45.65751570362372" lon="8.998907489839567"><ele>242.0</ele><time>2026-04-24T03:39:04Z</time></trkpt><trkpt lat="45.6577009765281" lon="8.998960684025368"><ele>242.33333333333334</ele><time>2026-04-24T03:39:05Z</time></trkpt><trkpt lat="45.657886172203035" lon="8.99902080714183"><ele>242.66666666666669</ele><time>2026-04-24T03:39:06Z</time></trkpt><trkpt lat="45.65807245145551" lon="8.999080904936426"><ele>243.0</ele><time>2026-04-24T03:39:07Z</time></trkpt><trkpt lat="45.65826977092154" lon="8.999135557417267"><ele>243.33333333333331</ele><time>2026-04-24T03:39:08Z</time></trkpt><trkpt lat="45.65846897082906" lon="8.999177118719254"><ele>243.66666666666666</ele><time>2026-04-24T03:39:09Z</time></trkpt><trkpt lat="45.65866665034751" lon="8.999230071538578"><ele>244.0</ele><time>2026-04-24T03:39:10Z</time></trkpt><trkpt lat="45.658859883043895" lon="8.99928527664949"><ele>244.33333333333331</ele><time>2026-04-24T03:39:11Z</time></trkpt><trkpt lat="45.659052488528154" lon="8.99933459576561"><ele>244.66666666666669</ele><time>2026-04-24T03:39:12Z</time></trkpt><trkpt lat="45.65924297917773" lon="8.999381465148325"><ele>245.0</ele><time>2026-04-24T03:39:13Z</time></trkpt><trkpt lat="45.65942578110561" lon="8.99943070268254"><ele>245.0</ele><time>2026-04-24T03:39:14Z</time></trkpt><trkpt lat="45.659609490762726" lon="8.999479052756241"><ele>245.0</ele><time>2026-04-24T03:39:15Z</time></trkpt><trkpt lat="45.65981353033072" lon="8.999526969954404"><ele>245.0</ele><time>2026-04-24T03:39:16Z</time></trkpt><trkpt lat="45.66002931240198" lon="8.999580849193439"><ele>245.0</ele><time>2026-04-24T03:39:17Z</time></trkpt><trkpt lat="45.66024775731764" lon="8.999636538580377"><ele>245.0</ele><time>2026-04-24T03:39:18Z</time></trkpt><trkpt lat="45.66046769117599" lon="8.999689656003252"><ele>245.0</ele><time>2026-04-24T03:39:19Z</time></trkpt><trkpt lat="45.66068578562988" lon="8.999739535586679"><ele>245.0</ele><time>2026-04-24T03:39:20Z</time></trkpt><trkpt lat="45.660908178660975" lon="8.999792486794934"><ele>245.0</ele><time>2026-04-24T03:39:21Z</time></trkpt><trkpt lat="45.661129891764446" lon="8.999847818160509"><ele>245.0</ele><time>2026-04-24T03:39:22Z</time></trkpt><trkpt lat="45.6613416445976" lon="8.999897447078457"><ele>245.0</ele><time>2026-04-24T03:39:23Z</time></trkpt><trkpt lat="45.66153846533472" lon="8.999951024541774"><ele>245.0</ele><time>2026-04-24T03:39:24Z</time></trkpt><trkpt lat="45.66171974973999" lon="8.99999759267933"><ele>245.0</ele><time>2026-04-24T03:39:25Z</time></trkpt><trkpt lat="45.6619036867012" lon="9.000043721280447"><ele>245.0</ele><time>2026-04-24T03:39:26Z</time></trkpt><trkpt lat="45.662092915330206" lon="9.000089837011144"><ele>245.0</ele><time>2026-04-24T03:39:27Z</time></trkpt><trkpt lat="45.66228163500285" lon="9.00013620454374"><ele>245.66666666666669</ele><time>2026-04-24T03:39:28Z</time></trkpt><trkpt lat="45.662472811261765" lon="9.000184116286151"><ele>246.33333333333331</ele><time>2026-04-24T03:39:29Z</time></trkpt><trkpt lat="45.662659807170584" lon="9.00023022535244"><ele>247.0</ele><time>2026-04-24T03:39:30Z</time></trkpt><trkpt lat="45.66284256169049" lon="9.000276203281135"><ele>247.66666666666666</ele><time>2026-04-24T03:39:31Z</time></trkpt><trkpt lat="45.66302798650721" lon="9.000326419222706"><ele>248.33333333333331</ele><time>2026-04-24T03:39:32Z</time></trkpt><trkpt lat="45.66321169149538" lon="9.000371988736715"><ele>249.0</ele><time>2026-04-24T03:39:33Z</time></trkpt><trkpt lat="45.66338506463995" lon="9.000413402025716"><ele>249.0</ele><time>2026-04-24T03:39:34Z</time></trkpt><trkpt lat="45.6635435785987" lon="9.000454345684831"><ele>249.0</ele><time>2026-04-24T03:39:35Z</time></trkpt><trkpt lat="45.66368799603417" lon="9.000487892126458"><ele>249.0</ele><time>2026-04-24T03:39:36Z</time></trkpt><trkpt lat="45.66382286023665" lon="9.000513040251473"><ele>249.0</ele><time>2026-04-24T03:39:37Z</time></trkpt><trkpt lat="45.66392702034618" lon="9.000554244941378"><ele>248.66666666666666</ele><time>2026-04-24T03:39:38Z</time></trkpt><trkpt lat="45.66399535254081" lon="9.00059507151479"><ele>248.33333333333331</ele><time>2026-04-24T03:39:39Z</time></trkpt><trkpt lat="45.66405128097183" lon="9.000672490783828"><ele>248.0</ele><time>2026-04-24T03:39:40Z</time></trkpt><trkpt lat="45.66410037095563" lon="9.00076562960708"><ele>247.66666666666666</ele><time>2026-04-24T03:39:41Z</time></trkpt><trkpt lat="45.66417592170018" lon="9.000814335124756"><ele>247.33333333333331</ele><time>2026-04-24T03:39:42Z</time></trkpt><trkpt lat="45.66428731301328" lon="9.000808826168297"><ele>247.0</ele><time>2026-04-24T03:39:42.999Z</time></trkpt><trkpt lat="45.664437088143224" lon="9.000756513179406"><ele>247.0</ele><time>2026-04-24T03:39:43.999Z</time></trkpt><trkpt lat="45.664617203283925" lon="9.000722368502553"><ele>247.0</ele><time>2026-04-24T03:39:44.999Z</time></trkpt><trkpt lat="45.66481840902846" lon="9.00076143638441"><ele>247.0</ele><time>2026-04-24T03:39:45.999Z</time></trkpt><trkpt lat="45.66504969256381" lon="9.00082655449685"><ele>247.5</ele><time>2026-04-24T03:39:46.999Z</time></trkpt><trkpt lat="45.66530128046048" lon="9.000894481260453"><ele>248.0</ele><time>2026-04-24T03:39:47.999Z</time></trkpt><trkpt lat="45.66554129675704" lon="9.000950930337698"><ele>248.0</ele><time>2026-04-24T03:39:48.999Z</time></trkpt><trkpt lat="45.66578631524335" lon="9.001006463151219"><ele>248.0</ele><time>2026-04-24T03:39:49.999Z</time></trkpt><trkpt lat="45.66603102573822" lon="9.001065977909958"><ele>250.5</ele><time>2026-04-24T03:39:50.999Z</time></trkpt><trkpt lat="45.66627529704652" lon="9.001129245576825"><ele>253.0</ele><time>2026-04-24T03:39:51.999Z</time></trkpt><trkpt lat="45.66651983761137" lon="9.001186707268223"><ele>253.0</ele><time>2026-04-24T03:39:52.999Z</time></trkpt><trkpt lat="45.66675920036781" lon="9.00125213435206"><ele>253.0</ele><time>2026-04-24T03:39:53.999Z</time></trkpt><trkpt lat="45.666999656621364" lon="9.001314114077568"><ele>252.0</ele><time>2026-04-24T03:39:54.999Z</time></trkpt><trkpt lat="45.66723790165856" lon="9.00137470398804"><ele>251.0</ele><time>2026-04-24T03:39:55.999Z</time></trkpt><trkpt lat="45.66746840663592" lon="9.001433387722196"><ele>251.0</ele><time>2026-04-24T03:39:56.999Z</time></trkpt><trkpt lat="45.667689466672236" lon="9.001476436136173"><ele>251.0</ele><time>2026-04-24T03:39:57.999Z</time></trkpt><trkpt lat="45.66787586711067" lon="9.001526168856637"><ele>251.0</ele><time>2026-04-24T03:39:58.999Z</time></trkpt><trkpt lat="45.66805565477694" lon="9.001571268646371"><ele>251.0</ele><time>2026-04-24T03:39:59.999Z</time></trkpt><trkpt lat="45.66822714385917" lon="9.001617870697567"><ele>251.0</ele><time>2026-04-24T03:40:00.999Z</time></trkpt><trkpt lat="45.668413956800336" lon="9.001666657271421"><ele>251.0</ele><time>2026-04-24T03:40:01.999Z</time></trkpt><trkpt lat="45.66861901929777" lon="9.001712958528776"><ele>251.5</ele><time>2026-04-24T03:40:02.999Z</time></trkpt><trkpt lat="45.668846446829534" lon="9.001767560956342"><ele>252.0</ele><time>2026-04-24T03:40:03.999Z</time></trkpt><trkpt lat="45.669078136421625" lon="9.001834773855268"><ele>252.0</ele><time>2026-04-24T03:40:04.999Z</time></trkpt><trkpt lat="45.66931299429095" lon="9.001893539375775"><ele>252.0</ele><time>2026-04-24T03:40:05.999Z</time></trkpt><trkpt lat="45.669555828694705" lon="9.001959541742451"><ele>251.5</ele><time>2026-04-24T03:40:06.999Z</time></trkpt><trkpt lat="45.66979789102052" lon="9.002017043870202"><ele>251.0</ele><time>2026-04-24T03:40:07.999Z</time></trkpt><trkpt lat="45.67002855450514" lon="9.00206939235202"><ele>251.0</ele><time>2026-04-24T03:40:08.999Z</time></trkpt><trkpt lat="45.67023580431391" lon="9.002121864824174"><ele>251.0</ele><time>2026-04-24T03:40:09.999Z</time></trkpt><trkpt lat="45.67042328385182" lon="9.002169317719556"><ele>251.0</ele><time>2026-04-24T03:40:10.999Z</time></trkpt><trkpt lat="45.67058124595146" lon="9.002207263923927"><ele>251.60000000000002</ele><time>2026-04-24T03:40:11.999Z</time></trkpt><trkpt lat="45.6707224118967" lon="9.002247469385761"><ele>252.20000000000002</ele><time>2026-04-24T03:40:12.999Z</time></trkpt><trkpt lat="45.67083469006895" lon="9.002276676413457"><ele>252.79999999999998</ele><time>2026-04-24T03:40:13.999Z</time></trkpt><trkpt lat="45.67092520077661" lon="9.002297515884766"><ele>253.39999999999998</ele><time>2026-04-24T03:40:14.999Z</time></trkpt><trkpt lat="45.67101630952889" lon="9.002354796207989"><ele>254.0</ele><time>2026-04-24T03:40:15.999Z</time></trkpt><trkpt lat="45.671093338310335" lon="9.002436843387667"><ele>254.0</ele><time>2026-04-24T03:40:16.999Z</time></trkpt><trkpt lat="45.671162641126735" lon="9.002538895059448"><ele>254.0</ele><time>2026-04-24T03:40:17.999Z</time></trkpt><trkpt lat="45.67126683717983" lon="9.0026189205307"><ele>254.0</ele><time>2026-04-24T03:40:18.999Z</time></trkpt><trkpt lat="45.6713987781261" lon="9.002648846002536"><ele>254.0</ele><time>2026-04-24T03:40:19.999Z</time></trkpt><trkpt lat="45.67153212993712" lon="9.002701441867055"><ele>254.0</ele><time>2026-04-24T03:40:20.999Z</time></trkpt><trkpt lat="45.67166009905895" lon="9.002828466681473"><ele>254.0</ele><time>2026-04-24T03:40:21.999Z</time></trkpt><trkpt lat="45.67179504277635" lon="9.003012632336999"><ele>254.0</ele><time>2026-04-24T03:40:22.999Z</time></trkpt><trkpt lat="45.67194191288939" lon="9.00323779872176"><ele>255.5</ele><time>2026-04-24T03:40:23.999Z</time></trkpt><trkpt lat="45.67210321777944" lon="9.003491847141033"><ele>257.0</ele><time>2026-04-24T03:40:24.999Z</time></trkpt><trkpt lat="45.67228453973557" lon="9.003769180971974"><ele>257.0</ele><time>2026-04-24T03:40:25.999Z</time></trkpt><trkpt lat="45.67248208478554" lon="9.004069965797864"><ele>257.0</ele><time>2026-04-24T03:40:26.999Z</time></trkpt><trkpt lat="45.672682312499504" lon="9.004365176240796"><ele>257.5</ele><time>2026-04-24T03:40:27.999Z</time></trkpt><trkpt lat="45.672874784310345" lon="9.004639192342562"><ele>258.0</ele><time>2026-04-24T03:40:28.999Z</time></trkpt><trkpt lat="45.67304498987675" lon="9.004883941281985"><ele>256.5</ele><time>2026-04-24T03:40:29.999Z</time></trkpt><trkpt lat="45.673204597295474" lon="9.005122514295865"><ele>255.0</ele><time>2026-04-24T03:40:30.999Z</time></trkpt><trkpt lat="45.67336495842157" lon="9.005362098288217"><ele>255.0</ele><time>2026-04-24T03:40:31.999Z</time></trkpt><trkpt lat="45.673527320307684" lon="9.005639309812286"><ele>255.0</ele><time>2026-04-24T03:40:32.999Z</time></trkpt><trkpt lat="45.673705011559136" lon="9.005905423784881"><ele>256.5</ele><time>2026-04-24T03:40:33.999Z</time></trkpt><trkpt lat="45.67389634883272" lon="9.006172058528412"><ele>258.0</ele><time>2026-04-24T03:40:34.999Z</time></trkpt><trkpt lat="45.67408415771743" lon="9.006459706825183"><ele>258.0</ele><time>2026-04-24T03:40:35.999Z</time></trkpt><trkpt lat="45.674268852906856" lon="9.006736532924451"><ele>258.0</ele><time>2026-04-24T03:40:36.999Z</time></trkpt><trkpt lat="45.67444681264712" lon="9.007005240069985"><ele>260.0</ele><time>2026-04-24T03:40:37.999Z</time></trkpt><trkpt lat="45.67462377655739" lon="9.007274994512064"><ele>262.0</ele><time>2026-04-24T03:40:38.999Z</time></trkpt><trkpt lat="45.67479947646159" lon="9.007537683728492"><ele>262.5</ele><time>2026-04-24T03:40:39.999Z</time></trkpt><trkpt lat="45.674978184518494" lon="9.00780511196971"><ele>263.0</ele><time>2026-04-24T03:40:40.999Z</time></trkpt><trkpt lat="45.67515132406493" lon="9.008067540503204"><ele>263.0</ele><time>2026-04-24T03:40:41.999Z</time></trkpt><trkpt lat="45.675325373749025" lon="9.008323300094544"><ele>263.0</ele><time>2026-04-24T03:40:42.999Z</time></trkpt><trkpt lat="45.67550231935592" lon="9.008580221375132"><ele>265.5</ele><time>2026-04-24T03:40:43.999Z</time></trkpt><trkpt lat="45.675674977064226" lon="9.008835536428434"><ele>268.0</ele><time>2026-04-24T03:40:44.999Z</time></trkpt><trkpt lat="45.675832836114324" lon="9.009071596441364"><ele>268.0</ele><time>2026-04-24T03:40:45.999Z</time></trkpt><trkpt lat="45.67597708763448" lon="9.009285031335558"><ele>268.0</ele><time>2026-04-24T03:40:46.999Z</time></trkpt><trkpt lat="45.67611745537215" lon="9.009480934071657"><ele>268.0</ele><time>2026-04-24T03:40:47.999Z</time></trkpt><trkpt lat="45.676270995476685" lon="9.009654774622467"><ele>268.0</ele><time>2026-04-24T03:40:48.999Z</time></trkpt><trkpt lat="45.67645256189066" lon="9.00982016215147"><ele>268.0</ele><time>2026-04-24T03:40:50Z</time></trkpt><trkpt lat="45.676666725493185" lon="9.009999426505015"><ele>267.5</ele><time>2026-04-24T03:40:51Z</time></trkpt><trkpt lat="45.67689179441957" lon="9.010151878416902"><ele>267.0</ele><time>2026-04-24T03:40:52Z</time></trkpt><trkpt lat="45.67713726623427" lon="9.010284272363783"><ele>268.5</ele><time>2026-04-24T03:40:53Z</time></trkpt><trkpt lat="45.67738147222347" lon="9.010385133994614"><ele>270.0</ele><time>2026-04-24T03:40:54Z</time></trkpt><trkpt lat="45.677606732261815" lon="9.010513206297922"><ele>269.5</ele><time>2026-04-24T03:40:55Z</time></trkpt><trkpt lat="45.67782232256141" lon="9.01065245024616"><ele>269.0</ele><time>2026-04-24T03:40:56Z</time></trkpt><trkpt lat="45.67801337153245" lon="9.010811753586871"><ele>268.33333333333337</ele><time>2026-04-24T03:40:57Z</time></trkpt><trkpt lat="45.67819482447905" lon="9.010997840138549"><ele>267.6666666666667</ele><time>2026-04-24T03:40:58Z</time></trkpt><trkpt lat="45.67834406904899" lon="9.011179508645581"><ele>267.0</ele><time>2026-04-24T03:40:59Z</time></trkpt><trkpt lat="45.67848421898" lon="9.011387174284629"><ele>267.3333333333333</ele><time>2026-04-24T03:41:00Z</time></trkpt><trkpt lat="45.67862368323027" lon="9.01161688235029"><ele>267.66666666666663</ele><time>2026-04-24T03:41:01Z</time></trkpt><trkpt lat="45.67873911246591" lon="9.011811984035665"><ele>268.0</ele><time>2026-04-24T03:41:02Z</time></trkpt><trkpt lat="45.67884340755078" lon="9.011988249857573"><ele>268.0</ele><time>2026-04-24T03:41:03Z</time></trkpt><trkpt lat="45.678939477469505" lon="9.01212240102543"><ele>268.0</ele><time>2026-04-24T03:41:04Z</time></trkpt><trkpt lat="45.678975996345436" lon="9.012267605128883"><ele>268.0</ele><time>2026-04-24T03:41:05Z</time></trkpt><trkpt lat="45.67900088609145" lon="9.01240174277083"><ele>268.0</ele><time>2026-04-24T03:41:06Z</time></trkpt><trkpt lat="45.67899108743235" lon="9.01252961718464"><ele>268.0</ele><time>2026-04-24T03:41:07Z</time></trkpt><trkpt lat="45.67902288810319" lon="9.01266202925242"><ele>267.75</ele><time>2026-04-24T03:41:08Z</time></trkpt><trkpt lat="45.67906991907574" lon="9.012770085554356"><ele>267.5</ele><time>2026-04-24T03:41:09Z</time></trkpt><trkpt lat="45.67916704283686" lon="9.01285246772714"><ele>267.25</ele><time>2026-04-24T03:41:10Z</time></trkpt><trkpt lat="45.67931041213368" lon="9.012904947279015"><ele>267.0</ele><time>2026-04-24T03:41:11Z</time></trkpt><trkpt lat="45.67947095079018" lon="9.013013653648926"><ele>267.0</ele><time>2026-04-24T03:41:12Z</time></trkpt><trkpt lat="45.679631591665974" lon="9.013210710121648"><ele>267.0</ele><time>2026-04-24T03:41:13Z</time></trkpt><trkpt lat="45.67980326485626" lon="9.013467587096407"><ele>267.0</ele><time>2026-04-24T03:41:14Z</time></trkpt><trkpt lat="45.679983662680144" lon="9.013741386089452"><ele>267.0</ele><time>2026-04-24T03:41:15Z</time></trkpt><trkpt lat="45.68017233518358" lon="9.014036523321414"><ele>268.5</ele><time>2026-04-24T03:41:16Z</time></trkpt><trkpt lat="45.68036170109711" lon="9.014332011717123"><ele>270.0</ele><time>2026-04-24T03:41:17Z</time></trkpt><trkpt lat="45.680537733524275" lon="9.01460967339576"><ele>270.0</ele><time>2026-04-24T03:41:18Z</time></trkpt><trkpt lat="45.68071688126863" lon="9.014874979428741"><ele>270.0</ele><time>2026-04-24T03:41:19Z</time></trkpt><trkpt lat="45.68087854609141" lon="9.0151138509896"><ele>270.0</ele><time>2026-04-24T03:41:20Z</time></trkpt><trkpt lat="45.681009399922104" lon="9.015343963962112"><ele>270.0</ele><time>2026-04-24T03:41:21Z</time></trkpt><trkpt lat="45.6810983271706" lon="9.01559305655599"><ele>270.0</ele><time>2026-04-24T03:41:22Z</time></trkpt><trkpt lat="45.68118878529804" lon="9.01586460934273"><ele>271.0</ele><time>2026-04-24T03:41:23Z</time></trkpt><trkpt lat="45.68127638668738" lon="9.016156246557358"><ele>272.0</ele><time>2026-04-24T03:41:24Z</time></trkpt><trkpt lat="45.681366637494484" lon="9.016460743399678"><ele>272.0</ele><time>2026-04-24T03:41:25Z</time></trkpt><trkpt lat="45.681451898850014" lon="9.016770482178114"><ele>272.0</ele><time>2026-04-24T03:41:26Z</time></trkpt><trkpt lat="45.681544050447265" lon="9.01707678561078"><ele>272.0</ele><time>2026-04-24T03:41:27Z</time></trkpt><trkpt lat="45.68163228800323" lon="9.017381995945831"><ele>272.0</ele><time>2026-04-24T03:41:28Z</time></trkpt><trkpt lat="45.6817229582031" lon="9.017664597349114"><ele>272.0</ele><time>2026-04-24T03:41:29Z</time></trkpt><trkpt lat="45.68182365050754" lon="9.017936773996267"><ele>271.5</ele><time>2026-04-24T03:41:30Z</time></trkpt><trkpt lat="45.681948953779255" lon="9.01820448563526"><ele>271.0</ele><time>2026-04-24T03:41:31Z</time></trkpt><trkpt lat="45.682093876793374" lon="9.018488324080023"><ele>270.0</ele><time>2026-04-24T03:41:32Z</time></trkpt><trkpt lat="45.68225898196161" lon="9.018773008932966"><ele>269.0</ele><time>2026-04-24T03:41:33Z</time></trkpt><trkpt lat="45.68245460790174" lon="9.019042665559724"><ele>269.5</ele><time>2026-04-24T03:41:34Z</time></trkpt><trkpt lat="45.68263957856527" lon="9.019312302646863"><ele>270.0</ele><time>2026-04-24T03:41:35Z</time></trkpt><trkpt lat="45.68282323948709" lon="9.019572998574848"><ele>271.0</ele><time>2026-04-24T03:41:36Z</time></trkpt><trkpt lat="45.68300593757027" lon="9.019846931062402"><ele>272.0</ele><time>2026-04-24T03:41:37Z</time></trkpt><trkpt lat="45.683179931333086" lon="9.020115965240809"><ele>272.0</ele><time>2026-04-24T03:41:38Z</time></trkpt><trkpt lat="45.68335457255221" lon="9.020373193902833"><ele>272.0</ele><time>2026-04-24T03:41:39Z</time></trkpt><trkpt lat="45.68352055885407" lon="9.020619038652878"><ele>271.5</ele><time>2026-04-24T03:41:40Z</time></trkpt><trkpt lat="45.68368552058413" lon="9.020866793420558"><ele>271.0</ele><time>2026-04-24T03:41:41Z</time></trkpt><trkpt lat="45.68384888371654" lon="9.021113318109851"><ele>271.0</ele><time>2026-04-24T03:41:42Z</time></trkpt><trkpt lat="45.68400816989974" lon="9.021348641891393"><ele>271.0</ele><time>2026-04-24T03:41:43Z</time></trkpt><trkpt lat="45.684168915103164" lon="9.02158851399693"><ele>271.0</ele><time>2026-04-24T03:41:44Z</time></trkpt><trkpt lat="45.684335581394016" lon="9.021835813109755"><ele>271.0</ele><time>2026-04-24T03:41:45Z</time></trkpt><trkpt lat="45.68450670111213" lon="9.022088020784965"><ele>270.5</ele><time>2026-04-24T03:41:46Z</time></trkpt><trkpt lat="45.68468158664376" lon="9.022357041709133"><ele>270.0</ele><time>2026-04-24T03:41:47Z</time></trkpt><trkpt lat="45.684867340535675" lon="9.022633612705144"><ele>270.0</ele><time>2026-04-24T03:41:48Z</time></trkpt><trkpt lat="45.685058160558086" lon="9.022918472203978"><ele>270.0</ele><time>2026-04-24T03:41:49Z</time></trkpt><trkpt lat="45.68524884138912" lon="9.023204660935352"><ele>272.0</ele><time>2026-04-24T03:41:50Z</time></trkpt><trkpt lat="45.685443975454056" lon="9.023503816554467"><ele>274.0</ele><time>2026-04-24T03:41:51Z</time></trkpt><trkpt lat="45.68563907563494" lon="9.023796299726603"><ele>274.0</ele><time>2026-04-24T03:41:52Z</time></trkpt><trkpt lat="45.68584130222099" lon="9.024096597387716"><ele>274.0</ele><time>2026-04-24T03:41:53Z</time></trkpt><trkpt lat="45.68603806910181" lon="9.024388925869745"><ele>273.0</ele><time>2026-04-24T03:41:54Z</time></trkpt><trkpt lat="45.68623460000094" lon="9.024690062797209"><ele>272.0</ele><time>2026-04-24T03:41:54.999Z</time></trkpt><trkpt lat="45.6864337462611" lon="9.024995825010981"><ele>272.0</ele><time>2026-04-24T03:41:55.999Z</time></trkpt><trkpt lat="45.68663134860101" lon="9.025294708046646"><ele>272.0</ele><time>2026-04-24T03:41:56.999Z</time></trkpt><trkpt lat="45.68682810173383" lon="9.025587986578262"><ele>273.0</ele><time>2026-04-24T03:41:57.999Z</time></trkpt><trkpt lat="45.68702467156506" lon="9.025884598544312"><ele>274.0</ele><time>2026-04-24T03:41:58.999Z</time></trkpt><trkpt lat="45.68721860161313" lon="9.026176549412838"><ele>274.0</ele><time>2026-04-24T03:41:59.999Z</time></trkpt><trkpt lat="45.68741045142247" lon="9.026466524382341"><ele>274.0</ele><time>2026-04-24T03:42:00.999Z</time></trkpt><trkpt lat="45.6876006216338" lon="9.026754409636949"><ele>273.0</ele><time>2026-04-24T03:42:01.999Z</time></trkpt><trkpt lat="45.68778111021336" lon="9.027026583374349"><ele>272.0</ele><time>2026-04-24T03:42:02.999Z</time></trkpt><trkpt lat="45.687967707130454" lon="9.02730520891288"><ele>273.5</ele><time>2026-04-24T03:42:03.999Z</time></trkpt><trkpt lat="45.688153488736425" lon="9.02757972742952"><ele>275.0</ele><time>2026-04-24T03:42:04.999Z</time></trkpt><trkpt lat="45.68833296839583" lon="9.027854612588367"><ele>275.0</ele><time>2026-04-24T03:42:05.999Z</time></trkpt><trkpt lat="45.68851334567898" lon="9.0281299847239"><ele>275.0</ele><time>2026-04-24T03:42:06.999Z</time></trkpt><trkpt lat="45.68870157484917" lon="9.028411820300374"><ele>275.5</ele><time>2026-04-24T03:42:07.999Z</time></trkpt><trkpt lat="45.68888779918855" lon="9.028692642939331"><ele>276.0</ele><time>2026-04-24T03:42:08.999Z</time></trkpt><trkpt lat="45.68907170347746" lon="9.028975246824388"><ele>275.5</ele><time>2026-04-24T03:42:09.999Z</time></trkpt><trkpt lat="45.689257860121046" lon="9.029257782770328"><ele>275.0</ele><time>2026-04-24T03:42:10.999Z</time></trkpt><trkpt lat="45.68944386040252" lon="9.029538960731163"><ele>275.0</ele><time>2026-04-24T03:42:11.999Z</time></trkpt><trkpt lat="45.689632833349805" lon="9.029817398817393"><ele>275.0</ele><time>2026-04-24T03:42:12.999Z</time></trkpt><trkpt lat="45.68981740152888" lon="9.030096658918628"><ele>276.0</ele><time>2026-04-24T03:42:13.999Z</time></trkpt><trkpt lat="45.68999551330293" lon="9.030377409242973"><ele>277.0</ele><time>2026-04-24T03:42:14.999Z</time></trkpt><trkpt lat="45.69017684422077" lon="9.030651628335534"><ele>276.5</ele><time>2026-04-24T03:42:15.999Z</time></trkpt><trkpt lat="45.69035661478479" lon="9.030922195522269"><ele>276.0</ele><time>2026-04-24T03:42:16.999Z</time></trkpt><trkpt lat="45.690535270483814" lon="9.031191064341773"><ele>276.0</ele><time>2026-04-24T03:42:17.999Z</time></trkpt><trkpt lat="45.69069867409832" lon="9.031436663456018"><ele>276.0</ele><time>2026-04-24T03:42:18.999Z</time></trkpt><trkpt lat="45.69085152061131" lon="9.031659255201253"><ele>275.6666666666667</ele><time>2026-04-24T03:42:19.999Z</time></trkpt><trkpt lat="45.69099175835871" lon="9.031866472076777"><ele>275.33333333333337</ele><time>2026-04-24T03:42:20.999Z</time></trkpt><trkpt lat="45.69112833850606" lon="9.032058423422352"><ele>275.0</ele><time>2026-04-24T03:42:21.999Z</time></trkpt><trkpt lat="45.69127087404372" lon="9.032245404080273"><ele>275.0</ele><time>2026-04-24T03:42:22.999Z</time></trkpt><trkpt lat="45.69142840157665" lon="9.032422355803968"><ele>275.0</ele><time>2026-04-24T03:42:23.999Z</time></trkpt><trkpt lat="45.69161107104533" lon="9.032586326484385"><ele>275.0</ele><time>2026-04-24T03:42:24.999Z</time></trkpt><trkpt lat="45.69178441942789" lon="9.032725072823837"><ele>276.33333333333337</ele><time>2026-04-24T03:42:25.999Z</time></trkpt><trkpt lat="45.691941577511386" lon="9.032858071542876"><ele>277.6666666666667</ele><time>2026-04-24T03:42:26.999Z</time></trkpt><trkpt lat="45.69209129224124" lon="9.032985835931038"><ele>279.0</ele><time>2026-04-24T03:42:27.999Z</time></trkpt><trkpt lat="45.69222690304676" lon="9.03310837778305"><ele>279.0</ele><time>2026-04-24T03:42:28.999Z</time></trkpt><trkpt lat="45.69234447433031" lon="9.033242858461131"><ele>279.0</ele><time>2026-04-24T03:42:29.999Z</time></trkpt><trkpt lat="45.69245618334534" lon="9.033406295551204"><ele>279.0</ele><time>2026-04-24T03:42:30.999Z</time></trkpt><trkpt lat="45.69257513567969" lon="9.033612285940642"><ele>278.75</ele><time>2026-04-24T03:42:31.999Z</time></trkpt><trkpt lat="45.69267375338425" lon="9.033808316265073"><ele>278.5</ele><time>2026-04-24T03:42:32.999Z</time></trkpt><trkpt lat="45.69275361659849" lon="9.033964072438524"><ele>278.25</ele><time>2026-04-24T03:42:33.999Z</time></trkpt><trkpt lat="45.69280979600137" lon="9.034073870421413"><ele>278.0</ele><time>2026-04-24T03:42:34.999Z</time></trkpt><trkpt lat="45.692844297629804" lon="9.034172758104908"><ele>278.33333333333337</ele><time>2026-04-24T03:42:35.999Z</time></trkpt><trkpt lat="45.69285605586419" lon="9.034278634910816"><ele>278.6666666666667</ele><time>2026-04-24T03:42:36.999Z</time></trkpt><trkpt lat="45.69285061710255" lon="9.034394060026422"><ele>279.0</ele><time>2026-04-24T03:42:37.999Z</time></trkpt><trkpt lat="45.692852693930014" lon="9.034501378773099"><ele>279.3333333333333</ele><time>2026-04-24T03:42:38.999Z</time></trkpt><trkpt lat="45.692894748972314" lon="9.034595799560416"><ele>279.66666666666663</ele><time>2026-04-24T03:42:39.999Z</time></trkpt><trkpt lat="45.692962894951876" lon="9.034645288803977"><ele>280.0</ele><time>2026-04-24T03:42:40.999Z</time></trkpt><trkpt lat="45.69304685489466" lon="9.034663505548606"><ele>280.0</ele><time>2026-04-24T03:42:41.999Z</time></trkpt><trkpt lat="45.69313534489135" lon="9.034627392277033"><ele>280.0</ele><time>2026-04-24T03:42:42.999Z</time></trkpt><trkpt lat="45.693199908001716" lon="9.034531832133727"><ele>280.0</ele><time>2026-04-24T03:42:43.999Z</time></trkpt><trkpt lat="45.69323904936722" lon="9.034378989440386"><ele>280.0</ele><time>2026-04-24T03:42:44.999Z</time></trkpt><trkpt lat="45.693258125500215" lon="9.034163743973465"><ele>280.0</ele><time>2026-04-24T03:42:45.999Z</time></trkpt><trkpt lat="45.693290130239845" lon="9.0339125878182"><ele>280.0</ele><time>2026-04-24T03:42:46.999Z</time></trkpt><trkpt lat="45.69334434564329" lon="9.03364790093704"><ele>280.0</ele><time>2026-04-24T03:42:47.999Z</time></trkpt><trkpt lat="45.693404734701396" lon="9.033416558105069"><ele>280.25</ele><time>2026-04-24T03:42:48.999Z</time></trkpt><trkpt lat="45.693466672540644" lon="9.033231845450768"><ele>280.5</ele><time>2026-04-24T03:42:49.999Z</time></trkpt><trkpt lat="45.69353555664303" lon="9.033081485202448"><ele>280.75</ele><time>2026-04-24T03:42:50.999Z</time></trkpt><trkpt lat="45.69360760918584" lon="9.032958528252912"><ele>281.0</ele><time>2026-04-24T03:42:51.999Z</time></trkpt><trkpt lat="45.69369424164017" lon="9.032839396688463"><ele>281.6666666666667</ele><time>2026-04-24T03:42:52.999Z</time></trkpt><trkpt lat="45.69381997397887" lon="9.032694066979442"><ele>282.3333333333333</ele><time>2026-04-24T03:42:53.999Z</time></trkpt><trkpt lat="45.69398348125063" lon="9.03254159192654"><ele>283.0</ele><time>2026-04-24T03:42:54.999Z</time></trkpt><trkpt lat="45.69416366451353" lon="9.032407643197375"><ele>283.0</ele><time>2026-04-24T03:42:56Z</time></trkpt><trkpt lat="45.6943621308581" lon="9.032307981954839"><ele>283.0</ele><time>2026-04-24T03:42:57Z</time></trkpt><trkpt lat="45.6945738662992" lon="9.03223633578135"><ele>283.0</ele><time>2026-04-24T03:42:58Z</time></trkpt><trkpt lat="45.69479321605517" lon="9.032194414283065"><ele>283.66666666666663</ele><time>2026-04-24T03:42:59Z</time></trkpt><trkpt lat="45.69502534025176" lon="9.03218042042018"><ele>284.3333333333333</ele><time>2026-04-24T03:43:00Z</time></trkpt><trkpt lat="45.6952396713727" lon="9.032174306799686"><ele>285.0</ele><time>2026-04-24T03:43:01Z</time></trkpt><trkpt lat="45.69544468335703" lon="9.032163400107049"><ele>286.0</ele><time>2026-04-24T03:43:02Z</time></trkpt><trkpt lat="45.6956335700458" lon="9.03214916306496"><ele>287.0</ele><time>2026-04-24T03:43:03Z</time></trkpt><trkpt lat="45.6958070286735" lon="9.032145163641232"><ele>288.0</ele><time>2026-04-24T03:43:04Z</time></trkpt><trkpt lat="45.695967128981586" lon="9.032143094352358"><ele>289.0</ele><time>2026-04-24T03:43:05Z</time></trkpt><trkpt lat="45.69613339373633" lon="9.032132115962051"><ele>290.0</ele><time>2026-04-24T03:43:06Z</time></trkpt><trkpt lat="45.69631090341963" lon="9.032128501847149"><ele>291.0</ele><time>2026-04-24T03:43:07Z</time></trkpt><trkpt lat="45.69649750172006" lon="9.032132771892673"><ele>291.0</ele><time>2026-04-24T03:43:08Z</time></trkpt><trkpt lat="45.69668671911868" lon="9.032133242656712"><ele>291.0</ele><time>2026-04-24T03:43:09Z</time></trkpt><trkpt lat="45.69689460449009" lon="9.032127940685443"><ele>291.0</ele><time>2026-04-24T03:43:10Z</time></trkpt><trkpt lat="45.69711352849711" lon="9.032118234092481"><ele>292.3333333333333</ele><time>2026-04-24T03:43:11Z</time></trkpt><trkpt lat="45.69734982848126" lon="9.032111058109857"><ele>293.66666666666663</ele><time>2026-04-24T03:43:12Z</time></trkpt><trkpt lat="45.69756256533482" lon="9.032104849843089"><ele>295.0</ele><time>2026-04-24T03:43:13Z</time></trkpt><trkpt lat="45.6977735023831" lon="9.03209240672537"><ele>296.0</ele><time>2026-04-24T03:43:14Z</time></trkpt><trkpt lat="45.697947711469546" lon="9.03209348165181"><ele>297.0</ele><time>2026-04-24T03:43:15Z</time></trkpt><trkpt lat="45.698113425469785" lon="9.032107118713315"><ele>298.0</ele><time>2026-04-24T03:43:16Z</time></trkpt><trkpt lat="45.69826450398306" lon="9.032127925670258"><ele>298.0</ele><time>2026-04-24T03:43:17Z</time></trkpt><trkpt lat="45.69840229531358" lon="9.032142483921325"><ele>298.0</ele><time>2026-04-24T03:43:18Z</time></trkpt><trkpt lat="45.69852365736664" lon="9.03215289835324"><ele>298.0</ele><time>2026-04-24T03:43:19Z</time></trkpt><trkpt lat="45.69862001604913" lon="9.032160427476327"><ele>298.0</ele><time>2026-04-24T03:43:20Z</time></trkpt><trkpt lat="45.698695332195264" lon="9.032169671001169"><ele>298.0</ele><time>2026-04-24T03:43:21Z</time></trkpt><trkpt lat="45.698771723145335" lon="9.032199588432333"><ele>298.0</ele><time>2026-04-24T03:43:22Z</time></trkpt><trkpt lat="45.698870348305604" lon="9.032242510096204"><ele>298.0</ele><time>2026-04-24T03:43:23Z</time></trkpt><trkpt lat="45.699002953178066" lon="9.032235779177483"><ele>298.0</ele><time>2026-04-24T03:43:24Z</time></trkpt><trkpt lat="45.69917457791986" lon="9.032212187156853"><ele>298.0</ele><time>2026-04-24T03:43:25Z</time></trkpt><trkpt lat="45.6993825536886" lon="9.03223371029443"><ele>299.5</ele><time>2026-04-24T03:43:26Z</time></trkpt><trkpt lat="45.69960732563757" lon="9.032257390332486"><ele>301.0</ele><time>2026-04-24T03:43:27Z</time></trkpt><trkpt lat="45.69984259090401" lon="9.032293561183403"><ele>301.0</ele><time>2026-04-24T03:43:28Z</time></trkpt><trkpt lat="45.70007729148798" lon="9.032327940064159"><ele>301.0</ele><time>2026-04-24T03:43:29Z</time></trkpt><trkpt lat="45.70032067262149" lon="9.03236154873486"><ele>302.5</ele><time>2026-04-24T03:43:30Z</time></trkpt><trkpt lat="45.70057988670952" lon="9.03240624312751"><ele>304.0</ele><time>2026-04-24T03:43:31Z</time></trkpt><trkpt lat="45.70080787166455" lon="9.032440137764157"><ele>304.0</ele><time>2026-04-24T03:43:32Z</time></trkpt><trkpt lat="45.70101249862025" lon="9.032470150998659"><ele>304.0</ele><time>2026-04-24T03:43:33Z</time></trkpt><trkpt lat="45.70120498030048" lon="9.032494982356129"><ele>304.0</ele><time>2026-04-24T03:43:34Z</time></trkpt><trkpt lat="45.701410546443825" lon="9.032531206657413"><ele>304.0</ele><time>2026-04-24T03:43:35Z</time></trkpt><trkpt lat="45.70160853726536" lon="9.032567493714941"><ele>304.0</ele><time>2026-04-24T03:43:36Z</time></trkpt><trkpt lat="45.70180598483955" lon="9.03260521817758"><ele>304.0</ele><time>2026-04-24T03:43:37Z</time></trkpt><trkpt lat="45.70198992723652" lon="9.032639506565255"><ele>303.75</ele><time>2026-04-24T03:43:38Z</time></trkpt><trkpt lat="45.702154700783886" lon="9.032673791239395"><ele>303.5</ele><time>2026-04-24T03:43:39Z</time></trkpt><trkpt lat="45.70230490005722" lon="9.032713073192944"><ele>303.25</ele><time>2026-04-24T03:43:40Z</time></trkpt><trkpt lat="45.70241688106778" lon="9.03275502336958"><ele>303.0</ele><time>2026-04-24T03:43:41Z</time></trkpt><trkpt lat="45.70250049035943" lon="9.032792965510096"><ele>303.0</ele><time>2026-04-24T03:43:42Z</time></trkpt><trkpt lat="45.70257355924158" lon="9.032839737547224"><ele>303.0</ele><time>2026-04-24T03:43:43Z</time></trkpt><trkpt lat="45.702638433562335" lon="9.032894484056373"><ele>303.0</ele><time>2026-04-24T03:43:44Z</time></trkpt><trkpt lat="45.70271151285943" lon="9.032946142004294"><ele>303.0</ele><time>2026-04-24T03:43:45Z</time></trkpt><trkpt lat="45.70281871164764" lon="9.032910022585392"><ele>303.0</ele><time>2026-04-24T03:43:46Z</time></trkpt><trkpt lat="45.702900670702796" lon="9.03286985305109"><ele>303.0</ele><time>2026-04-24T03:43:47Z</time></trkpt><trkpt lat="45.702970853020936" lon="9.032768240202092"><ele>303.3333333333333</ele><time>2026-04-24T03:43:48Z</time></trkpt><trkpt lat="45.70304209274606" lon="9.032619855833714"><ele>303.66666666666663</ele><time>2026-04-24T03:43:49Z</time></trkpt><trkpt lat="45.703145236567465" lon="9.032452778436353"><ele>304.0</ele><time>2026-04-24T03:43:50Z</time></trkpt><trkpt lat="45.703286919437026" lon="9.032304048148076"><ele>304.0</ele><time>2026-04-24T03:43:51Z</time></trkpt><trkpt lat="45.70345086853884" lon="9.0321457304885"><ele>304.0</ele><time>2026-04-24T03:43:52Z</time></trkpt><trkpt lat="45.70362236879705" lon="9.031964763842536"><ele>304.0</ele><time>2026-04-24T03:43:53Z</time></trkpt><trkpt lat="45.70379965275579" lon="9.031781427693723"><ele>303.0</ele><time>2026-04-24T03:43:54Z</time></trkpt><trkpt lat="45.703975931752474" lon="9.031603088415878"><ele>302.0</ele><time>2026-04-24T03:43:55Z</time></trkpt><trkpt lat="45.7041508176869" lon="9.031421443219392"><ele>301.0</ele><time>2026-04-24T03:43:56Z</time></trkpt><trkpt lat="45.70432899294144" lon="9.031250633295647"><ele>301.66666666666663</ele><time>2026-04-24T03:43:57Z</time></trkpt><trkpt lat="45.70450695135476" lon="9.031079722415459"><ele>302.3333333333333</ele><time>2026-04-24T03:43:58Z</time></trkpt><trkpt lat="45.70468215393048" lon="9.030904437117192"><ele>303.0</ele><time>2026-04-24T03:43:59Z</time></trkpt><trkpt lat="45.70484042035251" lon="9.030742003272222"><ele>303.0</ele><time>2026-04-24T03:44:00Z</time></trkpt><trkpt lat="45.70498919979963" lon="9.030588895609933"><ele>303.0</ele><time>2026-04-24T03:44:01Z</time></trkpt><trkpt lat="45.705128432981375" lon="9.030451332458984"><ele>303.0</ele><time>2026-04-24T03:44:02Z</time></trkpt><trkpt lat="45.705254919050276" lon="9.030319775073579"><ele>303.0</ele><time>2026-04-24T03:44:03Z</time></trkpt><trkpt lat="45.70538243070715" lon="9.030194540139517"><ele>303.0</ele><time>2026-04-24T03:44:04Z</time></trkpt><trkpt lat="45.705516223690125" lon="9.030054177371088"><ele>303.0</ele><time>2026-04-24T03:44:05Z</time></trkpt><trkpt lat="45.70565245226289" lon="9.029912021693903"><ele>303.6666666666667</ele><time>2026-04-24T03:44:06Z</time></trkpt><trkpt lat="45.7057913524825" lon="9.02976956058648"><ele>304.33333333333337</ele><time>2026-04-24T03:44:07Z</time></trkpt><trkpt lat="45.705932725277904" lon="9.029624421423703"><ele>305.0</ele><time>2026-04-24T03:44:08Z</time></trkpt><trkpt lat="45.70606892419639" lon="9.029481128328285"><ele>304.6666666666667</ele><time>2026-04-24T03:44:08.999Z</time></trkpt><trkpt lat="45.706206027477535" lon="9.029342007923912"><ele>304.3333333333333</ele><time>2026-04-24T03:44:09.999Z</time></trkpt><trkpt lat="45.70634237580944" lon="9.029203853706854"><ele>304.0</ele><time>2026-04-24T03:44:10.999Z</time></trkpt><trkpt lat="45.70647442210029" lon="9.02906656727685"><ele>304.0</ele><time>2026-04-24T03:44:11.999Z</time></trkpt><trkpt lat="45.70660711452942" lon="9.02893187203839"><ele>304.0</ele><time>2026-04-24T03:44:12.999Z</time></trkpt><trkpt lat="45.70673823902653" lon="9.028800470934353"><ele>304.0</ele><time>2026-04-24T03:44:13.999Z</time></trkpt><trkpt lat="45.706873448114735" lon="9.028667410779716"><ele>304.0</ele><time>2026-04-24T03:44:14.999Z</time></trkpt><trkpt lat="45.7070071253299" lon="9.02852906292035"><ele>304.0</ele><time>2026-04-24T03:44:15.999Z</time></trkpt><trkpt lat="45.70712956249672" lon="9.028407727850889"><ele>304.0</ele><time>2026-04-24T03:44:16.999Z</time></trkpt><trkpt lat="45.70723996625776" lon="9.028293348354943"><ele>304.25</ele><time>2026-04-24T03:44:17.999Z</time></trkpt><trkpt lat="45.70734136747981" lon="9.02818726661766"><ele>304.5</ele><time>2026-04-24T03:44:18.999Z</time></trkpt><trkpt lat="45.7074352351813" lon="9.02808697630635"><ele>304.75</ele><time>2026-04-24T03:44:19.999Z</time></trkpt><trkpt lat="45.70752260898647" lon="9.027996544717704"><ele>305.0</ele><time>2026-04-24T03:44:20.999Z</time></trkpt><trkpt lat="45.70760819775619" lon="9.027907700008841"><ele>305.0</ele><time>2026-04-24T03:44:21.999Z</time></trkpt><trkpt lat="45.707701279243544" lon="9.027817838162704"><ele>305.0</ele><time>2026-04-24T03:44:22.999Z</time></trkpt><trkpt lat="45.70779492708281" lon="9.027723677062246"><ele>305.0</ele><time>2026-04-24T03:44:23.999Z</time></trkpt><trkpt lat="45.70788871517819" lon="9.027627910863929"><ele>305.0</ele><time>2026-04-24T03:44:24.999Z</time></trkpt><trkpt lat="45.707990750514874" lon="9.02751833364728"><ele>306.0</ele><time>2026-04-24T03:44:25.999Z</time></trkpt><trkpt lat="45.708108455792555" lon="9.027389327077993"><ele>307.0</ele><time>2026-04-24T03:44:26.999Z</time></trkpt><trkpt lat="45.70822804807485" lon="9.027259811058187"><ele>308.0</ele><time>2026-04-24T03:44:27.999Z</time></trkpt><trkpt lat="45.70834661127049" lon="9.027141698869592"><ele>309.0</ele><time>2026-04-24T03:44:28.999Z</time></trkpt><trkpt lat="45.70845997551576" lon="9.027033611989015"><ele>309.0</ele><time>2026-04-24T03:44:29.999Z</time></trkpt><trkpt lat="45.708563622981806" lon="9.026935065066992"><ele>309.0</ele><time>2026-04-24T03:44:30.999Z</time></trkpt><trkpt lat="45.708657643311135" lon="9.026849895633491"><ele>309.0</ele><time>2026-04-24T03:44:31.999Z</time></trkpt><trkpt lat="45.70872965898258" lon="9.026783548663948"><ele>309.0</ele><time>2026-04-24T03:44:32.999Z</time></trkpt><trkpt lat="45.7087924297947" lon="9.026731245729065"><ele>309.0</ele><time>2026-04-24T03:44:33.999Z</time></trkpt><trkpt lat="45.70888959198414" lon="9.026671283521148"><ele>309.0</ele><time>2026-04-24T03:44:35.999Z</time></trkpt><trkpt lat="45.70898018383413" lon="9.026654046559296"><ele>309.0</ele><time>2026-04-24T03:44:37.999Z</time></trkpt><trkpt lat="45.7090953736807" lon="9.026669354741928"><ele>309.0</ele><time>2026-04-24T03:44:39.999Z</time></trkpt><trkpt lat="45.709219895306106" lon="9.026603932433302"><ele>309.0</ele><time>2026-04-24T03:44:41.999Z</time></trkpt><trkpt lat="45.70926541700406" lon="9.026528321439178"><ele>309.0</ele><time>2026-04-24T03:44:42.999Z</time></trkpt><trkpt lat="45.70928986666418" lon="9.026437496127086"><ele>309.00000000000006</ele><time>2026-04-24T03:44:43.999Z</time></trkpt><trkpt lat="45.709294060524805" lon="9.026333876275544"><ele>309.0</ele><time>2026-04-24T03:44:44.999Z</time></trkpt><trkpt lat="45.70927171599906" lon="9.026242878839204"><ele>309.0</ele><time>2026-04-24T03:44:45.999Z</time></trkpt><trkpt lat="45.70923062232644" lon="9.026163975688274"><ele>309.0</ele><time>2026-04-24T03:44:46.999Z</time></trkpt><trkpt lat="45.70917684541211" lon="9.026107584214564"><ele>309.0</ele><time>2026-04-24T03:44:47.999Z</time></trkpt><trkpt lat="45.709115435667684" lon="9.02605609073711"><ele>309.00000000000006</ele><time>2026-04-24T03:44:48.999Z</time></trkpt><trkpt lat="45.70904875714307" lon="9.026014858913902"><ele>309.0</ele><time>2026-04-24T03:44:49.999Z</time></trkpt><trkpt lat="45.7089611000109" lon="9.025841257917646"><ele>308.5</ele><time>2026-04-24T03:44:51.999Z</time></trkpt><trkpt lat="45.709008994407974" lon="9.025670893405112"><ele>308.0</ele><time>2026-04-24T03:44:52.999Z</time></trkpt><trkpt lat="45.70902611142673" lon="9.025532479480026"><ele>307.5</ele><time>2026-04-24T03:44:53.999Z</time></trkpt><trkpt lat="45.7090517299756" lon="9.025378876332484"><ele>307.0</ele><time>2026-04-24T03:44:54.999Z</time></trkpt><trkpt lat="45.7090800890096" lon="9.02521074361016"><ele>307.0</ele><time>2026-04-24T03:44:55.999Z</time></trkpt><trkpt lat="45.70911056307396" lon="9.025032501008777"><ele>307.0</ele><time>2026-04-24T03:44:56.999Z</time></trkpt><trkpt lat="45.709145588856714" lon="9.024847177527674"><ele>307.0</ele><time>2026-04-24T03:44:57.999Z</time></trkpt><trkpt lat="45.70918801374069" lon="9.024657212323419"><ele>307.0</ele><time>2026-04-24T03:44:58.999Z</time></trkpt><trkpt lat="45.709240997463375" lon="9.024471753653312"><ele>307.0</ele><time>2026-04-24T03:44:59.999Z</time></trkpt><trkpt lat="45.7092815251168" lon="9.024289157762388"><ele>307.0</ele><time>2026-04-24T03:45:00.999Z</time></trkpt><trkpt lat="45.70932305335386" lon="9.024100547870507"><ele>307.0</ele><time>2026-04-24T03:45:02Z</time></trkpt><trkpt lat="45.709443889474464" lon="9.02395761711885"><ele>307.0</ele><time>2026-04-24T03:45:03Z</time></trkpt><trkpt lat="45.709534652273305" lon="9.02381318964754"><ele>307.5</ele><time>2026-04-24T03:45:04Z</time></trkpt><trkpt lat="45.709636197196524" lon="9.0236822811348"><ele>308.0</ele><time>2026-04-24T03:45:05Z</time></trkpt><trkpt lat="45.7097557801997" lon="9.023559704504612"><ele>308.5</ele><time>2026-04-24T03:45:06Z</time></trkpt><trkpt lat="45.70989385219964" lon="9.02345553184432"><ele>309.0</ele><time>2026-04-24T03:45:07Z</time></trkpt><trkpt lat="45.71004534307144" lon="9.023375653195675"><ele>309.0</ele><time>2026-04-24T03:45:08Z</time></trkpt><trkpt lat="45.710209605761975" lon="9.023322029383968"><ele>309.0</ele><time>2026-04-24T03:45:09Z</time></trkpt><trkpt lat="45.71037968102245" lon="9.023295219493274"><ele>309.0</ele><time>2026-04-24T03:45:10Z</time></trkpt><trkpt lat="45.7105517644715" lon="9.023298558302393"><ele>309.6666666666667</ele><time>2026-04-24T03:45:11Z</time></trkpt><trkpt lat="45.710736720649116" lon="9.023334909942339"><ele>310.33333333333337</ele><time>2026-04-24T03:45:12Z</time></trkpt><trkpt lat="45.71092526507445" lon="9.02336307830775"><ele>311.0</ele><time>2026-04-24T03:45:13Z</time></trkpt><trkpt lat="45.711122080920106" lon="9.023447792888069"><ele>311.0</ele><time>2026-04-24T03:45:14Z</time></trkpt><trkpt lat="45.711343773303426" lon="9.023505087654454"><ele>311.0</ele><time>2026-04-24T03:45:15Z</time></trkpt><trkpt lat="45.71159001240806" lon="9.02355989524608"><ele>311.0</ele><time>2026-04-24T03:45:16Z</time></trkpt><trkpt lat="45.7118362334706" lon="9.02361768480853"><ele>311.0</ele><time>2026-04-24T03:45:17Z</time></trkpt><trkpt lat="45.7120861284363" lon="9.023675618894343"><ele>312.0</ele><time>2026-04-24T03:45:18Z</time></trkpt><trkpt lat="45.71236148558413" lon="9.023737749162164"><ele>313.0</ele><time>2026-04-24T03:45:19Z</time></trkpt><trkpt lat="45.7126490626528" lon="9.023798311589697"><ele>313.5</ele><time>2026-04-24T03:45:20Z</time></trkpt><trkpt lat="45.71294966404087" lon="9.023869838584332"><ele>314.0</ele><time>2026-04-24T03:45:21Z</time></trkpt><trkpt lat="45.71326566591428" lon="9.023956057123474"><ele>314.5</ele><time>2026-04-24T03:45:22Z</time></trkpt><trkpt lat="45.71357568032092" lon="9.024047472940689"><ele>315.0</ele><time>2026-04-24T03:45:23Z</time></trkpt><trkpt lat="45.71388531854122" lon="9.024124504540218"><ele>315.0</ele><time>2026-04-24T03:45:24Z</time></trkpt><trkpt lat="45.71419850562498" lon="9.024238428694257"><ele>315.0</ele><time>2026-04-24T03:45:25Z</time></trkpt><trkpt lat="45.71452669049781" lon="9.02433404353456"><ele>315.0</ele><time>2026-04-24T03:45:26Z</time></trkpt><trkpt lat="45.714845006316075" lon="9.024426469370237"><ele>315.0</ele><time>2026-04-24T03:45:27Z</time></trkpt><trkpt lat="45.715153136048016" lon="9.024519414615863"><ele>316.5</ele><time>2026-04-24T03:45:28Z</time></trkpt><trkpt lat="45.71546603367543" lon="9.024612481574659"><ele>318.0</ele><time>2026-04-24T03:45:29Z</time></trkpt><trkpt lat="45.715782350913074" lon="9.024702501096261"><ele>318.0</ele><time>2026-04-24T03:45:30Z</time></trkpt><trkpt lat="45.71609318864265" lon="9.024795128928275"><ele>318.0</ele><time>2026-04-24T03:45:31Z</time></trkpt><trkpt lat="45.71639021313273" lon="9.024884671483298"><ele>318.0</ele><time>2026-04-24T03:45:32Z</time></trkpt><trkpt lat="45.716685770652695" lon="9.024976034992005"><ele>318.0</ele><time>2026-04-24T03:45:33Z</time></trkpt><trkpt lat="45.71697753614763" lon="9.025067951186996"><ele>315.5</ele><time>2026-04-24T03:45:34Z</time></trkpt><trkpt lat="45.717261572768955" lon="9.025153413068528"><ele>313.0</ele><time>2026-04-24T03:45:35Z</time></trkpt><trkpt lat="45.71754574563257" lon="9.025235408657235"><ele>313.5</ele><time>2026-04-24T03:45:36Z</time></trkpt><trkpt lat="45.717819683333936" lon="9.025311214005724"><ele>314.0</ele><time>2026-04-24T03:45:37Z</time></trkpt><trkpt lat="45.71808539031157" lon="9.025387062314335"><ele>314.0</ele><time>2026-04-24T03:45:38Z</time></trkpt><trkpt lat="45.71835521739606" lon="9.025467191601928"><ele>314.0</ele><time>2026-04-24T03:45:39Z</time></trkpt><trkpt lat="45.71861891376802" lon="9.025546758804333"><ele>313.0</ele><time>2026-04-24T03:45:40Z</time></trkpt><trkpt lat="45.718883931478906" lon="9.025625895378274"><ele>312.0</ele><time>2026-04-24T03:45:41Z</time></trkpt><trkpt lat="45.71914975109201" lon="9.025695882760001"><ele>312.0</ele><time>2026-04-24T03:45:42Z</time></trkpt><trkpt lat="45.71941089422858" lon="9.02575426400513"><ele>312.0</ele><time>2026-04-24T03:45:43Z</time></trkpt><trkpt lat="45.71967296087062" lon="9.025813199942393"><ele>312.0</ele><time>2026-04-24T03:45:44Z</time></trkpt><trkpt lat="45.71994108048159" lon="9.025876326562718"><ele>312.0</ele><time>2026-04-24T03:45:45Z</time></trkpt><trkpt lat="45.72020327307743" lon="9.025942122315733"><ele>315.0</ele><time>2026-04-24T03:45:46Z</time></trkpt><trkpt lat="45.720469398525026" lon="9.025994207485759"><ele>318.0</ele><time>2026-04-24T03:45:47Z</time></trkpt><trkpt lat="45.720709222140805" lon="9.026162574089172"><ele>318.0</ele><time>2026-04-24T03:45:48Z</time></trkpt><trkpt lat="45.720968061722076" lon="9.026233709094814"><ele>318.0</ele><time>2026-04-24T03:45:49Z</time></trkpt><trkpt lat="45.72122596022188" lon="9.026311150225403"><ele>322.0</ele><time>2026-04-24T03:45:50Z</time></trkpt><trkpt lat="45.72148060984559" lon="9.026381405349088"><ele>326.0</ele><time>2026-04-24T03:45:51Z</time></trkpt><trkpt lat="45.72173475829642" lon="9.026457955839879"><ele>325.0</ele><time>2026-04-24T03:45:52Z</time></trkpt><trkpt lat="45.722002646758185" lon="9.026540295026852"><ele>324.0</ele><time>2026-04-24T03:45:53Z</time></trkpt><trkpt lat="45.722278047438564" lon="9.026620061112089"><ele>322.0</ele><time>2026-04-24T03:45:54Z</time></trkpt><trkpt lat="45.72256540742345" lon="9.026698227664415"><ele>320.0</ele><time>2026-04-24T03:45:55Z</time></trkpt><trkpt lat="45.72285896972242" lon="9.02678098487822"><ele>320.0</ele><time>2026-04-24T03:45:56Z</time></trkpt><trkpt lat="45.72315894660622" lon="9.026872003482664"><ele>320.0</ele><time>2026-04-24T03:45:57Z</time></trkpt><trkpt lat="45.72346250535242" lon="9.026957931211001"><ele>319.5</ele><time>2026-04-24T03:45:58Z</time></trkpt><trkpt lat="45.723766977057494" lon="9.027049570778066"><ele>319.0</ele><time>2026-04-24T03:45:59Z</time></trkpt><trkpt lat="45.72407606230725" lon="9.027135938980955"><ele>319.0</ele><time>2026-04-24T03:46:00Z</time></trkpt><trkpt lat="45.72438786001185" lon="9.027222325950522"><ele>319.0</ele><time>2026-04-24T03:46:01Z</time></trkpt><trkpt lat="45.72469537304235" lon="9.027318846725347"><ele>318.5</ele><time>2026-04-24T03:46:02Z</time></trkpt><trkpt lat="45.72501167861262" lon="9.027417267846404"><ele>318.0</ele><time>2026-04-24T03:46:03Z</time></trkpt><trkpt lat="45.72533139941559" lon="9.027513524894362"><ele>316.0</ele><time>2026-04-24T03:46:04Z</time></trkpt><trkpt lat="45.72564996626465" lon="9.027604310459045"><ele>314.0</ele><time>2026-04-24T03:46:05Z</time></trkpt><trkpt lat="45.72596619929202" lon="9.027693332060233"><ele>314.5</ele><time>2026-04-24T03:46:06Z</time></trkpt><trkpt lat="45.72628160663935" lon="9.027790021417728"><ele>315.0</ele><time>2026-04-24T03:46:07Z</time></trkpt><trkpt lat="45.72660105153195" lon="9.027891705734792"><ele>314.0</ele><time>2026-04-24T03:46:08Z</time></trkpt><trkpt lat="45.72692266705835" lon="9.027985575484148"><ele>313.0</ele><time>2026-04-24T03:46:09Z</time></trkpt><trkpt lat="45.727245138683685" lon="9.028071317354136"><ele>313.0</ele><time>2026-04-24T03:46:09.999Z</time></trkpt><trkpt lat="45.72756690215961" lon="9.028161778434301"><ele>313.0</ele><time>2026-04-24T03:46:10.999Z</time></trkpt><trkpt lat="45.72788727322305" lon="9.028257872970372"><ele>313.0</ele><time>2026-04-24T03:46:11.999Z</time></trkpt><trkpt lat="45.728211652145966" lon="9.028356196154922"><ele>313.0</ele><time>2026-04-24T03:46:12.999Z</time></trkpt><trkpt lat="45.72853446612961" lon="9.028448783561299"><ele>313.0</ele><time>2026-04-24T03:46:13.999Z</time></trkpt><trkpt lat="45.72885362012658" lon="9.028539889101124"><ele>313.0</ele><time>2026-04-24T03:46:14.999Z</time></trkpt><trkpt lat="45.72917464054011" lon="9.028633890479966"><ele>312.5</ele><time>2026-04-24T03:46:15.999Z</time></trkpt><trkpt lat="45.72949448037035" lon="9.028725824726592"><ele>312.0</ele><time>2026-04-24T03:46:16.999Z</time></trkpt><trkpt lat="45.72982182725196" lon="9.028821265955665"><ele>312.0</ele><time>2026-04-24T03:46:17.999Z</time></trkpt><trkpt lat="45.73014162707263" lon="9.028913496288714"><ele>312.0</ele><time>2026-04-24T03:46:18.999Z</time></trkpt><trkpt lat="45.730460984077524" lon="9.02901060422857"><ele>311.5</ele><time>2026-04-24T03:46:19.999Z</time></trkpt><trkpt lat="45.73078647818158" lon="9.029105659027202"><ele>311.0</ele><time>2026-04-24T03:46:20.999Z</time></trkpt><trkpt lat="45.73110761580498" lon="9.029197320588924"><ele>309.5</ele><time>2026-04-24T03:46:21.999Z</time></trkpt><trkpt lat="45.731428460176005" lon="9.02929304627632"><ele>308.0</ele><time>2026-04-24T03:46:22.999Z</time></trkpt><trkpt lat="45.73175076702529" lon="9.029387652132431"><ele>307.0</ele><time>2026-04-24T03:46:23.999Z</time></trkpt><trkpt lat="45.732074569485356" lon="9.029481633397374"><ele>306.0</ele><time>2026-04-24T03:46:24.999Z</time></trkpt><trkpt lat="45.73239639656676" lon="9.029576359470607"><ele>306.0</ele><time>2026-04-24T03:46:25.999Z</time></trkpt><trkpt lat="45.73271765245552" lon="9.02966929263095"><ele>306.0</ele><time>2026-04-24T03:46:26.999Z</time></trkpt><trkpt lat="45.73303844903863" lon="9.029760963729327"><ele>306.5</ele><time>2026-04-24T03:46:27.999Z</time></trkpt><trkpt lat="45.73336060938904" lon="9.02985037274903"><ele>307.0</ele><time>2026-04-24T03:46:28.999Z</time></trkpt><trkpt lat="45.7336805614763" lon="9.02994355958724"><ele>309.5</ele><time>2026-04-24T03:46:29.999Z</time></trkpt><trkpt lat="45.73399937421169" lon="9.030032088600809"><ele>312.0</ele><time>2026-04-24T03:46:30.999Z</time></trkpt><trkpt lat="45.73431981160716" lon="9.030123808567375"><ele>315.0</ele><time>2026-04-24T03:46:31.999Z</time></trkpt><trkpt lat="45.73464987720419" lon="9.030221568159645"><ele>318.0</ele><time>2026-04-24T03:46:32.999Z</time></trkpt><trkpt lat="45.734995790985856" lon="9.030322463318694"><ele>320.0</ele><time>2026-04-24T03:46:33.999Z</time></trkpt><trkpt lat="45.73535772411258" lon="9.03042760596038"><ele>322.0</ele><time>2026-04-24T03:46:34.999Z</time></trkpt><trkpt lat="45.73572068042804" lon="9.030529834594407"><ele>320.0</ele><time>2026-04-24T03:46:35.999Z</time></trkpt><trkpt lat="45.73608792642277" lon="9.030628141346066"><ele>318.0</ele><time>2026-04-24T03:46:36.999Z</time></trkpt><trkpt lat="45.736453112172654" lon="9.030736219667368"><ele>320.5</ele><time>2026-04-24T03:46:37.999Z</time></trkpt><trkpt lat="45.736815554481886" lon="9.030840802431872"><ele>323.0</ele><time>2026-04-24T03:46:38.999Z</time></trkpt><trkpt lat="45.737179289167365" lon="9.03094092230622"><ele>318.0</ele><time>2026-04-24T03:46:39.999Z</time></trkpt><trkpt lat="45.737539682096966" lon="9.031052991983852"><ele>313.0</ele><time>2026-04-24T03:46:40.999Z</time></trkpt><trkpt lat="45.73789911724774" lon="9.031161294235776"><ele>313.5</ele><time>2026-04-24T03:46:41.999Z</time></trkpt><trkpt lat="45.73825455910653" lon="9.03126801747263"><ele>314.0</ele><time>2026-04-24T03:46:42.999Z</time></trkpt><trkpt lat="45.738612826848865" lon="9.031379962762417"><ele>314.0</ele><time>2026-04-24T03:46:43.999Z</time></trkpt><trkpt lat="45.73896800797223" lon="9.031483249848414"><ele>314.0</ele><time>2026-04-24T03:46:44.999Z</time></trkpt><trkpt lat="45.7393177289696" lon="9.031588464741505"><ele>318.5</ele><time>2026-04-24T03:46:45.999Z</time></trkpt><trkpt lat="45.73966119463859" lon="9.031704065398865"><ele>323.0</ele><time>2026-04-24T03:46:46.999Z</time></trkpt><trkpt lat="45.74000870466054" lon="9.031824952899974"><ele>322.5</ele><time>2026-04-24T03:46:47.999Z</time></trkpt><trkpt lat="45.74034931782991" lon="9.031955377504662"><ele>322.0</ele><time>2026-04-24T03:46:48.999Z</time></trkpt><trkpt lat="45.74068521305535" lon="9.03209458830436"><ele>322.0</ele><time>2026-04-24T03:46:49.999Z</time></trkpt><trkpt lat="45.74101540561691" lon="9.032247414706465"><ele>322.0</ele><time>2026-04-24T03:46:50.999Z</time></trkpt><trkpt lat="45.741341417598996" lon="9.032403495345719"><ele>323.0</ele><time>2026-04-24T03:46:51.999Z</time></trkpt><trkpt lat="45.7416639965049" lon="9.03256856135572"><ele>324.0</ele><time>2026-04-24T03:46:52.999Z</time></trkpt><trkpt lat="45.74198285253805" lon="9.03274313053581"><ele>324.5</ele><time>2026-04-24T03:46:53.999Z</time></trkpt><trkpt lat="45.74229920471192" lon="9.032926501627085"><ele>325.0</ele><time>2026-04-24T03:46:54.999Z</time></trkpt><trkpt lat="45.74261078668931" lon="9.033116377085072"><ele>327.0</ele><time>2026-04-24T03:46:55.999Z</time></trkpt><trkpt lat="45.74292266673384" lon="9.033314623956183"><ele>329.0</ele><time>2026-04-24T03:46:56.999Z</time></trkpt><trkpt lat="45.74323158113167" lon="9.033522304290836"><ele>329.0</ele><time>2026-04-24T03:46:57.999Z</time></trkpt><trkpt lat="45.743543537919564" lon="9.033740062313024"><ele>329.0</ele><time>2026-04-24T03:46:58.999Z</time></trkpt><trkpt lat="45.74385417233719" lon="9.033965868024127"><ele>329.5</ele><time>2026-04-24T03:46:59.999Z</time></trkpt><trkpt lat="45.744156079433864" lon="9.034197866283868"><ele>330.0</ele><time>2026-04-24T03:47:00.999Z</time></trkpt><trkpt lat="45.74446301343998" lon="9.034435774395538"><ele>334.0</ele><time>2026-04-24T03:47:01.999Z</time></trkpt><trkpt lat="45.7447578400028" lon="9.034682216518938"><ele>338.0</ele><time>2026-04-24T03:47:02.999Z</time></trkpt><trkpt lat="45.74506464365916" lon="9.03492698167655"><ele>338.0</ele><time>2026-04-24T03:47:03.999Z</time></trkpt><trkpt lat="45.74536520606927" lon="9.035171535143474"><ele>338.0</ele><time>2026-04-24T03:47:04.999Z</time></trkpt><trkpt lat="45.74566782683209" lon="9.035414433390512"><ele>338.0</ele><time>2026-04-24T03:47:05.999Z</time></trkpt><trkpt lat="45.74597368317963" lon="9.03566023000548"><ele>338.0</ele><time>2026-04-24T03:47:06.999Z</time></trkpt><trkpt lat="45.74627584446433" lon="9.035912687893138"><ele>333.0</ele><time>2026-04-24T03:47:08Z</time></trkpt><trkpt lat="45.74659036509987" lon="9.03617338568675"><ele>328.0</ele><time>2026-04-24T03:47:09Z</time></trkpt><trkpt lat="45.74691634482406" lon="9.036449029525805"><ele>321.5</ele><time>2026-04-24T03:47:10Z</time></trkpt><trkpt lat="45.74724841884451" lon="9.036719781775146"><ele>315.0</ele><time>2026-04-24T03:47:11Z</time></trkpt><trkpt lat="45.747591862748585" lon="9.036993031668539"><ele>312.0</ele><time>2026-04-24T03:47:12Z</time></trkpt><trkpt lat="45.74792384534401" lon="9.037263618964833"><ele>309.0</ele><time>2026-04-24T03:47:13Z</time></trkpt><trkpt lat="45.748259995201515" lon="9.037538655741859"><ele>307.5</ele><time>2026-04-24T03:47:14Z</time></trkpt><trkpt lat="45.7485945557066" lon="9.037811650363505"><ele>306.0</ele><time>2026-04-24T03:47:15Z</time></trkpt><trkpt lat="45.74892952526128" lon="9.038087670467947"><ele>307.0</ele><time>2026-04-24T03:47:16Z</time></trkpt><trkpt lat="45.74927325548566" lon="9.038371105613427"><ele>308.0</ele><time>2026-04-24T03:47:17Z</time></trkpt><trkpt lat="45.749621351056994" lon="9.038654745827603"><ele>308.0</ele><time>2026-04-24T03:47:18Z</time></trkpt><trkpt lat="45.749972402635635" lon="9.038941366004229"><ele>308.0</ele><time>2026-04-24T03:47:19Z</time></trkpt><trkpt lat="45.75031977778214" lon="9.039224181955444"><ele>307.0</ele><time>2026-04-24T03:47:20Z</time></trkpt><trkpt lat="45.750667724486156" lon="9.039506751805012"><ele>306.0</ele><time>2026-04-24T03:47:21Z</time></trkpt><trkpt lat="45.75101510912084" lon="9.039784250282988"><ele>307.5</ele><time>2026-04-24T03:47:22Z</time></trkpt><trkpt lat="45.751356245782425" lon="9.040060555754833"><ele>309.0</ele><time>2026-04-24T03:47:23Z</time></trkpt><trkpt lat="45.75169659755171" lon="9.040333314456241"><ele>309.5</ele><time>2026-04-24T03:47:24Z</time></trkpt><trkpt lat="45.75203276791053" lon="9.040606717362348"><ele>310.0</ele><time>2026-04-24T03:47:25Z</time></trkpt><trkpt lat="45.75236445345462" lon="9.040878381106205"><ele>311.0</ele><time>2026-04-24T03:47:26Z</time></trkpt><trkpt lat="45.75269735962962" lon="9.041143933539237"><ele>312.0</ele><time>2026-04-24T03:47:27Z</time></trkpt><trkpt lat="45.75302811962276" lon="9.041406770126109"><ele>313.5</ele><time>2026-04-24T03:47:28Z</time></trkpt><trkpt lat="45.753357977757275" lon="9.041665822056684"><ele>315.0</ele><time>2026-04-24T03:47:29Z</time></trkpt><trkpt lat="45.753681212835595" lon="9.041920319729483"><ele>315.5</ele><time>2026-04-24T03:47:30Z</time></trkpt><trkpt lat="45.75399842706782" lon="9.04215690136598"><ele>316.0</ele><time>2026-04-24T03:47:31Z</time></trkpt><trkpt lat="45.75430102775558" lon="9.042379471632366"><ele>316.5</ele><time>2026-04-24T03:47:32Z</time></trkpt><trkpt lat="45.75458421611454" lon="9.042580307854621"><ele>317.0</ele><time>2026-04-24T03:47:33Z</time></trkpt><trkpt lat="45.7548544970223" lon="9.04276875306176"><ele>317.0</ele><time>2026-04-24T03:47:34Z</time></trkpt><trkpt lat="45.75512994096998" lon="9.042953731385811"><ele>317.0</ele><time>2026-04-24T03:47:35Z</time></trkpt><trkpt lat="45.75541986208434" lon="9.043140311838103"><ele>315.5</ele><time>2026-04-24T03:47:36Z</time></trkpt><trkpt lat="45.75572895759769" lon="9.043334200952124"><ele>314.0</ele><time>2026-04-24T03:47:37Z</time></trkpt><trkpt lat="45.75604319761053" lon="9.04351725737723"><ele>313.5</ele><time>2026-04-24T03:47:38Z</time></trkpt><trkpt lat="45.7563642615531" lon="9.043696090691817"><ele>313.0</ele><time>2026-04-24T03:47:39Z</time></trkpt><trkpt lat="45.75669683908061" lon="9.043870882966983"><ele>312.5</ele><time>2026-04-24T03:47:40Z</time></trkpt><trkpt lat="45.75702535648471" lon="9.044036682576227"><ele>312.0</ele><time>2026-04-24T03:47:41Z</time></trkpt><trkpt lat="45.75735944756782" lon="9.04420035255832"><ele>312.0</ele><time>2026-04-24T03:47:42Z</time></trkpt><trkpt lat="45.757697000645244" lon="9.04436003763115"><ele>312.0</ele><time>2026-04-24T03:47:43Z</time></trkpt><trkpt lat="45.75803944312571" lon="9.044513616127013"><ele>311.0</ele><time>2026-04-24T03:47:44Z</time></trkpt><trkpt lat="45.75838102508732" lon="9.044653594669668"><ele>310.0</ele><time>2026-04-24T03:47:45Z</time></trkpt><trkpt lat="45.75872785220717" lon="9.044785105743157"><ele>310.0</ele><time>2026-04-24T03:47:46Z</time></trkpt><trkpt lat="45.759074260742615" lon="9.044907234341482"><ele>310.0</ele><time>2026-04-24T03:47:47Z</time></trkpt><trkpt lat="45.75942029126332" lon="9.045022654927326"><ele>308.0</ele><time>2026-04-24T03:47:48Z</time></trkpt><trkpt lat="45.759771546302694" lon="9.045136937726873"><ele>306.0</ele><time>2026-04-24T03:47:49Z</time></trkpt><trkpt lat="45.760116938996546" lon="9.045250985437598"><ele>305.0</ele><time>2026-04-24T03:47:50Z</time></trkpt><trkpt lat="45.760461678743276" lon="9.045366707209473"><ele>304.0</ele><time>2026-04-24T03:47:51Z</time></trkpt><trkpt lat="45.760808711850736" lon="9.045473600139765"><ele>303.0</ele><time>2026-04-24T03:47:52Z</time></trkpt><trkpt lat="45.76115090637173" lon="9.045576283050224"><ele>302.0</ele><time>2026-04-24T03:47:53Z</time></trkpt><trkpt lat="45.76148876467082" lon="9.04567052835945"><ele>302.0</ele><time>2026-04-24T03:47:54Z</time></trkpt><trkpt lat="45.76184398201874" lon="9.045771677034608"><ele>302.0</ele><time>2026-04-24T03:47:55Z</time></trkpt><trkpt lat="45.762196944627114" lon="9.04587403118754"><ele>301.5</ele><time>2026-04-24T03:47:56Z</time></trkpt><trkpt lat="45.762546457662715" lon="9.045974859680246"><ele>301.0</ele><time>2026-04-24T03:47:57Z</time></trkpt><trkpt lat="45.76289776324858" lon="9.046075753424146"><ele>300.0</ele><time>2026-04-24T03:47:58Z</time></trkpt><trkpt lat="45.76325013295471" lon="9.046177268086447"><ele>299.0</ele><time>2026-04-24T03:47:59Z</time></trkpt><trkpt lat="45.763604981198164" lon="9.046277266057864"><ele>298.5</ele><time>2026-04-24T03:48:00Z</time></trkpt><trkpt lat="45.763964103034176" lon="9.046377336818805"><ele>298.0</ele><time>2026-04-24T03:48:01Z</time></trkpt><trkpt lat="45.76432979420891" lon="9.046485239645426"><ele>297.5</ele><time>2026-04-24T03:48:02Z</time></trkpt><trkpt lat="45.764693299899534" lon="9.046587597263024"><ele>297.0</ele><time>2026-04-24T03:48:03Z</time></trkpt><trkpt lat="45.76505096205323" lon="9.046689991733963"><ele>298.5</ele><time>2026-04-24T03:48:04Z</time></trkpt><trkpt lat="45.76541375966413" lon="9.04679226156354"><ele>300.0</ele><time>2026-04-24T03:48:05Z</time></trkpt><trkpt lat="45.765769294750704" lon="9.046893772482425"><ele>301.0</ele><time>2026-04-24T03:48:06Z</time></trkpt><trkpt lat="45.766123077297415" lon="9.046995591507356"><ele>302.0</ele><time>2026-04-24T03:48:07Z</time></trkpt><trkpt lat="45.76647576000939" lon="9.047099833395578"><ele>302.0</ele><time>2026-04-24T03:48:08Z</time></trkpt><trkpt lat="45.7668252457972" lon="9.04720635964181"><ele>302.0</ele><time>2026-04-24T03:48:09Z</time></trkpt><trkpt lat="45.767175635437106" lon="9.047308928152452"><ele>302.0</ele><time>2026-04-24T03:48:10Z</time></trkpt><trkpt lat="45.76752660090064" lon="9.04741008216744"><ele>302.0</ele><time>2026-04-24T03:48:11Z</time></trkpt><trkpt lat="45.7678730401611" lon="9.04751211368407"><ele>302.0</ele><time>2026-04-24T03:48:12Z</time></trkpt><trkpt lat="45.76822318843966" lon="9.047611678920756"><ele>302.0</ele><time>2026-04-24T03:48:13Z</time></trkpt><trkpt lat="45.768585880910834" lon="9.047712003638393"><ele>302.0</ele><time>2026-04-24T03:48:14Z</time></trkpt><trkpt lat="45.768959710523724" lon="9.047812813487644"><ele>302.0</ele><time>2026-04-24T03:48:15Z</time></trkpt><trkpt lat="45.769334087458425" lon="9.047919188522567"><ele>301.5</ele><time>2026-04-24T03:48:16Z</time></trkpt><trkpt lat="45.76969636785511" lon="9.048024609277489"><ele>301.0</ele><time>2026-04-24T03:48:17Z</time></trkpt><trkpt lat="45.77004519528967" lon="9.048122517797752"><ele>301.5</ele><time>2026-04-24T03:48:18Z</time></trkpt><trkpt lat="45.77037593812314" lon="9.048214345930562"><ele>302.0</ele><time>2026-04-24T03:48:19Z</time></trkpt><trkpt lat="45.77067058836913" lon="9.048305842268947"><ele>302.0</ele><time>2026-04-24T03:48:20Z</time></trkpt><trkpt lat="45.77095134111653" lon="9.04839083091694"><ele>302.0</ele><time>2026-04-24T03:48:21Z</time></trkpt><trkpt lat="45.771231985920494" lon="9.048475001449221"><ele>303.5</ele><time>2026-04-24T03:48:22Z</time></trkpt><trkpt lat="45.771517731751295" lon="9.048559676437717"><ele>305.0</ele><time>2026-04-24T03:48:23Z</time></trkpt><trkpt lat="45.771802229995686" lon="9.04863853795483"><ele>306.5</ele><time>2026-04-24T03:48:24Z</time></trkpt><trkpt lat="45.772063916764516" lon="9.048721580971982"><ele>308.0</ele><time>2026-04-24T03:48:25Z</time></trkpt><trkpt lat="45.772318546788185" lon="9.048807500386793"><ele>308.0</ele><time>2026-04-24T03:48:26Z</time></trkpt><trkpt lat="45.772557288499144" lon="9.048887991287321"><ele>308.0</ele><time>2026-04-24T03:48:27Z</time></trkpt><trkpt lat="45.772776563655036" lon="9.048976351633788"><ele>308.0</ele><time>2026-04-24T03:48:28Z</time></trkpt><trkpt lat="45.772934149489835" lon="9.04913639260055"><ele>308.0</ele><time>2026-04-24T03:48:29Z</time></trkpt><trkpt lat="45.773077449376714" lon="9.04925081127139"><ele>308.0</ele><time>2026-04-24T03:48:30Z</time></trkpt><trkpt lat="45.77321905609904" lon="9.049371644226166"><ele>308.0</ele><time>2026-04-24T03:48:31Z</time></trkpt><trkpt lat="45.773371932180694" lon="9.049464722868684"><ele>308.0</ele><time>2026-04-24T03:48:32Z</time></trkpt><trkpt lat="45.77351272208158" lon="9.049523427957745"><ele>308.0</ele><time>2026-04-24T03:48:33Z</time></trkpt><trkpt lat="45.77363365464321" lon="9.049566513758759"><ele>308.0</ele><time>2026-04-24T03:48:33.999Z</time></trkpt><trkpt lat="45.77373104545612" lon="9.049597178528424"><ele>308.0</ele><time>2026-04-24T03:48:34.999Z</time></trkpt><trkpt lat="45.77381245884656" lon="9.049621304075805"><ele>308.0</ele><time>2026-04-24T03:48:35.999Z</time></trkpt><trkpt lat="45.77389020267825" lon="9.049642993469798"><ele>308.0</ele><time>2026-04-24T03:48:36.999Z</time></trkpt><trkpt lat="45.77400919917395" lon="9.0496732562231"><ele>308.0</ele><time>2026-04-24T03:48:38.999Z</time></trkpt><trkpt lat="45.77411200395249" lon="9.049693344322684"><ele>308.0</ele><time>2026-04-24T03:48:39.999Z</time></trkpt><trkpt lat="45.774260837382364" lon="9.049712263261917"><ele>307.6666666666667</ele><time>2026-04-24T03:48:40.999Z</time></trkpt><trkpt lat="45.77445350016763" lon="9.049720876926166"><ele>307.3333333333333</ele><time>2026-04-24T03:48:41.999Z</time></trkpt><trkpt lat="45.77468071680006" lon="9.04972196067174"><ele>307.0</ele><time>2026-04-24T03:48:42.999Z</time></trkpt><trkpt lat="45.77495043957036" lon="9.049676849967222"><ele>309.5</ele><time>2026-04-24T03:48:43.999Z</time></trkpt><trkpt lat="45.77523154718819" lon="9.049640111637864"><ele>312.0</ele><time>2026-04-24T03:48:44.999Z</time></trkpt><trkpt lat="45.77551548538005" lon="9.049687360086512"><ele>312.0</ele><time>2026-04-24T03:48:45.999Z</time></trkpt><trkpt lat="45.775810058932564" lon="9.049757978477407"><ele>312.0</ele><time>2026-04-24T03:48:46.999Z</time></trkpt><trkpt lat="45.77611402727313" lon="9.049845094211616"><ele>313.5</ele><time>2026-04-24T03:48:47.999Z</time></trkpt><trkpt lat="45.776425583377836" lon="9.049952446723035"><ele>315.0</ele><time>2026-04-24T03:48:48.999Z</time></trkpt><trkpt lat="45.77672198079381" lon="9.050042978446363"><ele>313.0</ele><time>2026-04-24T03:48:49.999Z</time></trkpt><trkpt lat="45.77699708613323" lon="9.050122805083436"><ele>311.0</ele><time>2026-04-24T03:48:50.999Z</time></trkpt><trkpt lat="45.77724967513062" lon="9.050194030772355"><ele>311.0</ele><time>2026-04-24T03:48:51.999Z</time></trkpt><trkpt lat="45.777486958200946" lon="9.050260136700473"><ele>311.0</ele><time>2026-04-24T03:48:52.999Z</time></trkpt><trkpt lat="45.77772347469679" lon="9.050328235232373"><ele>310.0</ele><time>2026-04-24T03:48:53.999Z</time></trkpt><trkpt lat="45.777964547143405" lon="9.050402136564761"><ele>309.0</ele><time>2026-04-24T03:48:54.999Z</time></trkpt><trkpt lat="45.778209197129954" lon="9.050475650980964"><ele>309.0</ele><time>2026-04-24T03:48:55.999Z</time></trkpt><trkpt lat="45.77846206794895" lon="9.05054973683525"><ele>309.0</ele><time>2026-04-24T03:48:56.999Z</time></trkpt><trkpt lat="45.77871917930648" lon="9.050625404213143"><ele>310.0</ele><time>2026-04-24T03:48:57.999Z</time></trkpt><trkpt lat="45.778989101099604" lon="9.050705701752678"><ele>311.0</ele><time>2026-04-24T03:48:58.999Z</time></trkpt><trkpt lat="45.779264837263604" lon="9.050786237771575"><ele>312.0</ele><time>2026-04-24T03:48:59.999Z</time></trkpt><trkpt lat="45.77954523470942" lon="9.050867197248426"><ele>313.0</ele><time>2026-04-24T03:49:00.999Z</time></trkpt><trkpt lat="45.779830185506725" lon="9.050949140730193"><ele>313.0</ele><time>2026-04-24T03:49:01.999Z</time></trkpt><trkpt lat="45.78011907427514" lon="9.051030227265896"><ele>313.0</ele><time>2026-04-24T03:49:02.999Z</time></trkpt><trkpt lat="45.780392222054985" lon="9.051108584421282"><ele>313.0</ele><time>2026-04-24T03:49:03.999Z</time></trkpt><trkpt lat="45.78064513408312" lon="9.051177322473434"><ele>313.0</ele><time>2026-04-24T03:49:04.999Z</time></trkpt><trkpt lat="45.78089984655031" lon="9.051246443070772"><ele>313.0</ele><time>2026-04-24T03:49:05.999Z</time></trkpt><trkpt lat="45.78115655172538" lon="9.051315325867828"><ele>313.0</ele><time>2026-04-24T03:49:06.999Z</time></trkpt><trkpt lat="45.78140919174872" lon="9.051381127433297"><ele>313.0</ele><time>2026-04-24T03:49:07.999Z</time></trkpt><trkpt lat="45.781659452699934" lon="9.051452631854907"><ele>313.0</ele><time>2026-04-24T03:49:08.999Z</time></trkpt><trkpt lat="45.78191227725531" lon="9.051523772466918"><ele>312.0</ele><time>2026-04-24T03:49:09.999Z</time></trkpt><trkpt lat="45.78216272840226" lon="9.051580917714743"><ele>311.0</ele><time>2026-04-24T03:49:10.999Z</time></trkpt><trkpt lat="45.78240798455854" lon="9.051615105037131"><ele>311.5</ele><time>2026-04-24T03:49:11.999Z</time></trkpt><trkpt lat="45.782654554938766" lon="9.051628855447992"><ele>312.0</ele><time>2026-04-24T03:49:12.999Z</time></trkpt><trkpt lat="45.78289031270252" lon="9.051631390646365"><ele>312.0</ele><time>2026-04-24T03:49:14Z</time></trkpt><trkpt lat="45.783123697464156" lon="9.051626201974866"><ele>312.0</ele><time>2026-04-24T03:49:15Z</time></trkpt><trkpt lat="45.78336063694683" lon="9.051623429962916"><ele>311.0</ele><time>2026-04-24T03:49:16Z</time></trkpt><trkpt lat="45.7836012361723" lon="9.051613161126294"><ele>310.0</ele><time>2026-04-24T03:49:17Z</time></trkpt><trkpt lat="45.78382150713987" lon="9.051580262020037"><ele>310.0</ele><time>2026-04-24T03:49:18Z</time></trkpt><trkpt lat="45.784025665306395" lon="9.051533504372662"><ele>310.0</ele><time>2026-04-24T03:49:19Z</time></trkpt><trkpt lat="45.78422071405264" lon="9.051480166442577"><ele>310.0</ele><time>2026-04-24T03:49:20Z</time></trkpt><trkpt lat="45.78442453143961" lon="9.0514230134513"><ele>310.0</ele><time>2026-04-24T03:49:21Z</time></trkpt><trkpt lat="45.78462340322015" lon="9.051367876460827"><ele>310.0</ele><time>2026-04-24T03:49:22Z</time></trkpt><trkpt lat="45.78483009106908" lon="9.051308608599705"><ele>310.0</ele><time>2026-04-24T03:49:23Z</time></trkpt><trkpt lat="45.78504665188244" lon="9.051234421368099"><ele>312.0</ele><time>2026-04-24T03:49:24Z</time></trkpt><trkpt lat="45.78526258603732" lon="9.051149435647442"><ele>314.0</ele><time>2026-04-24T03:49:25Z</time></trkpt><trkpt lat="45.785474812643436" lon="9.051059341994103"><ele>316.0</ele><time>2026-04-24T03:49:26Z</time></trkpt><trkpt lat="45.78566203401065" lon="9.050971111461772"><ele>316.0</ele><time>2026-04-24T03:49:27Z</time></trkpt><trkpt lat="45.78583997095451" lon="9.05088353453043"><ele>316.0</ele><time>2026-04-24T03:49:28Z</time></trkpt><trkpt lat="45.78601389261427" lon="9.050792577143545"><ele>316.0</ele><time>2026-04-24T03:49:29Z</time></trkpt><trkpt lat="45.78619071520452" lon="9.050690531145362"><ele>315.66666666666663</ele><time>2026-04-24T03:49:30Z</time></trkpt><trkpt lat="45.786377985988466" lon="9.050577820545143"><ele>315.3333333333333</ele><time>2026-04-24T03:49:31Z</time></trkpt><trkpt lat="45.78657532717984" lon="9.050465107524536"><ele>315.0</ele><time>2026-04-24T03:49:32Z</time></trkpt><trkpt lat="45.78678556109693" lon="9.050346478943556"><ele>318.0</ele><time>2026-04-24T03:49:33Z</time></trkpt><trkpt lat="45.78700748473593" lon="9.05022471813808"><ele>321.0</ele><time>2026-04-24T03:49:34Z</time></trkpt><trkpt lat="45.787224593235095" lon="9.050103408619409"><ele>321.0</ele><time>2026-04-24T03:49:35Z</time></trkpt><trkpt lat="45.78745449322208" lon="9.049975874783211"><ele>321.0</ele><time>2026-04-24T03:49:36Z</time></trkpt><trkpt lat="45.7876921927529" lon="9.04984265204384"><ele>321.5</ele><time>2026-04-24T03:49:37Z</time></trkpt><trkpt lat="45.78792147548973" lon="9.04970733607285"><ele>322.0</ele><time>2026-04-24T03:49:38Z</time></trkpt><trkpt lat="45.78815755598172" lon="9.049576180674652"><ele>322.0</ele><time>2026-04-24T03:49:39Z</time></trkpt><trkpt lat="45.78838895702111" lon="9.04945042457695"><ele>322.0</ele><time>2026-04-24T03:49:40Z</time></trkpt><trkpt lat="45.788628673535" lon="9.049320867453051"><ele>320.0</ele><time>2026-04-24T03:49:41Z</time></trkpt><trkpt lat="45.78887695240072" lon="9.049187648604716"><ele>318.0</ele><time>2026-04-24T03:49:42Z</time></trkpt><trkpt lat="45.789126576679195" lon="9.049060356241569"><ele>322.5</ele><time>2026-04-24T03:49:43Z</time></trkpt><trkpt lat="45.78937783185092" lon="9.048945953543504"><ele>327.0</ele><time>2026-04-24T03:49:44Z</time></trkpt><trkpt lat="45.789634055604886" lon="9.048843091981029"><ele>327.0</ele><time>2026-04-24T03:49:45Z</time></trkpt><trkpt lat="45.789886408642836" lon="9.048752734723108"><ele>327.0</ele><time>2026-04-24T03:49:46Z</time></trkpt><trkpt lat="45.79014265246186" lon="9.048668599102944"><ele>330.0</ele><time>2026-04-24T03:49:47Z</time></trkpt><trkpt lat="45.79039619560932" lon="9.048593786454925"><ele>333.0</ele><time>2026-04-24T03:49:48Z</time></trkpt><trkpt lat="45.79067978766917" lon="9.04851732850646"><ele>333.0</ele><time>2026-04-24T03:49:49Z</time></trkpt><trkpt lat="45.790971801894344" lon="9.048447792140696"><ele>333.0</ele><time>2026-04-24T03:49:50Z</time></trkpt><trkpt lat="45.79127160145962" lon="9.048385252152967"><ele>334.0</ele><time>2026-04-24T03:49:51Z</time></trkpt><trkpt lat="45.79158352825669" lon="9.04834080379967"><ele>335.0</ele><time>2026-04-24T03:49:52Z</time></trkpt><trkpt lat="45.79190507463383" lon="9.048307881052018"><ele>331.5</ele><time>2026-04-24T03:49:53Z</time></trkpt><trkpt lat="45.79222934144036" lon="9.048285107021703"><ele>328.0</ele><time>2026-04-24T03:49:54Z</time></trkpt><trkpt lat="45.79255279705385" lon="9.048276993066562"><ele>327.0</ele><time>2026-04-24T03:49:55Z</time></trkpt><trkpt lat="45.79289397197682" lon="9.048281521391212"><ele>326.0</ele><time>2026-04-24T03:49:56Z</time></trkpt><trkpt lat="45.79324072692323" lon="9.048306734665756"><ele>330.5</ele><time>2026-04-24T03:49:57Z</time></trkpt><trkpt lat="45.79358654211424" lon="9.048351568322929"><ele>335.0</ele><time>2026-04-24T03:49:58Z</time></trkpt><trkpt lat="45.79392268708172" lon="9.048410865761063"><ele>335.0</ele><time>2026-04-24T03:49:59Z</time></trkpt><trkpt lat="45.79425795688359" lon="9.048476975978996"><ele>335.0</ele><time>2026-04-24T03:50:00Z</time></trkpt><trkpt lat="45.794587223581374" lon="9.048555732709065"><ele>333.0</ele><time>2026-04-24T03:50:01Z</time></trkpt><trkpt lat="45.794905674377496" lon="9.04864877611743"><ele>331.0</ele><time>2026-04-24T03:50:02Z</time></trkpt><trkpt lat="45.795222318886566" lon="9.048752541973322"><ele>331.0</ele><time>2026-04-24T03:50:03Z</time></trkpt><trkpt lat="45.79552635464675" lon="9.04886572600234"><ele>331.0</ele><time>2026-04-24T03:50:04Z</time></trkpt><trkpt lat="45.79582849606877" lon="9.048991830412088"><ele>332.0</ele><time>2026-04-24T03:50:05Z</time></trkpt><trkpt lat="45.796121380323584" lon="9.049127055260879"><ele>333.0</ele><time>2026-04-24T03:50:06Z</time></trkpt><trkpt lat="45.796415381723826" lon="9.049287344799728"><ele>333.0</ele><time>2026-04-24T03:50:07Z</time></trkpt><trkpt lat="45.796707792413535" lon="9.049460051735473"><ele>333.0</ele><time>2026-04-24T03:50:08Z</time></trkpt><trkpt lat="45.79700329750094" lon="9.04965413590371"><ele>333.0</ele><time>2026-04-24T03:50:09Z</time></trkpt><trkpt lat="45.797316141699696" lon="9.049857795269872"><ele>333.0</ele><time>2026-04-24T03:50:10Z</time></trkpt><trkpt lat="45.79764036681339" lon="9.050063811976592"><ele>330.5</ele><time>2026-04-24T03:50:11Z</time></trkpt><trkpt lat="45.79796611809821" lon="9.050268222982309"><ele>328.0</ele><time>2026-04-24T03:50:12Z</time></trkpt><trkpt lat="45.79828756642592" lon="9.050476145587675"><ele>329.0</ele><time>2026-04-24T03:50:13Z</time></trkpt><trkpt lat="45.798594017354304" lon="9.050672491056286"><ele>330.0</ele><time>2026-04-24T03:50:14Z</time></trkpt><trkpt lat="45.79889792777256" lon="9.05086488587329"><ele>331.0</ele><time>2026-04-24T03:50:15Z</time></trkpt><trkpt lat="45.79920373527725" lon="9.05105858222083"><ele>332.0</ele><time>2026-04-24T03:50:16Z</time></trkpt><trkpt lat="45.79950538040373" lon="9.051249773934883"><ele>333.0</ele><time>2026-04-24T03:50:17Z</time></trkpt><trkpt lat="45.7998090022639" lon="9.051448728406978"><ele>334.0</ele><time>2026-04-24T03:50:18Z</time></trkpt><trkpt lat="45.800112618134555" lon="9.051644710548748"><ele>333.0</ele><time>2026-04-24T03:50:19Z</time></trkpt><trkpt lat="45.8004190724543" lon="9.051837956633621"><ele>332.0</ele><time>2026-04-24T03:50:20Z</time></trkpt><trkpt lat="45.80071348893586" lon="9.052031704597937"><ele>335.5</ele><time>2026-04-24T03:50:21Z</time></trkpt><trkpt lat="45.8010050404397" lon="9.052240495848078"><ele>339.0</ele><time>2026-04-24T03:50:22Z</time></trkpt><trkpt lat="45.80127969039631" lon="9.05245062641585"><ele>338.5</ele><time>2026-04-24T03:50:23Z</time></trkpt><trkpt lat="45.80156082146986" lon="9.052665353792504"><ele>338.0</ele><time>2026-04-24T03:50:24Z</time></trkpt><trkpt lat="45.80183547578501" lon="9.052858627744834"><ele>343.0</ele><time>2026-04-24T03:50:25Z</time></trkpt><trkpt lat="45.802113099132775" lon="9.05304085865667"><ele>348.0</ele><time>2026-04-24T03:50:26Z</time></trkpt><trkpt lat="45.80238849722697" lon="9.053217622077613"><ele>359.5</ele><time>2026-04-24T03:50:27Z</time></trkpt><trkpt lat="45.802666942449726" lon="9.053395322563555"><ele>371.0</ele><time>2026-04-24T03:50:28Z</time></trkpt><trkpt lat="45.80294651706993" lon="9.053572854896716"><ele>371.0</ele><time>2026-04-24T03:50:29Z</time></trkpt><trkpt lat="45.80322995389957" lon="9.053751846609908"><ele>371.0</ele><time>2026-04-24T03:50:30Z</time></trkpt><trkpt lat="45.803514413929264" lon="9.053932802188644"><ele>372.5</ele><time>2026-04-24T03:50:31Z</time></trkpt><trkpt lat="45.803795746252796" lon="9.054107573777841"><ele>374.0</ele><time>2026-04-24T03:50:32Z</time></trkpt><trkpt lat="45.80408042001943" lon="9.054286588198543"><ele>376.0</ele><time>2026-04-24T03:50:33Z</time></trkpt><trkpt lat="45.804370008331524" lon="9.054476075471824"><ele>378.0</ele><time>2026-04-24T03:50:34.07Z</time></trkpt><trkpt lat="45.80461727362136" lon="9.054665184153585"><ele>378.0</ele><time>2026-04-24T03:50:35.07Z</time></trkpt><trkpt lat="45.804895408795545" lon="9.05483658068603"><ele>378.0</ele><time>2026-04-24T03:50:36.067Z</time></trkpt><trkpt lat="45.805192947699304" lon="9.055016739270368"><ele>385.0</ele><time>2026-04-24T03:50:37.066Z</time></trkpt><trkpt lat="45.80550119857694" lon="9.055218751077062"><ele>392.0</ele><time>2026-04-24T03:50:38.067Z</time></trkpt><trkpt lat="45.80580476769804" lon="9.05541209427118"><ele>397.0</ele><time>2026-04-24T03:50:39.06Z</time></trkpt><trkpt lat="45.806093666402965" lon="9.055584022240607"><ele>402.0</ele><time>2026-04-24T03:50:40.035Z</time></trkpt><trkpt lat="45.806371200083326" lon="9.055755059565273"><ele>407.5</ele><time>2026-04-24T03:50:41.032Z</time></trkpt><trkpt lat="45.80664054544222" lon="9.055930034279061"><ele>413.0</ele><time>2026-04-24T03:50:42.028Z</time></trkpt><trkpt lat="45.80878966809458" lon="9.05730507945215"><ele>386.5</ele><time>2026-04-24T03:50:48.999Z</time></trkpt><trkpt lat="45.80903353558366" lon="9.057476538963362"><ele>360.0</ele><time>2026-04-24T03:50:49.999Z</time></trkpt><trkpt lat="45.80930688564305" lon="9.05764868634907"><ele>370.5</ele><time>2026-04-24T03:50:50.999Z</time></trkpt><trkpt lat="45.80954966159041" lon="9.05782854516584"><ele>381.0</ele><time>2026-04-24T03:50:51.999Z</time></trkpt><trkpt lat="45.80977299022457" lon="9.058006545791622"><ele>381.0</ele><time>2026-04-24T03:50:52.999Z</time></trkpt><trkpt lat="45.80997826973805" lon="9.058160469259782"><ele>381.0</ele><time>2026-04-24T03:50:53.999Z</time></trkpt><trkpt lat="45.81018595612198" lon="9.058341395520156"><ele>387.0</ele><time>2026-04-24T03:50:54.999Z</time></trkpt><trkpt lat="45.810410117748006" lon="9.05853583610082"><ele>393.0</ele><time>2026-04-24T03:50:55.999Z</time></trkpt><trkpt lat="45.81062640437518" lon="9.058717832333544"><ele>393.0</ele><time>2026-04-24T03:50:56.999Z</time></trkpt><trkpt lat="45.81082830281507" lon="9.058925000259036"><ele>393.0</ele><time>2026-04-24T03:50:57.999Z</time></trkpt><trkpt lat="45.81100704160261" lon="9.059119802665293"><ele>384.3333333333333</ele><time>2026-04-24T03:50:58.999Z</time></trkpt><trkpt lat="45.81117378995932" lon="9.059250388130888"><ele>375.66666666666663</ele><time>2026-04-24T03:50:59.999Z</time></trkpt><trkpt lat="45.81137572297594" lon="9.059427446851238"><ele>367.0</ele><time>2026-04-24T03:51:00.999Z</time></trkpt><trkpt lat="45.811598784506174" lon="9.059517645594838"><ele>375.5</ele><time>2026-04-24T03:51:01.999Z</time></trkpt><trkpt lat="45.811824409160444" lon="9.059630420925025"><ele>384.0</ele><time>2026-04-24T03:51:02.999Z</time></trkpt><trkpt lat="45.81204965732522" lon="9.059731986269824"><ele>384.0</ele><time>2026-04-24T03:51:03.999Z</time></trkpt><trkpt lat="45.8122774785431" lon="9.059806468228164"><ele>384.0</ele><time>2026-04-24T03:51:04.999Z</time></trkpt><trkpt lat="45.81250546199402" lon="9.059857899766303"><ele>386.5</ele><time>2026-04-24T03:51:05.999Z</time></trkpt><trkpt lat="45.81273823350393" lon="9.059892967106588"><ele>389.0</ele><time>2026-04-24T03:51:06.999Z</time></trkpt><trkpt lat="45.81297493452768" lon="9.059904941726765"><ele>389.0</ele><time>2026-04-24T03:51:07.999Z</time></trkpt><trkpt lat="45.81319851894851" lon="9.059922180796676"><ele>389.0</ele><time>2026-04-24T03:51:08.999Z</time></trkpt><trkpt lat="45.81343067038678" lon="9.059880856253551"><ele>382.5</ele><time>2026-04-24T03:51:09.999Z</time></trkpt><trkpt lat="45.813660500054176" lon="9.059816546370778"><ele>376.0</ele><time>2026-04-24T03:51:10.999Z</time></trkpt><trkpt lat="45.81389421344947" lon="9.059717955181474"><ele>376.0</ele><time>2026-04-24T03:51:11.999Z</time></trkpt><trkpt lat="45.81414590357446" lon="9.059587777553071"><ele>376.0</ele><time>2026-04-24T03:51:12.999Z</time></trkpt><trkpt lat="45.81439049808303" lon="9.05944577008115"><ele>375.5</ele><time>2026-04-24T03:51:13.999Z</time></trkpt><trkpt lat="45.81462781452264" lon="9.059263115434097"><ele>375.0</ele><time>2026-04-24T03:51:14.999Z</time></trkpt><trkpt lat="45.814872670007574" lon="9.059036501236081"><ele>375.0</ele><time>2026-04-24T03:51:15.999Z</time></trkpt><trkpt lat="45.81513125048258" lon="9.058787470337773"><ele>375.0</ele><time>2026-04-24T03:51:16.999Z</time></trkpt><trkpt lat="45.815396233656415" lon="9.058538853887438"><ele>376.0</ele><time>2026-04-24T03:51:17.999Z</time></trkpt><trkpt lat="45.815660916964404" lon="9.058310548143146"><ele>377.0</ele><time>2026-04-24T03:51:18.999Z</time></trkpt><trkpt lat="45.81590504843875" lon="9.058108859063076"><ele>369.5</ele><time>2026-04-24T03:51:20Z</time></trkpt><trkpt lat="45.816135934952676" lon="9.057934176039625"><ele>362.0</ele><time>2026-04-24T03:51:21Z</time></trkpt><trkpt lat="45.81637178841733" lon="9.057800484759245"><ele>362.0</ele><time>2026-04-24T03:51:22Z</time></trkpt><trkpt lat="45.816610033345604" lon="9.05770093053195"><ele>362.0</ele><time>2026-04-24T03:51:23Z</time></trkpt><trkpt lat="45.816865584618746" lon="9.057641195517002"><ele>366.0</ele><time>2026-04-24T03:51:24Z</time></trkpt><trkpt lat="45.81714589167093" lon="9.057605543511983"><ele>370.0</ele><time>2026-04-24T03:51:25Z</time></trkpt><trkpt lat="45.81744735780858" lon="9.057594933726904"><ele>366.0</ele><time>2026-04-24T03:51:26Z</time></trkpt><trkpt lat="45.81774691097369" lon="9.057571079193133"><ele>362.0</ele><time>2026-04-24T03:51:27Z</time></trkpt><trkpt lat="45.818034129594324" lon="9.057576358894073"><ele>362.0</ele><time>2026-04-24T03:51:28Z</time></trkpt><trkpt lat="45.81827060133414" lon="9.05746662614015"><ele>362.0</ele><time>2026-04-24T03:51:29Z</time></trkpt><trkpt lat="45.81850074639738" lon="9.057355033786736"><ele>360.0</ele><time>2026-04-24T03:51:30Z</time></trkpt><trkpt lat="45.81871356135173" lon="9.05722707805821"><ele>358.0</ele><time>2026-04-24T03:51:31Z</time></trkpt><trkpt lat="45.81890984695789" lon="9.057074211817225"><ele>358.0</ele><time>2026-04-24T03:51:32Z</time></trkpt><trkpt lat="45.81910938058715" lon="9.056880610829793"><ele>358.0</ele><time>2026-04-24T03:51:33Z</time></trkpt><trkpt lat="45.819292573113614" lon="9.056650123859802"><ele>344.0</ele><time>2026-04-24T03:51:34Z</time></trkpt><trkpt lat="45.819481698871954" lon="9.056374994409262"><ele>330.0</ele><time>2026-04-24T03:51:35Z</time></trkpt><trkpt lat="45.81966568840836" lon="9.056084869368945"><ele>341.0</ele><time>2026-04-24T03:51:36Z</time></trkpt><trkpt lat="45.819841686550625" lon="9.05577131031694"><ele>352.0</ele><time>2026-04-24T03:51:37Z</time></trkpt><trkpt lat="45.82000662394866" lon="9.055440483807217"><ele>344.0</ele><time>2026-04-24T03:51:38Z</time></trkpt><trkpt lat="45.82018758721815" lon="9.055090208489899"><ele>336.0</ele><time>2026-04-24T03:51:39Z</time></trkpt><trkpt lat="45.82038617165169" lon="9.054724484362827"><ele>336.0</ele><time>2026-04-24T03:51:40Z</time></trkpt><trkpt lat="45.82059260869635" lon="9.054364449730294"><ele>336.0</ele><time>2026-04-24T03:51:41Z</time></trkpt><trkpt lat="45.82080535831942" lon="9.054004865660252"><ele>337.0</ele><time>2026-04-24T03:51:42Z</time></trkpt><trkpt lat="45.82101874375008" lon="9.053639405271547"><ele>338.0</ele><time>2026-04-24T03:51:43Z</time></trkpt><trkpt lat="45.82123092960671" lon="9.053283961828912"><ele>338.0</ele><time>2026-04-24T03:51:44Z</time></trkpt><trkpt lat="45.821428129304174" lon="9.052944501911645"><ele>338.0</ele><time>2026-04-24T03:51:45Z</time></trkpt><trkpt lat="45.82162428792066" lon="9.052596047163616"><ele>331.5</ele><time>2026-04-24T03:51:46Z</time></trkpt><trkpt lat="45.82180814685881" lon="9.052249947660462"><ele>325.0</ele><time>2026-04-24T03:51:47Z</time></trkpt><trkpt lat="45.821976340962884" lon="9.051895756643574"><ele>331.0</ele><time>2026-04-24T03:51:48Z</time></trkpt><trkpt lat="45.82213393160723" lon="9.051534023512836"><ele>337.0</ele><time>2026-04-24T03:51:49Z</time></trkpt><trkpt lat="45.822261390369825" lon="9.051189868463329"><ele>337.0</ele><time>2026-04-24T03:51:50Z</time></trkpt><trkpt lat="45.82238658350339" lon="9.050855278722864"><ele>337.0</ele><time>2026-04-24T03:51:51Z</time></trkpt><trkpt lat="45.82249687929191" lon="9.050507493007986"><ele>338.5</ele><time>2026-04-24T03:51:52Z</time></trkpt><trkpt lat="45.822619587875884" lon="9.05015095044197"><ele>340.0</ele><time>2026-04-24T03:51:53Z</time></trkpt><trkpt lat="45.82273139712116" lon="9.049788938142417"><ele>340.0</ele><time>2026-04-24T03:51:54Z</time></trkpt><trkpt lat="45.82284357359001" lon="9.049430013349927"><ele>340.0</ele><time>2026-04-24T03:51:55Z</time></trkpt><trkpt lat="45.822923548465184" lon="9.049096873981565"><ele>345.0</ele><time>2026-04-24T03:51:56Z</time></trkpt><trkpt lat="45.82301628218948" lon="9.048754863993679"><ele>350.0</ele><time>2026-04-24T03:51:57Z</time></trkpt><trkpt lat="45.82310923837774" lon="9.048412492173544"><ele>360.5</ele><time>2026-04-24T03:51:58Z</time></trkpt><trkpt lat="45.823173683497615" lon="9.048095771564032"><ele>371.0</ele><time>2026-04-24T03:51:59Z</time></trkpt><trkpt lat="45.82325805432358" lon="9.047761562448414"><ele>312.0</ele><time>2026-04-24T03:52:00Z</time></trkpt><trkpt lat="45.8259727339452" lon="9.045236303567513"><ele>309.0</ele><time>2026-04-24T03:52:15Z</time></trkpt><trkpt lat="45.826119188899746" lon="9.045134105307453"><ele>306.0</ele><time>2026-04-24T03:52:16Z</time></trkpt><trkpt lat="45.82627551971865" lon="9.045025569115207"><ele>303.0</ele><time>2026-04-24T03:52:17Z</time></trkpt><trkpt lat="45.826413014798845" lon="9.044927459959844"><ele>303.0</ele><time>2026-04-24T03:52:18Z</time></trkpt><trkpt lat="45.82654300283598" lon="9.044904849939543"><ele>303.0</ele><time>2026-04-24T03:52:19Z</time></trkpt><trkpt lat="45.82666778565506" lon="9.044918489526085"><ele>303.0</ele><time>2026-04-24T03:52:20Z</time></trkpt><trkpt lat="45.82678395146096" lon="9.044989489140526"><ele>303.0</ele><time>2026-04-24T03:52:21Z</time></trkpt><trkpt lat="45.82688665788397" lon="9.045103265302108"><ele>301.75</ele><time>2026-04-24T03:52:22Z</time></trkpt><trkpt lat="45.826964290472084" lon="9.045246977425867"><ele>300.5</ele><time>2026-04-24T03:52:23Z</time></trkpt><trkpt lat="45.82702409636056" lon="9.045414546012594"><ele>299.25</ele><time>2026-04-24T03:52:24Z</time></trkpt><trkpt lat="45.827055912565804" lon="9.04560972203102"><ele>298.0</ele><time>2026-04-24T03:52:25Z</time></trkpt><trkpt lat="45.82704756377522" lon="9.045878482217653"><ele>298.0</ele><time>2026-04-24T03:52:26Z</time></trkpt><trkpt lat="45.82704582514056" lon="9.046159262800131"><ele>298.0</ele><time>2026-04-24T03:52:27Z</time></trkpt><trkpt lat="45.82705608088269" lon="9.046421532677153"><ele>298.0</ele><time>2026-04-24T03:52:28Z</time></trkpt><trkpt lat="45.82705813171786" lon="9.046674074821736"><ele>298.0</ele><time>2026-04-24T03:52:29Z</time></trkpt><trkpt lat="45.82706717449174" lon="9.04690220053359"><ele>298.0</ele><time>2026-04-24T03:52:30Z</time></trkpt><trkpt lat="45.82707764370397" lon="9.047066682080999"><ele>298.0</ele><time>2026-04-24T03:52:31Z</time></trkpt><trkpt lat="45.82708652783219" lon="9.047229354007538"><ele>298.0</ele><time>2026-04-24T03:52:32Z</time></trkpt><trkpt lat="45.827103033782585" lon="9.047405110399195"><ele>298.0</ele><time>2026-04-24T03:52:34Z</time></trkpt><trkpt lat="45.82711126641483" lon="9.0475029063981"><ele>298.0</ele><time>2026-04-24T03:52:35Z</time></trkpt><trkpt lat="45.82716227268791" lon="9.047569393033177"><ele>298.0</ele><time>2026-04-24T03:52:36Z</time></trkpt><trkpt lat="45.82723968000188" lon="9.047588647817188"><ele>298.0</ele><time>2026-04-24T03:52:37Z</time></trkpt><trkpt lat="45.827324182420476" lon="9.047537581132605"><ele>298.0</ele><time>2026-04-24T03:52:38Z</time></trkpt><trkpt lat="45.827410779152906" lon="9.047422404241434"><ele>298.0</ele><time>2026-04-24T03:52:39Z</time></trkpt><trkpt lat="45.82749898853614" lon="9.047296825900327"><ele>298.0</ele><time>2026-04-24T03:52:40Z</time></trkpt><trkpt lat="45.827587647771566" lon="9.047180690544804"><ele>298.0</ele><time>2026-04-24T03:52:41Z</time></trkpt><trkpt lat="45.827656463584844" lon="9.047063699060974"><ele>298.0</ele><time>2026-04-24T03:52:42Z</time></trkpt><trkpt lat="45.82769547021499" lon="9.046932126129716"><ele>298.0</ele><time>2026-04-24T03:52:43Z</time></trkpt><trkpt lat="45.827686811267895" lon="9.04677524474242"><ele>298.0</ele><time>2026-04-24T03:52:44Z</time></trkpt><trkpt lat="45.82764367274672" lon="9.04657460007184"><ele>298.0</ele><time>2026-04-24T03:52:45Z</time></trkpt><trkpt lat="45.82762744562635" lon="9.04630241144811"><ele>298.0</ele><time>2026-04-24T03:52:46Z</time></trkpt><trkpt lat="45.82764165975527" lon="9.045983477160286"><ele>298.0</ele><time>2026-04-24T03:52:47Z</time></trkpt><trkpt lat="45.82766593828761" lon="9.045644605281346"><ele>302.0</ele><time>2026-04-24T03:52:48Z</time></trkpt><trkpt lat="45.82769011061138" lon="9.045284710826735"><ele>306.0</ele><time>2026-04-24T03:52:49Z</time></trkpt><trkpt lat="45.8277099723789" lon="9.044902933917253"><ele>306.0</ele><time>2026-04-24T03:52:50Z</time></trkpt><trkpt lat="45.82773883433896" lon="9.044534843118473"><ele>306.0</ele><time>2026-04-24T03:52:51Z</time></trkpt><trkpt lat="45.827767836551565" lon="9.044170084599527"><ele>302.0</ele><time>2026-04-24T03:52:52Z</time></trkpt><trkpt lat="45.82780014764789" lon="9.043813248037493"><ele>298.0</ele><time>2026-04-24T03:52:53Z</time></trkpt><trkpt lat="45.82782649803968" lon="9.043480675016232"><ele>293.3333333333333</ele><time>2026-04-24T03:52:54Z</time></trkpt><trkpt lat="45.82785935916014" lon="9.043190087440886"><ele>288.6666666666667</ele><time>2026-04-24T03:52:55Z</time></trkpt><trkpt lat="45.827912460887546" lon="9.042924128187936"><ele>284.0</ele><time>2026-04-24T03:52:56Z</time></trkpt><trkpt lat="45.828025161950336" lon="9.042677082078432"><ele>279.6666666666667</ele><time>2026-04-24T03:52:57Z</time></trkpt><trkpt lat="45.82812968542031" lon="9.04241087189266"><ele>275.3333333333333</ele><time>2026-04-24T03:52:58Z</time></trkpt><trkpt lat="45.8282427800643" lon="9.042156350460015"><ele>271.0</ele><time>2026-04-24T03:52:59Z</time></trkpt><trkpt lat="45.82835881215779" lon="9.041930394434335"><ele>269.3333333333333</ele><time>2026-04-24T03:53:00Z</time></trkpt><trkpt lat="45.82848553419366" lon="9.041721835409366"><ele>267.6666666666667</ele><time>2026-04-24T03:53:01Z</time></trkpt><trkpt lat="45.828632106999066" lon="9.041496886156896"><ele>266.0</ele><time>2026-04-24T03:53:02Z</time></trkpt><trkpt lat="45.82879444257722" lon="9.041256635284824"><ele>266.0</ele><time>2026-04-24T03:53:03Z</time></trkpt><trkpt lat="45.82896372012303" lon="9.041011269466077"><ele>266.0</ele><time>2026-04-24T03:53:03.999Z</time></trkpt><trkpt lat="45.829128329372594" lon="9.040778839522345"><ele>264.6666666666667</ele><time>2026-04-24T03:53:04.999Z</time></trkpt><trkpt lat="45.82927074117466" lon="9.040551406709453"><ele>263.3333333333333</ele><time>2026-04-24T03:53:05.999Z</time></trkpt><trkpt lat="45.82939505372297" lon="9.040370682650167"><ele>262.0</ele><time>2026-04-24T03:53:06.999Z</time></trkpt><trkpt lat="45.82950167369963" lon="9.040221629635218"><ele>262.0</ele><time>2026-04-24T03:53:07.999Z</time></trkpt><trkpt lat="45.82961316229102" lon="9.040065413954427"><ele>262.0</ele><time>2026-04-24T03:53:08.999Z</time></trkpt><trkpt lat="45.82972397698831" lon="9.03991031397503"><ele>262.0</ele><time>2026-04-24T03:53:09.999Z</time></trkpt><trkpt lat="45.82983320674552" lon="9.039743249473231"><ele>258.3333333333333</ele><time>2026-04-24T03:53:10.999Z</time></trkpt><trkpt lat="45.829949972519664" lon="9.039564966681676"><ele>254.66666666666669</ele><time>2026-04-24T03:53:11.999Z</time></trkpt><trkpt lat="45.8300372257907" lon="9.039378930457026"><ele>251.0</ele><time>2026-04-24T03:53:12.999Z</time></trkpt><trkpt lat="45.83012757853998" lon="9.039202255707922"><ele>249.5</ele><time>2026-04-24T03:53:13.999Z</time></trkpt><trkpt lat="45.830211330105136" lon="9.039045571050973"><ele>248.0</ele><time>2026-04-24T03:53:14.999Z</time></trkpt><trkpt lat="45.8302753169706" lon="9.038895429222746"><ele>246.5</ele><time>2026-04-24T03:53:15.999Z</time></trkpt><trkpt lat="45.83033368144886" lon="9.038761339744596"><ele>245.0</ele><time>2026-04-24T03:53:16.999Z</time></trkpt><trkpt lat="45.830385142260084" lon="9.038628118226484"><ele>245.00000000000003</ele><time>2026-04-24T03:53:17.999Z</time></trkpt><trkpt lat="45.83043156914849" lon="9.0384963254949"><ele>245.0</ele><time>2026-04-24T03:53:18.999Z</time></trkpt><trkpt lat="45.83047760594791" lon="9.038396754192727"><ele>245.0</ele><time>2026-04-24T03:53:19.999Z</time></trkpt><trkpt lat="45.83051361997048" lon="9.03830043358575"><ele>245.0</ele><time>2026-04-24T03:53:20.999Z</time></trkpt><trkpt lat="45.830556083200065" lon="9.038184955066622"><ele>245.00000000000003</ele><time>2026-04-24T03:54:22Z</time></trkpt><trkpt lat="45.83060661508153" lon="9.038068297948215"><ele>245.0</ele><time>2026-04-24T03:54:23Z</time></trkpt><trkpt lat="45.83067779047052" lon="9.037906225426918"><ele>244.25</ele><time>2026-04-24T03:54:24Z</time></trkpt><trkpt lat="45.83075256025746" lon="9.037763859770585"><ele>243.5</ele><time>2026-04-24T03:54:25Z</time></trkpt><trkpt lat="45.830823627381854" lon="9.037594208772394"><ele>242.75</ele><time>2026-04-24T03:54:26Z</time></trkpt><trkpt lat="45.83089843547555" lon="9.037413612707423"><ele>242.0</ele><time>2026-04-24T03:54:27Z</time></trkpt><trkpt lat="45.83097071378933" lon="9.03724223850717"><ele>241.25</ele><time>2026-04-24T03:54:28Z</time></trkpt><trkpt lat="45.831042080414726" lon="9.037070600581359"><ele>240.5</ele><time>2026-04-24T03:54:29Z</time></trkpt><trkpt lat="45.83109397411015" lon="9.036909898836663"><ele>239.75</ele><time>2026-04-24T03:54:30Z</time></trkpt><trkpt lat="45.831165701813646" lon="9.036778426792097"><ele>239.0</ele><time>2026-04-24T03:54:31Z</time></trkpt><trkpt lat="45.831222400138046" lon="9.036642754642125"><ele>239.2</ele><time>2026-04-24T03:54:32Z</time></trkpt><trkpt lat="45.831260595359815" lon="9.036505546553913"><ele>239.39999999999998</ele><time>2026-04-24T03:54:33Z</time></trkpt><trkpt lat="45.8313256698676" lon="9.036397914707983"><ele>239.6</ele><time>2026-04-24T03:54:34Z</time></trkpt><trkpt lat="45.83135795987448" lon="9.036276701953161"><ele>239.8</ele><time>2026-04-24T03:54:35Z</time></trkpt><trkpt lat="45.83141470195901" lon="9.036189070493004"><ele>240.0</ele><time>2026-04-24T03:54:36Z</time></trkpt><trkpt lat="45.83145416242069" lon="9.036095902712779"><ele>240.0</ele><time>2026-04-24T03:54:37Z</time></trkpt><trkpt lat="45.831478066935844" lon="9.036003785920023"><ele>240.0</ele><time>2026-04-24T03:54:38Z</time></trkpt><trkpt lat="45.831532239105776" lon="9.035911218859265"><ele>240.0</ele><time>2026-04-24T03:54:40Z</time></trkpt><trkpt lat="45.83156188855296" lon="9.035810820149587"><ele>240.0</ele><time>2026-04-24T03:54:42Z</time></trkpt><trkpt lat="45.831596132699275" lon="9.035731997066176"><ele>240.0</ele><time>2026-04-24T03:54:44Z</time></trkpt><trkpt lat="45.831645312052444" lon="9.035654780957717"><ele>240.0</ele><time>2026-04-24T03:54:47Z</time></trkpt><trkpt lat="45.831703817573704" lon="9.03559721816732"><ele>240.0</ele><time>2026-04-24T03:54:50Z</time></trkpt><trkpt lat="45.831763631791645" lon="9.03555084661655"><ele>239.0</ele><time>2026-04-24T03:54:53Z</time></trkpt><trkpt lat="45.83181317276102" lon="9.035474295871005"><ele>238.0</ele><time>2026-04-24T03:54:56.999Z</time></trkpt><trkpt lat="45.83185453553878" lon="9.035317706791371"><ele>237.0</ele><time>2026-04-24T03:54:59.999Z</time></trkpt><trkpt lat="45.83189282494059" lon="9.035189404668442"><ele>236.0</ele><time>2026-04-24T03:55:01.999Z</time></trkpt><trkpt lat="45.83193508620483" lon="9.035086100529247"><ele>235.0</ele><time>2026-04-24T03:55:02.999Z</time></trkpt><trkpt lat="45.831975123209205" lon="9.035012177143617"><ele>234.0</ele><time>2026-04-24T03:55:03.999Z</time></trkpt><trkpt lat="45.83200723556287" lon="9.034928856561969"><ele>234.0</ele><time>2026-04-24T03:55:04.999Z</time></trkpt><trkpt lat="45.83203093305506" lon="9.034842577170316"><ele>233.99999999999997</ele><time>2026-04-24T03:55:05.999Z</time></trkpt><trkpt lat="45.832060995972235" lon="9.034752304878905"><ele>233.99999999999997</ele><time>2026-04-24T03:55:06.999Z</time></trkpt><trkpt lat="45.83211680286905" lon="9.034588962260207"><ele>234.0</ele><time>2026-04-24T03:55:08.999Z</time></trkpt><trkpt lat="45.83214238003346" lon="9.034505382862214"><ele>234.0</ele><time>2026-04-24T03:55:09.999Z</time></trkpt><trkpt lat="45.83221083476037" lon="9.03434299185661"><ele>234.0</ele><time>2026-04-24T03:55:11.999Z</time></trkpt><trkpt lat="45.83224898683468" lon="9.034243857493749"><ele>233.99999999999997</ele><time>2026-04-24T03:55:12.999Z</time></trkpt><trkpt lat="45.832296012742106" lon="9.034011185972451"><ele>233.99999999999997</ele><time>2026-04-24T03:55:14.999Z</time></trkpt><trkpt lat="45.832407762959924" lon="9.033962356083311"><ele>234.0</ele><time>2026-04-24T03:55:15.999Z</time></trkpt><trkpt lat="45.83248857917223" lon="9.03392992244626"><ele>234.0</ele><time>2026-04-24T03:55:16.999Z</time></trkpt><trkpt lat="45.83255507713544" lon="9.033846848160719"><ele>234.2</ele><time>2026-04-24T03:55:17.999Z</time></trkpt><trkpt lat="45.83260855733133" lon="9.033762866661435"><ele>234.39999999999998</ele><time>2026-04-24T03:55:18.999Z</time></trkpt><trkpt lat="45.83265422815448" lon="9.03368195018331"><ele>234.6</ele><time>2026-04-24T03:55:19.999Z</time></trkpt><trkpt lat="45.83270596937035" lon="9.033611914045602"><ele>234.8</ele><time>2026-04-24T03:55:20.999Z</time></trkpt><trkpt lat="45.83284496116049" lon="9.033645240484663"><ele>235.0</ele><time>2026-04-24T03:55:22.999Z</time></trkpt><trkpt lat="45.832923526015534" lon="9.033698594657636"><ele>235.0</ele><time>2026-04-24T03:55:23.999Z</time></trkpt><trkpt lat="45.83301817992604" lon="9.033772542150048"><ele>235.0</ele><time>2026-04-24T03:55:24.999Z</time></trkpt><trkpt lat="45.83310178618862" lon="9.033840824632689"><ele>235.0</ele><time>2026-04-24T03:55:25.999Z</time></trkpt><trkpt lat="45.8331749552622" lon="9.033904701861367"><ele>235.0</ele><time>2026-04-24T03:55:26.999Z</time></trkpt><trkpt lat="45.8332230178375" lon="9.033984350172286"><ele>235.0</ele><time>2026-04-24T03:55:27.999Z</time></trkpt><trkpt lat="45.83332811933648" lon="9.034038525771816"><ele>234.99999999999997</ele><time>2026-04-24T03:55:29.999Z</time></trkpt><trkpt lat="45.833386618716006" lon="9.034092830554448"><ele>235.0</ele><time>2026-04-24T03:55:30.999Z</time></trkpt><trkpt lat="45.83343995632405" lon="9.034145454890817"><ele>235.0</ele><time>2026-04-24T03:55:32Z</time></trkpt><trkpt lat="45.83350966146665" lon="9.034221554663173"><ele>235.0</ele><time>2026-04-24T03:55:33Z</time></trkpt><trkpt lat="45.833588011230425" lon="9.034311082771975"><ele>234.99999999999997</ele><time>2026-04-24T03:55:34Z</time></trkpt><trkpt lat="45.83365129957229" lon="9.034389301794226"><ele>235.0</ele><time>2026-04-24T03:55:35Z</time></trkpt><trkpt lat="45.83370696778088" lon="9.034434708863714"><ele>235.33333333333331</ele><time>2026-04-24T03:55:36Z</time></trkpt><trkpt lat="45.83376455849505" lon="9.034485635946"><ele>235.66666666666666</ele><time>2026-04-24T03:55:37Z</time></trkpt><trkpt lat="45.83383477964241" lon="9.034552272505668"><ele>236.0</ele><time>2026-04-24T03:55:38Z</time></trkpt><trkpt lat="45.83390906378216" lon="9.034611684311624"><ele>236.33333333333331</ele><time>2026-04-24T03:55:39Z</time></trkpt><trkpt lat="45.83396257604585" lon="9.03466720354647"><ele>236.66666666666666</ele><time>2026-04-24T03:55:40Z</time></trkpt><trkpt lat="45.83402365163713" lon="9.034723498226992"><ele>237.0</ele><time>2026-04-24T03:55:41Z</time></trkpt><trkpt lat="45.83409071343927" lon="9.034784225043405"><ele>237.0</ele><time>2026-04-24T03:55:42Z</time></trkpt><trkpt lat="45.834149176664624" lon="9.034867986687928"><ele>237.0</ele><time>2026-04-24T03:55:43Z</time></trkpt><trkpt lat="45.83425962652678" lon="9.034932149022588"><ele>237.0</ele><time>2026-04-24T03:55:45Z</time></trkpt><trkpt lat="45.83431997633194" lon="9.034985519389634"><ele>237.0</ele><time>2026-04-24T03:55:46Z</time></trkpt><trkpt lat="45.83438140264711" lon="9.035037415705224"><ele>237.0</ele><time>2026-04-24T03:55:47Z</time></trkpt><trkpt lat="45.834439640138406" lon="9.0350844042003"><ele>237.0</ele><time>2026-04-24T03:55:48Z</time></trkpt><trkpt lat="45.83449952302515" lon="9.03513316259345"><ele>236.2</ele><time>2026-04-24T03:55:49Z</time></trkpt><trkpt lat="45.834605628004525" lon="9.035227952982071"><ele>235.39999999999998</ele><time>2026-04-24T03:55:51Z</time></trkpt><trkpt lat="45.83470840676984" lon="9.035316854133772"><ele>234.60000000000002</ele><time>2026-04-24T03:55:53Z</time></trkpt><trkpt lat="45.83477080217263" lon="9.035379264329894"><ele>233.8</ele><time>2026-04-24T03:55:55Z</time></trkpt><trkpt lat="45.83487020730087" lon="9.035480993162814"><ele>233.0</ele><time>2026-04-24T03:56:01Z</time></trkpt><trkpt lat="45.834945764947" lon="9.035546300590692"><ele>233.0</ele><time>2026-04-24T03:56:02Z</time></trkpt><trkpt lat="45.835027852691105" lon="9.035621297502363"><ele>233.0</ele><time>2026-04-24T03:56:03Z</time></trkpt><trkpt lat="45.83511890770668" lon="9.035702075198655"><ele>233.0</ele><time>2026-04-24T03:56:04Z</time></trkpt><trkpt lat="45.83522442824579" lon="9.03579548105825"><ele>233.0</ele><time>2026-04-24T03:56:05Z</time></trkpt><trkpt lat="45.835343040500035" lon="9.035894794467277"><ele>232.5</ele><time>2026-04-24T03:56:06Z</time></trkpt><trkpt lat="45.83546456211896" lon="9.036000832143824"><ele>232.0</ele><time>2026-04-24T03:56:07Z</time></trkpt><trkpt lat="45.835579589908875" lon="9.036096883753984"><ele>231.5</ele><time>2026-04-24T03:56:08Z</time></trkpt><trkpt lat="45.83567502158828" lon="9.036190387893221"><ele>231.0</ele><time>2026-04-24T03:56:09Z</time></trkpt><trkpt lat="45.83576603069568" lon="9.03625642256606"><ele>231.0</ele><time>2026-04-24T03:56:10Z</time></trkpt><trkpt lat="45.835855352137365" lon="9.036299275097717"><ele>231.00000000000003</ele><time>2026-04-24T03:56:11Z</time></trkpt><trkpt lat="45.835948117912864" lon="9.036299536935454"><ele>231.00000000000003</ele><time>2026-04-24T03:56:12Z</time></trkpt><trkpt lat="45.83604850667293" lon="9.036254378720576"><ele>231.0</ele><time>2026-04-24T03:56:13Z</time></trkpt><trkpt lat="45.83615111069033" lon="9.036214431754543"><ele>231.0</ele><time>2026-04-24T03:56:14Z</time></trkpt><trkpt lat="45.83619968542118" lon="9.035974491941303"><ele>232.0</ele><time>2026-04-24T03:56:15Z</time></trkpt><trkpt lat="45.83627488535449" lon="9.035779502690888"><ele>233.0</ele><time>2026-04-24T03:56:16Z</time></trkpt><trkpt lat="45.836357366461975" lon="9.035600614617914"><ele>234.0</ele><time>2026-04-24T03:56:17Z</time></trkpt><trkpt lat="45.836437897865885" lon="9.03543418814645"><ele>235.0</ele><time>2026-04-24T03:56:18Z</time></trkpt><trkpt lat="45.836508593676314" lon="9.035293914803194"><ele>235.0</ele><time>2026-04-24T03:56:19Z</time></trkpt><trkpt lat="45.83656909679076" lon="9.035171037568745"><ele>235.0</ele><time>2026-04-24T03:56:20Z</time></trkpt><trkpt lat="45.83662636213897" lon="9.035071875352203"><ele>235.0</ele><time>2026-04-24T03:56:21Z</time></trkpt><trkpt lat="45.83669446564811" lon="9.035001110695012"><ele>235.0</ele><time>2026-04-24T03:56:22Z</time></trkpt><trkpt lat="45.83676998150309" lon="9.034955733636867"><ele>235.0</ele><time>2026-04-24T03:56:23Z</time></trkpt><trkpt lat="45.83686273316751" lon="9.034921291374463"><ele>234.75</ele><time>2026-04-24T03:56:24Z</time></trkpt><trkpt lat="45.83696829465256" lon="9.034904662490208"><ele>234.5</ele><time>2026-04-24T03:56:25Z</time></trkpt><trkpt lat="45.83708675162577" lon="9.034914192267316"><ele>234.25</ele><time>2026-04-24T03:56:26Z</time></trkpt><trkpt lat="45.837216625270614" lon="9.034942112739794"><ele>234.0</ele><time>2026-04-24T03:56:27Z</time></trkpt><trkpt lat="45.83734934579886" lon="9.034971784968088"><ele>234.0</ele><time>2026-04-24T03:56:28Z</time></trkpt><trkpt lat="45.837472132788726" lon="9.034977263967406"><ele>234.0</ele><time>2026-04-24T03:56:29Z</time></trkpt><trkpt lat="45.83758112073399" lon="9.03495016446517"><ele>234.0</ele><time>2026-04-24T03:56:30Z</time></trkpt><trkpt lat="45.83767988210558" lon="9.034885739266777"><ele>234.0</ele><time>2026-04-24T03:56:31Z</time></trkpt><trkpt lat="45.83776838691499" lon="9.03476484473364"><ele>234.33333333333331</ele><time>2026-04-24T03:56:32Z</time></trkpt><trkpt lat="45.83784735750642" lon="9.03460125417633"><ele>234.66666666666666</ele><time>2026-04-24T03:56:33Z</time></trkpt><trkpt lat="45.837928189669555" lon="9.03439193128018"><ele>235.0</ele><time>2026-04-24T03:56:34Z</time></trkpt><trkpt lat="45.838017410257194" lon="9.034182332201807"><ele>234.6</ele><time>2026-04-24T03:56:35Z</time></trkpt><trkpt lat="45.838094917374626" lon="9.034022804117853"><ele>234.2</ele><time>2026-04-24T03:56:36Z</time></trkpt><trkpt lat="45.83815637932613" lon="9.033906020606961"><ele>233.8</ele><time>2026-04-24T03:56:37Z</time></trkpt><trkpt lat="45.83822035101462" lon="9.033811095814844"><ele>233.4</ele><time>2026-04-24T03:56:38Z</time></trkpt><trkpt lat="45.83829375495351" lon="9.033750156296808"><ele>233.0</ele><time>2026-04-24T03:56:39Z</time></trkpt><trkpt lat="45.83835432813118" lon="9.03366835140532"><ele>233.0</ele><time>2026-04-24T03:56:40Z</time></trkpt><trkpt lat="45.838380725376425" lon="9.033512634685643"><ele>233.0</ele><time>2026-04-24T03:56:41Z</time></trkpt><trkpt lat="45.83840294290739" lon="9.033297711203742"><ele>233.0</ele><time>2026-04-24T03:56:42Z</time></trkpt><trkpt lat="45.83842719049806" lon="9.033120404131932"><ele>233.0</ele><time>2026-04-24T03:56:43Z</time></trkpt><trkpt lat="45.83845826259365" lon="9.032980219042626"><ele>234.0</ele><time>2026-04-24T03:56:44Z</time></trkpt><trkpt lat="45.838492466075216" lon="9.032853974494236"><ele>235.0</ele><time>2026-04-24T03:56:45Z</time></trkpt><trkpt lat="45.83853101156345" lon="9.032734221771355"><ele>236.0</ele><time>2026-04-24T03:56:46Z</time></trkpt><trkpt lat="45.83857628879116" lon="9.0325642214129"><ele>237.0</ele><time>2026-04-24T03:56:47Z</time></trkpt><trkpt lat="45.838610454026686" lon="9.032339559277904"><ele>237.0</ele><time>2026-04-24T03:56:48Z</time></trkpt><trkpt lat="45.838628826531874" lon="9.032060903158504"><ele>237.0</ele><time>2026-04-24T03:56:49Z</time></trkpt><trkpt lat="45.838643150552386" lon="9.031787087458016"><ele>237.0</ele><time>2026-04-24T03:56:50Z</time></trkpt><trkpt lat="45.838659425510905" lon="9.03149222590676"><ele>237.0</ele><time>2026-04-24T03:56:51Z</time></trkpt><trkpt lat="45.83867314500841" lon="9.031189392799128"><ele>237.0</ele><time>2026-04-24T03:56:52Z</time></trkpt><trkpt lat="45.83868857065973" lon="9.030882163948506"><ele>237.0</ele><time>2026-04-24T03:56:53Z</time></trkpt><trkpt lat="45.83870358808977" lon="9.03058717072807"><ele>237.0</ele><time>2026-04-24T03:56:54Z</time></trkpt><trkpt lat="45.83871731059855" lon="9.030282890134693"><ele>237.0</ele><time>2026-04-24T03:56:55Z</time></trkpt><trkpt lat="45.83873713050864" lon="9.02996775298106"><ele>237.0</ele><time>2026-04-24T03:56:56Z</time></trkpt><trkpt lat="45.83874884392181" lon="9.029656545585544"><ele>236.66666666666669</ele><time>2026-04-24T03:56:57Z</time></trkpt><trkpt lat="45.838764832991785" lon="9.029343052443942"><ele>236.33333333333334</ele><time>2026-04-24T03:56:57.999Z</time></trkpt><trkpt lat="45.83878063204161" lon="9.029028786191954"><ele>236.0</ele><time>2026-04-24T03:56:58.999Z</time></trkpt><trkpt lat="45.83879730668523" lon="9.028717963332005"><ele>235.33333333333334</ele><time>2026-04-24T03:56:59.999Z</time></trkpt><trkpt lat="45.83881058295173" lon="9.028408501140614"><ele>234.66666666666669</ele><time>2026-04-24T03:57:00.999Z</time></trkpt><trkpt lat="45.83882622604925" lon="9.028101253016994"><ele>234.0</ele><time>2026-04-24T03:57:01.999Z</time></trkpt><trkpt lat="45.838841067442" lon="9.027798719883243"><ele>233.66666666666669</ele><time>2026-04-24T03:57:02.999Z</time></trkpt><trkpt lat="45.83885564438027" lon="9.027499442565965"><ele>233.33333333333334</ele><time>2026-04-24T03:57:03.999Z</time></trkpt><trkpt lat="45.83886698991045" lon="9.027200817094421"><ele>233.0</ele><time>2026-04-24T03:57:04.999Z</time></trkpt><trkpt lat="45.838881916532394" lon="9.026900394015085"><ele>235.0</ele><time>2026-04-24T03:57:05.999Z</time></trkpt><trkpt lat="45.8388951775671" lon="9.026601865896527"><ele>237.0</ele><time>2026-04-24T03:57:06.999Z</time></trkpt><trkpt lat="45.83890782992034" lon="9.026306113116052"><ele>239.0</ele><time>2026-04-24T03:57:07.999Z</time></trkpt><trkpt lat="45.838923450604135" lon="9.026016202723243"><ele>239.0</ele><time>2026-04-24T03:57:08.999Z</time></trkpt><trkpt lat="45.83893721254214" lon="9.025735705963356"><ele>239.0</ele><time>2026-04-24T03:57:09.999Z</time></trkpt><trkpt lat="45.838948208224195" lon="9.025454285526322"><ele>239.0</ele><time>2026-04-24T03:57:10.999Z</time></trkpt><trkpt lat="45.83896376426094" lon="9.025174429445244"><ele>239.0</ele><time>2026-04-24T03:57:11.999Z</time></trkpt><trkpt lat="45.83898254622714" lon="9.024895462788992"><ele>239.0</ele><time>2026-04-24T03:57:12.999Z</time></trkpt><trkpt lat="45.839002873196044" lon="9.024615378562704"><ele>239.0</ele><time>2026-04-24T03:57:13.999Z</time></trkpt><trkpt lat="45.83903092692161" lon="9.024346379583546"><ele>240.0</ele><time>2026-04-24T03:57:14.999Z</time></trkpt><trkpt lat="45.83906192100614" lon="9.024074460273178"><ele>241.0</ele><time>2026-04-24T03:57:15.999Z</time></trkpt><trkpt lat="45.839098153411385" lon="9.023804512641147"><ele>242.0</ele><time>2026-04-24T03:57:16.999Z</time></trkpt><trkpt lat="45.83914202768779" lon="9.023531057119092"><ele>242.66666666666669</ele><time>2026-04-24T03:57:17.999Z</time></trkpt><trkpt lat="45.83919125370261" lon="9.023259885691669"><ele>243.33333333333331</ele><time>2026-04-24T03:57:18.999Z</time></trkpt><trkpt lat="45.83924705478822" lon="9.022993714163924"><ele>244.0</ele><time>2026-04-24T03:57:19.999Z</time></trkpt><trkpt lat="45.83930610889683" lon="9.022752200479825"><ele>244.25</ele><time>2026-04-24T03:57:20.999Z</time></trkpt><trkpt lat="45.83936374962413" lon="9.02253601132201"><ele>244.5</ele><time>2026-04-24T03:57:21.999Z</time></trkpt><trkpt lat="45.83941884036963" lon="9.022342093679129"><ele>244.75</ele><time>2026-04-24T03:57:22.999Z</time></trkpt><trkpt lat="45.839468521020734" lon="9.022172912346102"><ele>245.0</ele><time>2026-04-24T03:57:23.999Z</time></trkpt><trkpt lat="45.839501535351395" lon="9.022051891607365"><ele>244.8</ele><time>2026-04-24T03:57:24.999Z</time></trkpt><trkpt lat="45.839519418186285" lon="9.02192827218782"><ele>244.6</ele><time>2026-04-24T03:57:25.999Z</time></trkpt><trkpt lat="45.83950898874784" lon="9.021790502913722"><ele>244.39999999999998</ele><time>2026-04-24T03:57:26.999Z</time></trkpt><trkpt lat="45.83946794568453" lon="9.021654248958884"><ele>244.2</ele><time>2026-04-24T03:57:27.999Z</time></trkpt><trkpt lat="45.83938283436436" lon="9.021514589126806"><ele>244.0</ele><time>2026-04-24T03:57:28.999Z</time></trkpt><trkpt lat="45.839269084004" lon="9.021390683003604"><ele>244.6</ele><time>2026-04-24T03:57:29.999Z</time></trkpt><trkpt lat="45.83914497245715" lon="9.021282587510104"><ele>245.2</ele><time>2026-04-24T03:57:30.999Z</time></trkpt><trkpt lat="45.83904312768543" lon="9.021191629010927"><ele>245.79999999999998</ele><time>2026-04-24T03:57:31.999Z</time></trkpt><trkpt lat="45.838960090666994" lon="9.02111003259189"><ele>246.39999999999998</ele><time>2026-04-24T03:57:32.999Z</time></trkpt><trkpt lat="45.83890149380927" lon="9.021042053238055"><ele>247.0</ele><time>2026-04-24T03:57:33.999Z</time></trkpt><trkpt lat="45.83885371899686" lon="9.020887760897294"><ele>247.39999999999998</ele><time>2026-04-24T03:57:35.999Z</time></trkpt><trkpt lat="45.8388649775361" lon="9.020761081746013"><ele>247.79999999999998</ele><time>2026-04-24T03:57:36.999Z</time></trkpt><trkpt lat="45.83890570265992" lon="9.020622016175937"><ele>248.2</ele><time>2026-04-24T03:57:38Z</time></trkpt><trkpt lat="45.83898467037515" lon="9.02050222861947"><ele>248.6</ele><time>2026-04-24T03:57:39Z</time></trkpt><trkpt lat="45.83908531239119" lon="9.020419144449434"><ele>249.0</ele><time>2026-04-24T03:57:40Z</time></trkpt><trkpt lat="45.839175907138696" lon="9.02035684483035"><ele>249.0</ele><time>2026-04-24T03:57:41Z</time></trkpt><trkpt lat="45.83923406615873" lon="9.02023707260746"><ele>249.0</ele><time>2026-04-24T03:57:42Z</time></trkpt><trkpt lat="45.83926073311864" lon="9.020075392656656"><ele>249.0</ele><time>2026-04-24T03:57:43Z</time></trkpt><trkpt lat="45.839291072423244" lon="9.019908156436285"><ele>249.0</ele><time>2026-04-24T03:57:44Z</time></trkpt><trkpt lat="45.839374340954286" lon="9.0197426774181"><ele>248.66666666666669</ele><time>2026-04-24T03:57:45Z</time></trkpt><trkpt lat="45.83949497529142" lon="9.019569983539794"><ele>248.33333333333334</ele><time>2026-04-24T03:57:46Z</time></trkpt><trkpt lat="45.83962868250554" lon="9.019396636088983"><ele>248.0</ele><time>2026-04-24T03:57:47Z</time></trkpt><trkpt lat="45.839760271388954" lon="9.019241009000327"><ele>248.16666666666669</ele><time>2026-04-24T03:57:48Z</time></trkpt><trkpt lat="45.839864109106394" lon="9.019128940557232"><ele>248.33333333333334</ele><time>2026-04-24T03:57:49Z</time></trkpt><trkpt lat="45.83994158050456" lon="9.019056684319352"><ele>248.5</ele><time>2026-04-24T03:57:50Z</time></trkpt><trkpt lat="45.840003061432796" lon="9.018999894799684"><ele>248.66666666666669</ele><time>2026-04-24T03:57:51Z</time></trkpt><trkpt lat="45.840056085412996" lon="9.018940221474208"><ele>248.83333333333334</ele><time>2026-04-24T03:57:52Z</time></trkpt><trkpt lat="45.840116314634024" lon="9.018883098572648"><ele>249.0</ele><time>2026-04-24T03:57:54Z</time></trkpt><trkpt lat="45.84020088742953" lon="9.018797767496382"><ele>249.0</ele><time>2026-04-24T03:58:02Z</time></trkpt><trkpt lat="45.84025769232045" lon="9.018739032290425"><ele>249.0</ele><time>2026-04-24T03:58:03Z</time></trkpt><trkpt lat="45.84035440968238" lon="9.018637025644354"><ele>249.0</ele><time>2026-04-24T03:58:05Z</time></trkpt><trkpt lat="45.84040996706649" lon="9.018577938730921"><ele>249.0</ele><time>2026-04-24T03:58:06Z</time></trkpt><trkpt lat="45.84047222000545" lon="9.018514341628364"><ele>249.0</ele><time>2026-04-24T03:58:07Z</time></trkpt><trkpt lat="45.840540065918304" lon="9.01844508454527"><ele>249.0</ele><time>2026-04-24T03:58:08Z</time></trkpt><trkpt lat="45.840613263224654" lon="9.018366808048608"><ele>249.79999999999998</ele><time>2026-04-24T03:58:09Z</time></trkpt><trkpt lat="45.84068852315343" lon="9.018276215045306"><ele>250.59999999999997</ele><time>2026-04-24T03:58:10Z</time></trkpt><trkpt lat="45.840765118322466" lon="9.018178981419377"><ele>251.4</ele><time>2026-04-24T03:58:11Z</time></trkpt><trkpt lat="45.84083648000193" lon="9.018078663336441"><ele>252.2</ele><time>2026-04-24T03:58:12Z</time></trkpt><trkpt lat="45.84090672734303" lon="9.017975605202853"><ele>253.0</ele><time>2026-04-24T03:58:13Z</time></trkpt><trkpt lat="45.840970324495366" lon="9.017859572950007"><ele>254.5</ele><time>2026-04-24T03:58:14Z</time></trkpt><trkpt lat="45.84102508951541" lon="9.017733643084574"><ele>256.0</ele><time>2026-04-24T03:58:15Z</time></trkpt><trkpt lat="45.8410748404857" lon="9.017593163053455"><ele>257.5</ele><time>2026-04-24T03:58:16Z</time></trkpt><trkpt lat="45.84111653862809" lon="9.017430544481108"><ele>259.0</ele><time>2026-04-24T03:58:17Z</time></trkpt><trkpt lat="45.841151952741996" lon="9.017259956163453"><ele>259.0</ele><time>2026-04-24T03:58:18Z</time></trkpt><trkpt lat="45.84118006819349" lon="9.017094493708427"><ele>259.0</ele><time>2026-04-24T03:58:19Z</time></trkpt><trkpt lat="45.841200129501836" lon="9.016914974412412"><ele>259.0</ele><time>2026-04-24T03:58:20Z</time></trkpt><trkpt lat="45.84121834830088" lon="9.01672884419246"><ele>259.0</ele><time>2026-04-24T03:58:21Z</time></trkpt><trkpt lat="45.84123569600281" lon="9.016537959863141"><ele>259.5</ele><time>2026-04-24T03:58:22Z</time></trkpt><trkpt lat="45.84124747901572" lon="9.016343212349136"><ele>260.0</ele><time>2026-04-24T03:58:23Z</time></trkpt><trkpt lat="45.841276014078595" lon="9.01615880158997"><ele>260.5</ele><time>2026-04-24T03:58:24Z</time></trkpt><trkpt lat="45.84129446780379" lon="9.015991694897181"><ele>261.0</ele><time>2026-04-24T03:58:25Z</time></trkpt><trkpt lat="45.84130184487053" lon="9.015842884131779"><ele>261.0</ele><time>2026-04-24T03:58:26Z</time></trkpt><trkpt lat="45.841316129915796" lon="9.015706827114027"><ele>261.0</ele><time>2026-04-24T03:58:27Z</time></trkpt><trkpt lat="45.841330543532116" lon="9.015581430771093"><ele>261.0</ele><time>2026-04-24T03:58:28Z</time></trkpt><trkpt lat="45.841347265759666" lon="9.015424539141831"><ele>261.0</ele><time>2026-04-24T03:58:29Z</time></trkpt><trkpt lat="45.841372415818775" lon="9.015232772050576"><ele>261.0</ele><time>2026-04-24T03:58:30Z</time></trkpt><trkpt lat="45.84140896517398" lon="9.0150066827968"><ele>260.5</ele><time>2026-04-24T03:58:31Z</time></trkpt><trkpt lat="45.84146183784847" lon="9.014798689297661"><ele>260.0</ele><time>2026-04-24T03:58:32Z</time></trkpt><trkpt lat="45.84152010786708" lon="9.014640161377049"><ele>259.5</ele><time>2026-04-24T03:58:33Z</time></trkpt><trkpt lat="45.84158386318298" lon="9.014502606282026"><ele>259.0</ele><time>2026-04-24T03:58:34Z</time></trkpt><trkpt lat="45.84164552901684" lon="9.014381398952848"><ele>259.0</ele><time>2026-04-24T03:58:35Z</time></trkpt><trkpt lat="45.84170573152672" lon="9.01427950041114"><ele>259.0</ele><time>2026-04-24T03:58:36Z</time></trkpt><trkpt lat="45.84177544252954" lon="9.014162882498303"><ele>259.0</ele><time>2026-04-24T03:58:37Z</time></trkpt><trkpt lat="45.841862031967366" lon="9.01402542484733"><ele>259.0</ele><time>2026-04-24T03:58:38Z</time></trkpt><trkpt lat="45.8419486431159" lon="9.01389049720904"><ele>258.59999999999997</ele><time>2026-04-24T03:58:39Z</time></trkpt><trkpt lat="45.84201881397993" lon="9.01378181665615"><ele>258.2</ele><time>2026-04-24T03:58:40Z</time></trkpt><trkpt lat="45.84207436021038" lon="9.013704160528548"><ele>257.79999999999995</ele><time>2026-04-24T03:58:41Z</time></trkpt><trkpt lat="45.84215144012464" lon="9.013644458175275"><ele>257.4</ele><time>2026-04-24T03:58:43Z</time></trkpt><trkpt lat="45.84223739262063" lon="9.013618560077234"><ele>257.0</ele><time>2026-04-24T03:58:45Z</time></trkpt><trkpt lat="45.84234043479496" lon="9.013555912808211"><ele>257.0</ele><time>2026-04-24T03:58:47Z</time></trkpt><trkpt lat="45.84237599714946" lon="9.013476240656216"><ele>257.0</ele><time>2026-04-24T03:58:48Z</time></trkpt><trkpt lat="45.84239144012674" lon="9.013388419793332"><ele>257.0</ele><time>2026-04-24T03:58:49Z</time></trkpt><trkpt lat="45.84239530653977" lon="9.013286026275821"><ele>257.0</ele><time>2026-04-24T03:58:50Z</time></trkpt><trkpt lat="45.842421236785256" lon="9.013172468212987"><ele>257.0</ele><time>2026-04-24T03:58:51Z</time></trkpt><trkpt lat="45.842472289225064" lon="9.013056857884962"><ele>257.0</ele><time>2026-04-24T03:58:52Z</time></trkpt><trkpt lat="45.84253315762845" lon="9.012937487003503"><ele>257.25</ele><time>2026-04-24T03:58:53Z</time></trkpt><trkpt lat="45.84260587296767" lon="9.012816590311106"><ele>257.5</ele><time>2026-04-24T03:58:54Z</time></trkpt><trkpt lat="45.842685978468296" lon="9.012707485922405"><ele>257.75</ele><time>2026-04-24T03:58:55Z</time></trkpt><trkpt lat="45.842766537098484" lon="9.012601961484362"><ele>258.0</ele><time>2026-04-24T03:58:56Z</time></trkpt><trkpt lat="45.842854089819426" lon="9.012486377735874"><ele>258.6666666666667</ele><time>2026-04-24T03:58:57Z</time></trkpt><trkpt lat="45.84295660723286" lon="9.012355803159515"><ele>259.33333333333337</ele><time>2026-04-24T03:58:58Z</time></trkpt><trkpt lat="45.84304965753881" lon="9.01208947033357"><ele>260.0</ele><time>2026-04-24T03:58:58.999Z</time></trkpt><trkpt lat="45.843188124551055" lon="9.011869219484806"><ele>260.0</ele><time>2026-04-24T03:58:59.999Z</time></trkpt><trkpt lat="45.84331648047503" lon="9.011672963463742"><ele>260.0</ele><time>2026-04-24T03:59:00.999Z</time></trkpt><trkpt lat="45.84343309518003" lon="9.011490236218062"><ele>260.0</ele><time>2026-04-24T03:59:01.999Z</time></trkpt><trkpt lat="45.84354585796539" lon="9.011315488632823"><ele>261.25</ele><time>2026-04-24T03:59:02.999Z</time></trkpt><trkpt lat="45.84365688273806" lon="9.011165782728364"><ele>262.5</ele><time>2026-04-24T03:59:03.999Z</time></trkpt><trkpt lat="45.84376732009411" lon="9.01104448486437"><ele>263.75</ele><time>2026-04-24T03:59:04.999Z</time></trkpt><trkpt lat="45.843874468938985" lon="9.01097856721721"><ele>265.0</ele><time>2026-04-24T03:59:05.999Z</time></trkpt><trkpt lat="45.84397191475203" lon="9.010929725650975"><ele>265.0</ele><time>2026-04-24T03:59:06.999Z</time></trkpt><trkpt lat="45.84405796347696" lon="9.010913168544196"><ele>265.0</ele><time>2026-04-24T03:59:07.999Z</time></trkpt><trkpt lat="45.84414732423072" lon="9.010896661624626"><ele>265.0</ele><time>2026-04-24T03:59:08.999Z</time></trkpt><trkpt lat="45.844229365113726" lon="9.010901781001689"><ele>265.0</ele><time>2026-04-24T03:59:09.999Z</time></trkpt><trkpt lat="45.84432025719666" lon="9.010927275623338"><ele>265.0</ele><time>2026-04-24T03:59:10.999Z</time></trkpt><trkpt lat="45.8444216690097" lon="9.010975475041652"><ele>267.75</ele><time>2026-04-24T03:59:11.999Z</time></trkpt><trkpt lat="45.84453140489203" lon="9.01103447297247"><ele>270.5</ele><time>2026-04-24T03:59:12.999Z</time></trkpt><trkpt lat="45.84465150256881" lon="9.011082795908976"><ele>273.25</ele><time>2026-04-24T03:59:13.999Z</time></trkpt><trkpt lat="45.84477550499029" lon="9.011127436854952"><ele>276.0</ele><time>2026-04-24T03:59:14.999Z</time></trkpt><trkpt lat="45.844911926894945" lon="9.011184000797407"><ele>276.0</ele><time>2026-04-24T03:59:15.999Z</time></trkpt><trkpt lat="45.84504979978897" lon="9.011240427357071"><ele>276.0</ele><time>2026-04-24T03:59:16.999Z</time></trkpt><trkpt lat="45.845183675080975" lon="9.011297532969655"><ele>276.0</ele><time>2026-04-24T03:59:17.999Z</time></trkpt><trkpt lat="45.845299089795255" lon="9.011351053989733"><ele>276.0</ele><time>2026-04-24T03:59:18.999Z</time></trkpt><trkpt lat="45.8454146644377" lon="9.01141092505964"><ele>277.25</ele><time>2026-04-24T03:59:19.999Z</time></trkpt><trkpt lat="45.84550620096637" lon="9.011512318966556"><ele>278.5</ele><time>2026-04-24T03:59:20.999Z</time></trkpt><trkpt lat="45.845561031658214" lon="9.011668088039766"><ele>279.75</ele><time>2026-04-24T03:59:21.999Z</time></trkpt><trkpt lat="45.845621512228384" lon="9.011835600531612"><ele>281.0</ele><time>2026-04-24T03:59:22.999Z</time></trkpt><trkpt lat="45.845628794957086" lon="9.01202383052316"><ele>276.5</ele><time>2026-04-24T03:59:23.999Z</time></trkpt><trkpt lat="45.845644421606245" lon="9.01220088114333"><ele>272.0</ele><time>2026-04-24T03:59:24.999Z</time></trkpt><trkpt lat="45.84563893689692" lon="9.012363450346177"><ele>267.5</ele><time>2026-04-24T03:59:25.999Z</time></trkpt><trkpt lat="45.84562674447514" lon="9.012517580384507"><ele>263.0</ele><time>2026-04-24T03:59:26.999Z</time></trkpt><trkpt lat="45.845579054938575" lon="9.01265180972497"><ele>262.5</ele><time>2026-04-24T03:59:27.999Z</time></trkpt><trkpt lat="45.84559211883705" lon="9.012784234100936"><ele>262.0</ele><time>2026-04-24T03:59:28.999Z</time></trkpt><trkpt lat="45.84563052183409" lon="9.012948197931024"><ele>261.5</ele><time>2026-04-24T03:59:29.999Z</time></trkpt><trkpt lat="45.84566740515025" lon="9.01316968744868"><ele>261.0</ele><time>2026-04-24T03:59:30.999Z</time></trkpt><trkpt lat="45.845681222341064" lon="9.013425723908096"><ele>261.5</ele><time>2026-04-24T03:59:31.999Z</time></trkpt><trkpt lat="45.84570503614791" lon="9.013666233388133"><ele>262.0</ele><time>2026-04-24T03:59:32.999Z</time></trkpt><trkpt lat="45.845739328425466" lon="9.013867208509692"><ele>262.5</ele><time>2026-04-24T03:59:33.999Z</time></trkpt><trkpt lat="45.84577239030714" lon="9.014036135316847"><ele>263.0</ele><time>2026-04-24T03:59:34.999Z</time></trkpt><trkpt lat="45.84579892770197" lon="9.014184327623912"><ele>263.0</ele><time>2026-04-24T03:59:35.999Z</time></trkpt><trkpt lat="45.84580768850431" lon="9.014308385729521"><ele>263.0</ele><time>2026-04-24T03:59:36.999Z</time></trkpt><trkpt lat="45.84578471938676" lon="9.014418624254263"><ele>263.0</ele><time>2026-04-24T03:59:37.999Z</time></trkpt><trkpt lat="45.8457506439099" lon="9.014515255955097"><ele>263.0</ele><time>2026-04-24T03:59:38.999Z</time></trkpt><trkpt lat="45.845809751188405" lon="9.014685750707269"><ele>263.0</ele><time>2026-04-24T03:59:40.999Z</time></trkpt><trkpt lat="45.84589545824447" lon="9.014700784497865"><ele>263.5</ele><time>2026-04-24T03:59:41.999Z</time></trkpt><trkpt lat="45.8459770484596" lon="9.014642747013124"><ele>264.0</ele><time>2026-04-24T03:59:42.999Z</time></trkpt><trkpt lat="45.84607012928841" lon="9.014528288980667"><ele>264.5</ele><time>2026-04-24T03:59:44Z</time></trkpt><trkpt lat="45.84619320062843" lon="9.014431990332042"><ele>265.0</ele><time>2026-04-24T03:59:45Z</time></trkpt><trkpt lat="45.84631981126039" lon="9.014385453281152"><ele>265.0</ele><time>2026-04-24T03:59:46Z</time></trkpt><trkpt lat="45.84642928311233" lon="9.014354703266665"><ele>265.0</ele><time>2026-04-24T03:59:47Z</time></trkpt><trkpt lat="45.84650581326512" lon="9.014330471791979"><ele>265.0</ele><time>2026-04-24T03:59:48Z</time></trkpt><trkpt lat="45.84658049155061" lon="9.014364074587233"><ele>265.0</ele><time>2026-04-24T03:59:50Z</time></trkpt><trkpt lat="45.84661096414562" lon="9.014449155265645"><ele>265.0</ele><time>2026-04-24T03:59:51Z</time></trkpt><trkpt lat="45.84663786831225" lon="9.014538754255902"><ele>265.0</ele><time>2026-04-24T03:59:52Z</time></trkpt><trkpt lat="45.846673279595805" lon="9.014636921471167"><ele>265.0</ele><time>2026-04-24T03:59:53Z</time></trkpt><trkpt lat="45.846706211247" lon="9.014715713232736"><ele>265.0</ele><time>2026-04-24T03:59:54Z</time></trkpt><trkpt lat="45.846771113032894" lon="9.014875950651332"><ele>265.0</ele><time>2026-04-24T03:59:56Z</time></trkpt><trkpt lat="45.846805648653785" lon="9.014957782309864"><ele>265.0</ele><time>2026-04-24T03:59:57Z</time></trkpt><trkpt lat="45.846840852852274" lon="9.015045257918231"><ele>265.0</ele><time>2026-04-24T03:59:58Z</time></trkpt><trkpt lat="45.84687817180231" lon="9.015166696356662"><ele>265.0</ele><time>2026-04-24T04:00:00Z</time></trkpt><trkpt lat="45.846976331301946" lon="9.015232395068281"><ele>265.66666666666663</ele><time>2026-04-24T04:00:02Z</time></trkpt><trkpt lat="45.84703729341719" lon="9.015265028980437"><ele>266.3333333333333</ele><time>2026-04-24T04:00:03Z</time></trkpt><trkpt lat="45.84711638580408" lon="9.015186619187014"><ele>267.0</ele><time>2026-04-24T04:00:04Z</time></trkpt><trkpt lat="45.84718776231663" lon="9.015126340541954"><ele>267.6666666666667</ele><time>2026-04-24T04:00:05Z</time></trkpt><trkpt lat="45.8472196994768" lon="9.015023366092862"><ele>268.33333333333337</ele><time>2026-04-24T04:00:06Z</time></trkpt><trkpt lat="45.8472172965959" lon="9.014914827053865"><ele>269.0</ele><time>2026-04-24T04:00:07Z</time></trkpt><trkpt lat="45.8472301930339" lon="9.014823875620795"><ele>269.0</ele><time>2026-04-24T04:00:08Z</time></trkpt><trkpt lat="45.84718008465327" lon="9.014653404656363"><ele>269.0</ele><time>2026-04-24T04:00:10Z</time></trkpt><trkpt lat="45.84717974562388" lon="9.014527419410834"><ele>269.0</ele><time>2026-04-24T04:00:12Z</time></trkpt><trkpt lat="45.847250312725976" lon="9.014458468609563"><ele>269.0</ele><time>2026-04-24T04:00:15Z</time></trkpt><trkpt lat="45.84718336382556" lon="9.01424798660361"><ele>269.0</ele><time>2026-04-24T04:00:18Z</time></trkpt><trkpt lat="45.84713600216832" lon="9.01416121691959"><ele>269.0</ele><time>2026-04-24T04:00:19Z</time></trkpt><trkpt lat="45.84711634992631" lon="9.014073971566145"><ele>269.0</ele><time>2026-04-24T04:00:20Z</time></trkpt><trkpt lat="45.847172114635704" lon="9.014023702167346"><ele>269.0</ele><time>2026-04-24T04:00:22Z</time></trkpt><trkpt lat="45.8472572186673" lon="9.014016112277135"><ele>269.0</ele><time>2026-04-24T04:00:24Z</time></trkpt><trkpt lat="45.84730640733853" lon="9.014168833895281"><ele>269.0</ele><time>2026-04-24T04:00:26Z</time></trkpt><trkpt lat="45.847337319039354" lon="9.014259654612156"><ele>269.0</ele><time>2026-04-24T04:00:27Z</time></trkpt><trkpt lat="45.84736839017111" lon="9.014339852977228"><ele>269.0</ele><time>2026-04-24T04:00:29Z</time></trkpt><trkpt lat="45.84732370590887" lon="9.014414288755804"><ele>269.0</ele><time>2026-04-24T04:00:32Z</time></trkpt><trkpt lat="45.84726174666138" lon="9.014398030982539"><ele>269.0</ele><time>2026-04-24T04:00:34Z</time></trkpt></trkseg></trk></gpx>